<?xml version="1.0" encoding="UTF-8" standalone="no" ?><gpx xmlns="http://www.topografix.com/GPX/1/1" xmlns:gpxx="http://www.garmin.com/xmlschemas/GpxExtensions/v3" xmlns:wptx1="http://www.garmin.com/xmlschemas/WaypointExtension/v1" xmlns:gpxtpx="http://www.garmin.com/xmlschemas/TrackPointExtension/v1" creator="GuideVTT.com" version="1.1" xmlns:xsi="http://www.w3.org/2001/XMLSchema-instance" xsi:schemaLocation="http://www.topografix.com/GPX/1/1 http://www.topografix.com/GPX/1/1/gpx.xsd http://www.garmin.com/xmlschemas/GpxExtensions/v3 http://www8.garmin.com/xmlschemas/GpxExtensionsv3.xsd http://www.garmin.com/xmlschemas/WaypointExtension/v1 http://www8.garmin.com/xmlschemas/WaypointExtensionv1.xsd http://www.garmin.com/xmlschemas/TrackPointExtension/v1 http://www.garmin.com/xmlschemas/TrackPointExtensionv1.xsd">
<metadata><link href="http://www.garmin.com"><text>Garmin International</text></link><time>2013-06-22T15:13:50Z</time></metadata>
<trk><name>2020-06-23_0948__20200623_0948.gpx</name><extensions><gpxx:TrackExtension><gpxx:DisplayColor>Cyan</gpxx:DisplayColor></gpxx:TrackExtension></extensions><trkseg>
<trkpt lat="44.2642997" lon="3.4607107"><ele></ele><time>2022-6-2T23:35:56Z</time></trkpt>
<trkpt lat="44.2641169" lon="3.4607231"><ele></ele><time>2022-6-2T23:35:59Z</time></trkpt>
<trkpt lat="44.2641685" lon="3.4609693"><ele></ele><time>2022-6-2T23:36:2Z</time></trkpt>
<trkpt lat="44.2640112" lon="3.4611121"><ele></ele><time>2022-6-2T23:36:5Z</time></trkpt>
<trkpt lat="44.2638358" lon="3.4612313"><ele></ele><time>2022-6-2T23:36:8Z</time></trkpt>
<trkpt lat="44.2636317" lon="3.4612164"><ele></ele><time>2022-6-2T23:36:11Z</time></trkpt>
<trkpt lat="44.2634300" lon="3.4611747"><ele></ele><time>2022-6-2T23:36:14Z</time></trkpt>
<trkpt lat="44.2632702" lon="3.4613023"><ele></ele><time>2022-6-2T23:36:17Z</time></trkpt>
<trkpt lat="44.2630726" lon="3.4612556"><ele></ele><time>2022-6-2T23:36:20Z</time></trkpt>
<trkpt lat="44.2628777" lon="3.4612215"><ele></ele><time>2022-6-2T23:36:23Z</time></trkpt>
<trkpt lat="44.2626961" lon="3.4611608"><ele></ele><time>2022-6-2T23:36:26Z</time></trkpt>
<trkpt lat="44.2625149" lon="3.4611191"><ele></ele><time>2022-6-2T23:36:29Z</time></trkpt>
<trkpt lat="44.2623035" lon="3.4611051"><ele></ele><time>2022-6-2T23:36:32Z</time></trkpt>
<trkpt lat="44.2621106" lon="3.4611052"><ele></ele><time>2022-6-2T23:36:35Z</time></trkpt>
<trkpt lat="44.2619240" lon="3.4610980"><ele></ele><time>2022-6-2T23:36:38Z</time></trkpt>
<trkpt lat="44.2617263" lon="3.4610997"><ele></ele><time>2022-6-2T23:36:41Z</time></trkpt>
<trkpt lat="44.2615455" lon="3.4611034"><ele></ele><time>2022-6-2T23:36:44Z</time></trkpt>
<trkpt lat="44.2613658" lon="3.4611226"><ele></ele><time>2022-6-2T23:36:47Z</time></trkpt>
<trkpt lat="44.2612134" lon="3.4612766"><ele></ele><time>2022-6-2T23:36:50Z</time></trkpt>
<trkpt lat="44.2610351" lon="3.4613947"><ele></ele><time>2022-6-2T23:36:53Z</time></trkpt>
<trkpt lat="44.2608579" lon="3.4614874"><ele></ele><time>2022-6-2T23:36:56Z</time></trkpt>
<trkpt lat="44.2606696" lon="3.4615803"><ele></ele><time>2022-6-2T23:36:59Z</time></trkpt>
<trkpt lat="44.2604947" lon="3.4616609"><ele></ele><time>2022-6-2T23:37:2Z</time></trkpt>
<trkpt lat="44.2603231" lon="3.4617656"><ele></ele><time>2022-6-2T23:37:5Z</time></trkpt>
<trkpt lat="44.2601571" lon="3.4618805"><ele></ele><time>2022-6-2T23:37:8Z</time></trkpt>
<trkpt lat="44.2599907" lon="3.4620101"><ele></ele><time>2022-6-2T23:37:11Z</time></trkpt>
<trkpt lat="44.2598284" lon="3.4621566"><ele></ele><time>2022-6-2T23:37:14Z</time></trkpt>
<trkpt lat="44.2596508" lon="3.4622615"><ele></ele><time>2022-6-2T23:37:17Z</time></trkpt>
<trkpt lat="44.2594760" lon="3.4623485"><ele></ele><time>2022-6-2T23:37:20Z</time></trkpt>
<trkpt lat="44.2592972" lon="3.4624470"><ele></ele><time>2022-6-2T23:37:23Z</time></trkpt>
<trkpt lat="44.2591155" lon="3.4625583"><ele></ele><time>2022-6-2T23:37:26Z</time></trkpt>
<trkpt lat="44.2589242" lon="3.4626192"><ele></ele><time>2022-6-2T23:37:29Z</time></trkpt>
<trkpt lat="44.2587307" lon="3.4626439"><ele></ele><time>2022-6-2T23:37:32Z</time></trkpt>
<trkpt lat="44.2585368" lon="3.4626777"><ele></ele><time>2022-6-2T23:37:35Z</time></trkpt>
<trkpt lat="44.2583432" lon="3.4627342"><ele></ele><time>2022-6-2T23:37:38Z</time></trkpt>
<trkpt lat="44.2581521" lon="3.4628082"><ele></ele><time>2022-6-2T23:37:41Z</time></trkpt>
<trkpt lat="44.2579666" lon="3.4628861"><ele></ele><time>2022-6-2T23:37:44Z</time></trkpt>
<trkpt lat="44.2577947" lon="3.4629785"><ele></ele><time>2022-6-2T23:37:47Z</time></trkpt>
<trkpt lat="44.2576232" lon="3.4630760"><ele></ele><time>2022-6-2T23:37:50Z</time></trkpt>
<trkpt lat="44.2574467" lon="3.4631906"><ele></ele><time>2022-6-2T23:37:53Z</time></trkpt>
<trkpt lat="44.2572613" lon="3.4633000"><ele></ele><time>2022-6-2T23:37:56Z</time></trkpt>
<trkpt lat="44.2570845" lon="3.4633907"><ele></ele><time>2022-6-2T23:37:59Z</time></trkpt>
<trkpt lat="44.2568962" lon="3.4634528"><ele></ele><time>2022-6-2T23:38:2Z</time></trkpt>
<trkpt lat="44.2567110" lon="3.4635117"><ele></ele><time>2022-6-2T23:38:5Z</time></trkpt>
<trkpt lat="44.2565250" lon="3.4635418"><ele></ele><time>2022-6-2T23:38:8Z</time></trkpt>
<trkpt lat="44.2563278" lon="3.4635760"><ele></ele><time>2022-6-2T23:38:11Z</time></trkpt>
<trkpt lat="44.2561328" lon="3.4636320"><ele></ele><time>2022-6-2T23:38:14Z</time></trkpt>
<trkpt lat="44.2559423" lon="3.4637138"><ele></ele><time>2022-6-2T23:38:17Z</time></trkpt>
<trkpt lat="44.2557536" lon="3.4637976"><ele></ele><time>2022-6-2T23:38:20Z</time></trkpt>
<trkpt lat="44.2555590" lon="3.4638542"><ele></ele><time>2022-6-2T23:38:23Z</time></trkpt>
<trkpt lat="44.2553826" lon="3.4639461"><ele></ele><time>2022-6-2T23:38:26Z</time></trkpt>
<trkpt lat="44.2552090" lon="3.4640954"><ele></ele><time>2022-6-2T23:38:29Z</time></trkpt>
<trkpt lat="44.2550570" lon="3.4642640"><ele></ele><time>2022-6-2T23:38:32Z</time></trkpt>
<trkpt lat="44.2549123" lon="3.4644293"><ele></ele><time>2022-6-2T23:38:35Z</time></trkpt>
<trkpt lat="44.2547666" lon="3.4646204"><ele></ele><time>2022-6-2T23:38:38Z</time></trkpt>
<trkpt lat="44.2546422" lon="3.4648072"><ele></ele><time>2022-6-2T23:38:41Z</time></trkpt>
<trkpt lat="44.2545287" lon="3.4650194"><ele></ele><time>2022-6-2T23:38:44Z</time></trkpt>
<trkpt lat="44.2546638" lon="3.4648055"><ele></ele><time>2022-6-2T23:38:47Z</time></trkpt>
<trkpt lat="44.2547894" lon="3.4645809"><ele></ele><time>2022-6-2T23:38:50Z</time></trkpt>
<trkpt lat="44.2549555" lon="3.4643847"><ele></ele><time>2022-6-2T23:38:53Z</time></trkpt>
<trkpt lat="44.2551018" lon="3.4642287"><ele></ele><time>2022-6-2T23:38:56Z</time></trkpt>
<trkpt lat="44.2552575" lon="3.4640714"><ele></ele><time>2022-6-2T23:38:59Z</time></trkpt>
<trkpt lat="44.2554165" lon="3.4639501"><ele></ele><time>2022-6-2T23:39:2Z</time></trkpt>
<trkpt lat="44.2556132" lon="3.4638480"><ele></ele><time>2022-6-2T23:39:5Z</time></trkpt>
<trkpt lat="44.2558061" lon="3.4637525"><ele></ele><time>2022-6-2T23:39:8Z</time></trkpt>
<trkpt lat="44.2560043" lon="3.4636631"><ele></ele><time>2022-6-2T23:39:11Z</time></trkpt>
<trkpt lat="44.2561958" lon="3.4636134"><ele></ele><time>2022-6-2T23:39:14Z</time></trkpt>
<trkpt lat="44.2563988" lon="3.4635361"><ele></ele><time>2022-6-2T23:39:17Z</time></trkpt>
<trkpt lat="44.2565903" lon="3.4635033"><ele></ele><time>2022-6-2T23:39:20Z</time></trkpt>
<trkpt lat="44.2567710" lon="3.4634793"><ele></ele><time>2022-6-2T23:39:23Z</time></trkpt>
<trkpt lat="44.2569652" lon="3.4634243"><ele></ele><time>2022-6-2T23:39:26Z</time></trkpt>
<trkpt lat="44.2571557" lon="3.4633439"><ele></ele><time>2022-6-2T23:39:29Z</time></trkpt>
<trkpt lat="44.2573657" lon="3.4632376"><ele></ele><time>2022-6-2T23:39:32Z</time></trkpt>
<trkpt lat="44.2575551" lon="3.4631201"><ele></ele><time>2022-6-2T23:39:35Z</time></trkpt>
<trkpt lat="44.2577669" lon="3.4629992"><ele></ele><time>2022-6-2T23:39:38Z</time></trkpt>
<trkpt lat="44.2579530" lon="3.4629031"><ele></ele><time>2022-6-2T23:39:41Z</time></trkpt>
<trkpt lat="44.2581529" lon="3.4628002"><ele></ele><time>2022-6-2T23:39:44Z</time></trkpt>
<trkpt lat="44.2583503" lon="3.4627419"><ele></ele><time>2022-6-2T23:39:47Z</time></trkpt>
<trkpt lat="44.2585340" lon="3.4626959"><ele></ele><time>2022-6-2T23:39:50Z</time></trkpt>
<trkpt lat="44.2587129" lon="3.4626355"><ele></ele><time>2022-6-2T23:39:53Z</time></trkpt>
<trkpt lat="44.2589309" lon="3.4626199"><ele></ele><time>2022-6-2T23:39:56Z</time></trkpt>
<trkpt lat="44.2591131" lon="3.4625558"><ele></ele><time>2022-6-2T23:39:59Z</time></trkpt>
<trkpt lat="44.2593152" lon="3.4624561"><ele></ele><time>2022-6-2T23:40:2Z</time></trkpt>
<trkpt lat="44.2594850" lon="3.4623272"><ele></ele><time>2022-6-2T23:40:5Z</time></trkpt>
<trkpt lat="44.2593145" lon="3.4621827"><ele></ele><time>2022-6-2T23:40:8Z</time></trkpt>
<trkpt lat="44.2591117" lon="3.4621395"><ele></ele><time>2022-6-2T23:40:11Z</time></trkpt>
<trkpt lat="44.2588872" lon="3.4621461"><ele></ele><time>2022-6-2T23:40:14Z</time></trkpt>
<trkpt lat="44.2586524" lon="3.4621191"><ele></ele><time>2022-6-2T23:40:17Z</time></trkpt>
<trkpt lat="44.2584130" lon="3.4620648"><ele></ele><time>2022-6-2T23:40:20Z</time></trkpt>
<trkpt lat="44.2582335" lon="3.4620154"><ele></ele><time>2022-6-2T23:40:23Z</time></trkpt>
<trkpt lat="44.2580105" lon="3.4619660"><ele></ele><time>2022-6-2T23:40:26Z</time></trkpt>
<trkpt lat="44.2578128" lon="3.4619386"><ele></ele><time>2022-6-2T23:40:29Z</time></trkpt>
<trkpt lat="44.2575997" lon="3.4619455"><ele></ele><time>2022-6-2T23:40:32Z</time></trkpt>
<trkpt lat="44.2573910" lon="3.4619366"><ele></ele><time>2022-6-2T23:40:35Z</time></trkpt>
<trkpt lat="44.2571756" lon="3.4619364"><ele></ele><time>2022-6-2T23:40:38Z</time></trkpt>
<trkpt lat="44.2569674" lon="3.4619835"><ele></ele><time>2022-6-2T23:40:41Z</time></trkpt>
<trkpt lat="44.2567721" lon="3.4620119"><ele></ele><time>2022-6-2T23:40:44Z</time></trkpt>
<trkpt lat="44.2565887" lon="3.4620420"><ele></ele><time>2022-6-2T23:40:47Z</time></trkpt>
<trkpt lat="44.2563751" lon="3.4620019"><ele></ele><time>2022-6-2T23:40:50Z</time></trkpt>
<trkpt lat="44.2561799" lon="3.4619646"><ele></ele><time>2022-6-2T23:40:53Z</time></trkpt>
<trkpt lat="44.2559920" lon="3.4619325"><ele></ele><time>2022-6-2T23:40:56Z</time></trkpt>
<trkpt lat="44.2558047" lon="3.4618959"><ele></ele><time>2022-6-2T23:40:59Z</time></trkpt>
<trkpt lat="44.2556265" lon="3.4618273"><ele></ele><time>2022-6-2T23:41:2Z</time></trkpt>
<trkpt lat="44.2554610" lon="3.4617246"><ele></ele><time>2022-6-2T23:41:5Z</time></trkpt>
<trkpt lat="44.2552796" lon="3.4616162"><ele></ele><time>2022-6-2T23:41:8Z</time></trkpt>
<trkpt lat="44.2551056" lon="3.4615361"><ele></ele><time>2022-6-2T23:41:11Z</time></trkpt>
<trkpt lat="44.2549197" lon="3.4614964"><ele></ele><time>2022-6-2T23:41:14Z</time></trkpt>
<trkpt lat="44.2547311" lon="3.4615022"><ele></ele><time>2022-6-2T23:41:17Z</time></trkpt>
<trkpt lat="44.2545269" lon="3.4615056"><ele></ele><time>2022-6-2T23:41:20Z</time></trkpt>
<trkpt lat="44.2543444" lon="3.4614887"><ele></ele><time>2022-6-2T23:41:23Z</time></trkpt>
<trkpt lat="44.2541533" lon="3.4615323"><ele></ele><time>2022-6-2T23:41:26Z</time></trkpt>
<trkpt lat="44.2539722" lon="3.4616042"><ele></ele><time>2022-6-2T23:41:29Z</time></trkpt>
<trkpt lat="44.2537672" lon="3.4616937"><ele></ele><time>2022-6-2T23:41:32Z</time></trkpt>
<trkpt lat="44.2535886" lon="3.4617858"><ele></ele><time>2022-6-2T23:41:35Z</time></trkpt>
<trkpt lat="44.2534279" lon="3.4618991"><ele></ele><time>2022-6-2T23:41:38Z</time></trkpt>
<trkpt lat="44.2532540" lon="3.4620267"><ele></ele><time>2022-6-2T23:41:41Z</time></trkpt>
<trkpt lat="44.2530724" lon="3.4621559"><ele></ele><time>2022-6-2T23:41:44Z</time></trkpt>
<trkpt lat="44.2529054" lon="3.4622939"><ele></ele><time>2022-6-2T23:41:47Z</time></trkpt>
<trkpt lat="44.2527530" lon="3.4624373"><ele></ele><time>2022-6-2T23:41:50Z</time></trkpt>
<trkpt lat="44.2525936" lon="3.4625553"><ele></ele><time>2022-6-2T23:41:53Z</time></trkpt>
<trkpt lat="44.2524371" lon="3.4627377"><ele></ele><time>2022-6-2T23:41:56Z</time></trkpt>
<trkpt lat="44.2523132" lon="3.4629282"><ele></ele><time>2022-6-2T23:41:59Z</time></trkpt>
<trkpt lat="44.2521492" lon="3.4630404"><ele></ele><time>2022-6-2T23:42:2Z</time></trkpt>
<trkpt lat="44.2519576" lon="3.4629994"><ele></ele><time>2022-6-2T23:42:5Z</time></trkpt>
<trkpt lat="44.2517883" lon="3.4630856"><ele></ele><time>2022-6-2T23:42:8Z</time></trkpt>
<trkpt lat="44.2516248" lon="3.4631955"><ele></ele><time>2022-6-2T23:42:11Z</time></trkpt>
<trkpt lat="44.2514441" lon="3.4632658"><ele></ele><time>2022-6-2T23:42:14Z</time></trkpt>
<trkpt lat="44.2512617" lon="3.4633052"><ele></ele><time>2022-6-2T23:42:17Z</time></trkpt>
<trkpt lat="44.2510707" lon="3.4633975"><ele></ele><time>2022-6-2T23:42:20Z</time></trkpt>
<trkpt lat="44.2508954" lon="3.4634770"><ele></ele><time>2022-6-2T23:42:23Z</time></trkpt>
<trkpt lat="44.2507065" lon="3.4635553"><ele></ele><time>2022-6-2T23:42:26Z</time></trkpt>
<trkpt lat="44.2505301" lon="3.4636243"><ele></ele><time>2022-6-2T23:42:29Z</time></trkpt>
<trkpt lat="44.2503434" lon="3.4636562"><ele></ele><time>2022-6-2T23:42:32Z</time></trkpt>
<trkpt lat="44.2501742" lon="3.4637417"><ele></ele><time>2022-6-2T23:42:35Z</time></trkpt>
<trkpt lat="44.2499985" lon="3.4638369"><ele></ele><time>2022-6-2T23:42:38Z</time></trkpt>
<trkpt lat="44.2498299" lon="3.4639678"><ele></ele><time>2022-6-2T23:42:41Z</time></trkpt>
<trkpt lat="44.2496680" lon="3.4641029"><ele></ele><time>2022-6-2T23:42:44Z</time></trkpt>
<trkpt lat="44.2495042" lon="3.4642500"><ele></ele><time>2022-6-2T23:42:47Z</time></trkpt>
<trkpt lat="44.2493254" lon="3.4643335"><ele></ele><time>2022-6-2T23:42:50Z</time></trkpt>
<trkpt lat="44.2491439" lon="3.4644035"><ele></ele><time>2022-6-2T23:42:53Z</time></trkpt>
<trkpt lat="44.2490088" lon="3.4645905"><ele></ele><time>2022-6-2T23:42:56Z</time></trkpt>
<trkpt lat="44.2488608" lon="3.4647620"><ele></ele><time>2022-6-2T23:42:59Z</time></trkpt>
<trkpt lat="44.2487196" lon="3.4649202"><ele></ele><time>2022-6-2T23:43:2Z</time></trkpt>
<trkpt lat="44.2485638" lon="3.4650717"><ele></ele><time>2022-6-2T23:43:5Z</time></trkpt>
<trkpt lat="44.2484130" lon="3.4652212"><ele></ele><time>2022-6-2T23:43:8Z</time></trkpt>
<trkpt lat="44.2482474" lon="3.4653369"><ele></ele><time>2022-6-2T23:43:11Z</time></trkpt>
<trkpt lat="44.2480746" lon="3.4654584"><ele></ele><time>2022-6-2T23:43:14Z</time></trkpt>
<trkpt lat="44.2478981" lon="3.4655608"><ele></ele><time>2022-6-2T23:43:17Z</time></trkpt>
<trkpt lat="44.2477267" lon="3.4656683"><ele></ele><time>2022-6-2T23:43:20Z</time></trkpt>
<trkpt lat="44.2475843" lon="3.4658240"><ele></ele><time>2022-6-2T23:43:23Z</time></trkpt>
<trkpt lat="44.2474305" lon="3.4659847"><ele></ele><time>2022-6-2T23:43:26Z</time></trkpt>
<trkpt lat="44.2473052" lon="3.4661724"><ele></ele><time>2022-6-2T23:43:29Z</time></trkpt>
<trkpt lat="44.2472139" lon="3.4664021"><ele></ele><time>2022-6-2T23:43:32Z</time></trkpt>
<trkpt lat="44.2471076" lon="3.4666445"><ele></ele><time>2022-6-2T23:43:35Z</time></trkpt>
<trkpt lat="44.2470046" lon="3.4668788"><ele></ele><time>2022-6-2T23:43:38Z</time></trkpt>
<trkpt lat="44.2468708" lon="3.4670591"><ele></ele><time>2022-6-2T23:43:41Z</time></trkpt>
<trkpt lat="44.2468065" lon="3.4673048"><ele></ele><time>2022-6-2T23:43:44Z</time></trkpt>
<trkpt lat="44.2468239" lon="3.4675848"><ele></ele><time>2022-6-2T23:43:47Z</time></trkpt>
<trkpt lat="44.2467087" lon="3.4678425"><ele></ele><time>2022-6-2T23:43:50Z</time></trkpt>
<trkpt lat="44.2465889" lon="3.4680587"><ele></ele><time>2022-6-2T23:43:53Z</time></trkpt>
<trkpt lat="44.2465231" lon="3.4683084"><ele></ele><time>2022-6-2T23:43:56Z</time></trkpt>
<trkpt lat="44.2465405" lon="3.4685790"><ele></ele><time>2022-6-2T23:43:59Z</time></trkpt>
<trkpt lat="44.2464360" lon="3.4687907"><ele></ele><time>2022-6-2T23:44:2Z</time></trkpt>
<trkpt lat="44.2463316" lon="3.4689974"><ele></ele><time>2022-6-2T23:44:5Z</time></trkpt>
<trkpt lat="44.2461869" lon="3.4691881"><ele></ele><time>2022-6-2T23:44:8Z</time></trkpt>
<trkpt lat="44.2460441" lon="3.4693426"><ele></ele><time>2022-6-2T23:44:11Z</time></trkpt>
<trkpt lat="44.2458821" lon="3.4694699"><ele></ele><time>2022-6-2T23:44:14Z</time></trkpt>
<trkpt lat="44.2457310" lon="3.4696647"><ele></ele><time>2022-6-2T23:44:17Z</time></trkpt>
<trkpt lat="44.2455804" lon="3.4698417"><ele></ele><time>2022-6-2T23:44:20Z</time></trkpt>
<trkpt lat="44.2454076" lon="3.4699512"><ele></ele><time>2022-6-2T23:44:23Z</time></trkpt>
<trkpt lat="44.2452514" lon="3.4700824"><ele></ele><time>2022-6-2T23:44:26Z</time></trkpt>
<trkpt lat="44.2450805" lon="3.4701929"><ele></ele><time>2022-6-2T23:44:29Z</time></trkpt>
<trkpt lat="44.2449053" lon="3.4702922"><ele></ele><time>2022-6-2T23:44:32Z</time></trkpt>
<trkpt lat="44.2447378" lon="3.4704227"><ele></ele><time>2022-6-2T23:44:35Z</time></trkpt>
<trkpt lat="44.2445796" lon="3.4705657"><ele></ele><time>2022-6-2T23:44:38Z</time></trkpt>
<trkpt lat="44.2444151" lon="3.4707308"><ele></ele><time>2022-6-2T23:44:41Z</time></trkpt>
<trkpt lat="44.2442475" lon="3.4708809"><ele></ele><time>2022-6-2T23:44:44Z</time></trkpt>
<trkpt lat="44.2440760" lon="3.4710159"><ele></ele><time>2022-6-2T23:44:47Z</time></trkpt>
<trkpt lat="44.2438970" lon="3.4711226"><ele></ele><time>2022-6-2T23:44:50Z</time></trkpt>
<trkpt lat="44.2437694" lon="3.4713082"><ele></ele><time>2022-6-2T23:44:53Z</time></trkpt>
<trkpt lat="44.2436489" lon="3.4715012"><ele></ele><time>2022-6-2T23:44:56Z</time></trkpt>
<trkpt lat="44.2434895" lon="3.4716554"><ele></ele><time>2022-6-2T23:44:59Z</time></trkpt>
<trkpt lat="44.2433267" lon="3.4718056"><ele></ele><time>2022-6-2T23:45:2Z</time></trkpt>
<trkpt lat="44.2431668" lon="3.4719442"><ele></ele><time>2022-6-2T23:45:5Z</time></trkpt>
<trkpt lat="44.2430165" lon="3.4720905"><ele></ele><time>2022-6-2T23:45:8Z</time></trkpt>
<trkpt lat="44.2428518" lon="3.4722028"><ele></ele><time>2022-6-2T23:45:11Z</time></trkpt>
<trkpt lat="44.2426841" lon="3.4723389"><ele></ele><time>2022-6-2T23:45:14Z</time></trkpt>
<trkpt lat="44.2424964" lon="3.4722629"><ele></ele><time>2022-6-2T23:45:17Z</time></trkpt>
<trkpt lat="44.2423131" lon="3.4722594"><ele></ele><time>2022-6-2T23:45:20Z</time></trkpt>
<trkpt lat="44.2421277" lon="3.4722863"><ele></ele><time>2022-6-2T23:45:23Z</time></trkpt>
<trkpt lat="44.2419430" lon="3.4723596"><ele></ele><time>2022-6-2T23:45:26Z</time></trkpt>
<trkpt lat="44.2417710" lon="3.4724473"><ele></ele><time>2022-6-2T23:45:29Z</time></trkpt>
<trkpt lat="44.2415759" lon="3.4725630"><ele></ele><time>2022-6-2T23:45:32Z</time></trkpt>
<trkpt lat="44.2413817" lon="3.4726544"><ele></ele><time>2022-6-2T23:45:35Z</time></trkpt>
<trkpt lat="44.2412021" lon="3.4727305"><ele></ele><time>2022-6-2T23:45:38Z</time></trkpt>
<trkpt lat="44.2410077" lon="3.4727774"><ele></ele><time>2022-6-2T23:45:41Z</time></trkpt>
<trkpt lat="44.2408300" lon="3.4728186"><ele></ele><time>2022-6-2T23:45:44Z</time></trkpt>
<trkpt lat="44.2406378" lon="3.4728163"><ele></ele><time>2022-6-2T23:45:47Z</time></trkpt>
<trkpt lat="44.2404263" lon="3.4728143"><ele></ele><time>2022-6-2T23:45:50Z</time></trkpt>
<trkpt lat="44.2402297" lon="3.4727808"><ele></ele><time>2022-6-2T23:45:53Z</time></trkpt>
<trkpt lat="44.2400306" lon="3.4728074"><ele></ele><time>2022-6-2T23:45:56Z</time></trkpt>
<trkpt lat="44.2398285" lon="3.4728207"><ele></ele><time>2022-6-2T23:45:59Z</time></trkpt>
<trkpt lat="44.2396367" lon="3.4727587"><ele></ele><time>2022-6-2T23:46:2Z</time></trkpt>
<trkpt lat="44.2394435" lon="3.4727326"><ele></ele><time>2022-6-2T23:46:5Z</time></trkpt>
<trkpt lat="44.2392623" lon="3.4726942"><ele></ele><time>2022-6-2T23:46:8Z</time></trkpt>
<trkpt lat="44.2390638" lon="3.4726848"><ele></ele><time>2022-6-2T23:46:11Z</time></trkpt>
<trkpt lat="44.2388735" lon="3.4727157"><ele></ele><time>2022-6-2T23:46:14Z</time></trkpt>
<trkpt lat="44.2386858" lon="3.4727877"><ele></ele><time>2022-6-2T23:46:17Z</time></trkpt>
<trkpt lat="44.2385068" lon="3.4728762"><ele></ele><time>2022-6-2T23:46:20Z</time></trkpt>
<trkpt lat="44.2383113" lon="3.4729636"><ele></ele><time>2022-6-2T23:46:23Z</time></trkpt>
<trkpt lat="44.2381351" lon="3.4730195"><ele></ele><time>2022-6-2T23:46:26Z</time></trkpt>
<trkpt lat="44.2379483" lon="3.4730614"><ele></ele><time>2022-6-2T23:46:29Z</time></trkpt>
<trkpt lat="44.2377494" lon="3.4731122"><ele></ele><time>2022-6-2T23:46:32Z</time></trkpt>
<trkpt lat="44.2375501" lon="3.4731314"><ele></ele><time>2022-6-2T23:46:35Z</time></trkpt>
<trkpt lat="44.2373510" lon="3.4731168"><ele></ele><time>2022-6-2T23:46:38Z</time></trkpt>
<trkpt lat="44.2371629" lon="3.4731215"><ele></ele><time>2022-6-2T23:46:41Z</time></trkpt>
<trkpt lat="44.2369752" lon="3.4731285"><ele></ele><time>2022-6-2T23:46:44Z</time></trkpt>
<trkpt lat="44.2367823" lon="3.4731710"><ele></ele><time>2022-6-2T23:46:47Z</time></trkpt>
<trkpt lat="44.2365996" lon="3.4732646"><ele></ele><time>2022-6-2T23:46:50Z</time></trkpt>
<trkpt lat="44.2364267" lon="3.4733592"><ele></ele><time>2022-6-2T23:46:53Z</time></trkpt>
<trkpt lat="44.2362314" lon="3.4734576"><ele></ele><time>2022-6-2T23:46:56Z</time></trkpt>
<trkpt lat="44.2360560" lon="3.4735140"><ele></ele><time>2022-6-2T23:46:59Z</time></trkpt>
<trkpt lat="44.2358680" lon="3.4736064"><ele></ele><time>2022-6-2T23:47:2Z</time></trkpt>
<trkpt lat="44.2356946" lon="3.4736752"><ele></ele><time>2022-6-2T23:47:5Z</time></trkpt>
<trkpt lat="44.2355183" lon="3.4737414"><ele></ele><time>2022-6-2T23:47:8Z</time></trkpt>
<trkpt lat="44.2353421" lon="3.4738140"><ele></ele><time>2022-6-2T23:47:11Z</time></trkpt>
<trkpt lat="44.2351590" lon="3.4738661"><ele></ele><time>2022-6-2T23:47:14Z</time></trkpt>
<trkpt lat="44.2349587" lon="3.4739305"><ele></ele><time>2022-6-2T23:47:17Z</time></trkpt>
<trkpt lat="44.2347785" lon="3.4740260"><ele></ele><time>2022-6-2T23:47:20Z</time></trkpt>
<trkpt lat="44.2345989" lon="3.4741121"><ele></ele><time>2022-6-2T23:47:23Z</time></trkpt>
<trkpt lat="44.2344038" lon="3.4741803"><ele></ele><time>2022-6-2T23:47:26Z</time></trkpt>
<trkpt lat="44.2342123" lon="3.4742516"><ele></ele><time>2022-6-2T23:47:29Z</time></trkpt>
<trkpt lat="44.2340295" lon="3.4743473"><ele></ele><time>2022-6-2T23:47:32Z</time></trkpt>
<trkpt lat="44.2338569" lon="3.4744872"><ele></ele><time>2022-6-2T23:47:35Z</time></trkpt>
<trkpt lat="44.2336837" lon="3.4746348"><ele></ele><time>2022-6-2T23:47:38Z</time></trkpt>
<trkpt lat="44.2335153" lon="3.4747780"><ele></ele><time>2022-6-2T23:47:41Z</time></trkpt>
<trkpt lat="44.2333247" lon="3.4748779"><ele></ele><time>2022-6-2T23:47:44Z</time></trkpt>
<trkpt lat="44.2331474" lon="3.4750496"><ele></ele><time>2022-6-2T23:47:47Z</time></trkpt>
<trkpt lat="44.2330171" lon="3.4752678"><ele></ele><time>2022-6-2T23:47:50Z</time></trkpt>
<trkpt lat="44.2329336" lon="3.4755278"><ele></ele><time>2022-6-2T23:47:53Z</time></trkpt>
<trkpt lat="44.2328141" lon="3.4757708"><ele></ele><time>2022-6-2T23:47:56Z</time></trkpt>
<trkpt lat="44.2326856" lon="3.4759720"><ele></ele><time>2022-6-2T23:47:59Z</time></trkpt>
<trkpt lat="44.2325348" lon="3.4761428"><ele></ele><time>2022-6-2T23:48:2Z</time></trkpt>
<trkpt lat="44.2323510" lon="3.4763177"><ele></ele><time>2022-6-2T23:48:5Z</time></trkpt>
<trkpt lat="44.2321835" lon="3.4764931"><ele></ele><time>2022-6-2T23:48:8Z</time></trkpt>
<trkpt lat="44.2319859" lon="3.4766350"><ele></ele><time>2022-6-2T23:48:11Z</time></trkpt>
<trkpt lat="44.2317730" lon="3.4767727"><ele></ele><time>2022-6-2T23:48:14Z</time></trkpt>
<trkpt lat="44.2315544" lon="3.4768594"><ele></ele><time>2022-6-2T23:48:17Z</time></trkpt>
<trkpt lat="44.2313311" lon="3.4768988"><ele></ele><time>2022-6-2T23:48:20Z</time></trkpt>
<trkpt lat="44.2311402" lon="3.4769005"><ele></ele><time>2022-6-2T23:48:23Z</time></trkpt>
<trkpt lat="44.2309363" lon="3.4769168"><ele></ele><time>2022-6-2T23:48:26Z</time></trkpt>
<trkpt lat="44.2307526" lon="3.4769857"><ele></ele><time>2022-6-2T23:48:29Z</time></trkpt>
<trkpt lat="44.2305636" lon="3.4770424"><ele></ele><time>2022-6-2T23:48:32Z</time></trkpt>
<trkpt lat="44.2303848" lon="3.4770843"><ele></ele><time>2022-6-2T23:48:35Z</time></trkpt>
<trkpt lat="44.2301717" lon="3.4771728"><ele></ele><time>2022-6-2T23:48:38Z</time></trkpt>
<trkpt lat="44.2299545" lon="3.4772437"><ele></ele><time>2022-6-2T23:48:41Z</time></trkpt>
<trkpt lat="44.2297742" lon="3.4772419"><ele></ele><time>2022-6-2T23:48:44Z</time></trkpt>
<trkpt lat="44.2295918" lon="3.4771893"><ele></ele><time>2022-6-2T23:48:47Z</time></trkpt>
<trkpt lat="44.2293997" lon="3.4771265"><ele></ele><time>2022-6-2T23:48:50Z</time></trkpt>
<trkpt lat="44.2292286" lon="3.4770289"><ele></ele><time>2022-6-2T23:48:53Z</time></trkpt>
<trkpt lat="44.2290644" lon="3.4769183"><ele></ele><time>2022-6-2T23:48:56Z</time></trkpt>
<trkpt lat="44.2288864" lon="3.4768548"><ele></ele><time>2022-6-2T23:48:59Z</time></trkpt>
<trkpt lat="44.2287071" lon="3.4768311"><ele></ele><time>2022-6-2T23:49:2Z</time></trkpt>
<trkpt lat="44.2285116" lon="3.4768461"><ele></ele><time>2022-6-2T23:49:5Z</time></trkpt>
<trkpt lat="44.2283059" lon="3.4768732"><ele></ele><time>2022-6-2T23:49:8Z</time></trkpt>
<trkpt lat="44.2281250" lon="3.4769004"><ele></ele><time>2022-6-2T23:49:11Z</time></trkpt>
<trkpt lat="44.2279028" lon="3.4769642"><ele></ele><time>2022-6-2T23:49:14Z</time></trkpt>
<trkpt lat="44.2277301" lon="3.4770472"><ele></ele><time>2022-6-2T23:49:17Z</time></trkpt>
<trkpt lat="44.2275617" lon="3.4771468"><ele></ele><time>2022-6-2T23:49:20Z</time></trkpt>
<trkpt lat="44.2273608" lon="3.4772897"><ele></ele><time>2022-6-2T23:49:23Z</time></trkpt>
<trkpt lat="44.2271841" lon="3.4774606"><ele></ele><time>2022-6-2T23:49:26Z</time></trkpt>
<trkpt lat="44.2270496" lon="3.4776352"><ele></ele><time>2022-6-2T23:49:29Z</time></trkpt>
<trkpt lat="44.2269155" lon="3.4778430"><ele></ele><time>2022-6-2T23:49:32Z</time></trkpt>
<trkpt lat="44.2268060" lon="3.4780731"><ele></ele><time>2022-6-2T23:49:35Z</time></trkpt>
<trkpt lat="44.2266968" lon="3.4783057"><ele></ele><time>2022-6-2T23:49:38Z</time></trkpt>
<trkpt lat="44.2265202" lon="3.4783771"><ele></ele><time>2022-6-2T23:49:41Z</time></trkpt>
<trkpt lat="44.2262877" lon="3.4784228"><ele></ele><time>2022-6-2T23:49:44Z</time></trkpt>
<trkpt lat="44.2260683" lon="3.4785245"><ele></ele><time>2022-6-2T23:49:47Z</time></trkpt>
<trkpt lat="44.2258610" lon="3.4786288"><ele></ele><time>2022-6-2T23:49:50Z</time></trkpt>
<trkpt lat="44.2256417" lon="3.4787407"><ele></ele><time>2022-6-2T23:49:53Z</time></trkpt>
<trkpt lat="44.2254428" lon="3.4787962"><ele></ele><time>2022-6-2T23:49:56Z</time></trkpt>
<trkpt lat="44.2252491" lon="3.4787977"><ele></ele><time>2022-6-2T23:49:59Z</time></trkpt>
<trkpt lat="44.2250544" lon="3.4787799"><ele></ele><time>2022-6-2T23:50:2Z</time></trkpt>
<trkpt lat="44.2248652" lon="3.4787752"><ele></ele><time>2022-6-2T23:50:5Z</time></trkpt>
<trkpt lat="44.2246845" lon="3.4787664"><ele></ele><time>2022-6-2T23:50:8Z</time></trkpt>
<trkpt lat="44.2244711" lon="3.4787847"><ele></ele><time>2022-6-2T23:50:11Z</time></trkpt>
<trkpt lat="44.2242769" lon="3.4787918"><ele></ele><time>2022-6-2T23:50:14Z</time></trkpt>
<trkpt lat="44.2240770" lon="3.4787835"><ele></ele><time>2022-6-2T23:50:17Z</time></trkpt>
<trkpt lat="44.2238666" lon="3.4787897"><ele></ele><time>2022-6-2T23:50:20Z</time></trkpt>
<trkpt lat="44.2236781" lon="3.4787926"><ele></ele><time>2022-6-2T23:50:23Z</time></trkpt>
<trkpt lat="44.2234624" lon="3.4788301"><ele></ele><time>2022-6-2T23:50:26Z</time></trkpt>
<trkpt lat="44.2232554" lon="3.4789751"><ele></ele><time>2022-6-2T23:50:29Z</time></trkpt>
<trkpt lat="44.2231019" lon="3.4791639"><ele></ele><time>2022-6-2T23:50:32Z</time></trkpt>
<trkpt lat="44.2229537" lon="3.4793559"><ele></ele><time>2022-6-2T23:50:35Z</time></trkpt>
<trkpt lat="44.2227893" lon="3.4795434"><ele></ele><time>2022-6-2T23:50:38Z</time></trkpt>
<trkpt lat="44.2226213" lon="3.4796648"><ele></ele><time>2022-6-2T23:50:41Z</time></trkpt>
<trkpt lat="44.2224255" lon="3.4797827"><ele></ele><time>2022-6-2T23:50:44Z</time></trkpt>
<trkpt lat="44.2222069" lon="3.4798935"><ele></ele><time>2022-6-2T23:50:47Z</time></trkpt>
<trkpt lat="44.2220287" lon="3.4799730"><ele></ele><time>2022-6-2T23:50:50Z</time></trkpt>
<trkpt lat="44.2218128" lon="3.4800926"><ele></ele><time>2022-6-2T23:50:53Z</time></trkpt>
<trkpt lat="44.2216279" lon="3.4802351"><ele></ele><time>2022-6-2T23:50:56Z</time></trkpt>
<trkpt lat="44.2214887" lon="3.4804893"><ele></ele><time>2022-6-2T23:50:59Z</time></trkpt>
<trkpt lat="44.2213768" lon="3.4807055"><ele></ele><time>2022-6-2T23:51:2Z</time></trkpt>
<trkpt lat="44.2212927" lon="3.4809333"><ele></ele><time>2022-6-2T23:51:5Z</time></trkpt>
<trkpt lat="44.2211483" lon="3.4811250"><ele></ele><time>2022-6-2T23:51:8Z</time></trkpt>
<trkpt lat="44.2209838" lon="3.4812775"><ele></ele><time>2022-6-2T23:51:11Z</time></trkpt>
<trkpt lat="44.2208292" lon="3.4814449"><ele></ele><time>2022-6-2T23:51:14Z</time></trkpt>
<trkpt lat="44.2206726" lon="3.4815930"><ele></ele><time>2022-6-2T23:51:17Z</time></trkpt>
<trkpt lat="44.2205198" lon="3.4817630"><ele></ele><time>2022-6-2T23:51:20Z</time></trkpt>
<trkpt lat="44.2203886" lon="3.4819512"><ele></ele><time>2022-6-2T23:51:23Z</time></trkpt>
<trkpt lat="44.2202871" lon="3.4821819"><ele></ele><time>2022-6-2T23:51:26Z</time></trkpt>
<trkpt lat="44.2201777" lon="3.4824614"><ele></ele><time>2022-6-2T23:51:29Z</time></trkpt>
<trkpt lat="44.2200898" lon="3.4827054"><ele></ele><time>2022-6-2T23:51:32Z</time></trkpt>
<trkpt lat="44.2200519" lon="3.4829619"><ele></ele><time>2022-6-2T23:51:35Z</time></trkpt>
<trkpt lat="44.2200422" lon="3.4832241"><ele></ele><time>2022-6-2T23:51:38Z</time></trkpt>
<trkpt lat="44.2199994" lon="3.4834824"><ele></ele><time>2022-6-2T23:51:41Z</time></trkpt>
<trkpt lat="44.2199883" lon="3.4837603"><ele></ele><time>2022-6-2T23:51:44Z</time></trkpt>
<trkpt lat="44.2199181" lon="3.4840654"><ele></ele><time>2022-6-2T23:51:47Z</time></trkpt>
<trkpt lat="44.2197948" lon="3.4843381"><ele></ele><time>2022-6-2T23:51:50Z</time></trkpt>
<trkpt lat="44.2197705" lon="3.4845920"><ele></ele><time>2022-6-2T23:51:53Z</time></trkpt>
<trkpt lat="44.2198096" lon="3.4848410"><ele></ele><time>2022-6-2T23:51:56Z</time></trkpt>
<trkpt lat="44.2198710" lon="3.4850799"><ele></ele><time>2022-6-2T23:51:59Z</time></trkpt>
<trkpt lat="44.2199631" lon="3.4853017"><ele></ele><time>2022-6-2T23:52:2Z</time></trkpt>
<trkpt lat="44.2200665" lon="3.4855297"><ele></ele><time>2022-6-2T23:52:5Z</time></trkpt>
<trkpt lat="44.2201998" lon="3.4857546"><ele></ele><time>2022-6-2T23:52:8Z</time></trkpt>
<trkpt lat="44.2203629" lon="3.4859295"><ele></ele><time>2022-6-2T23:52:11Z</time></trkpt>
<trkpt lat="44.2204686" lon="3.4861759"><ele></ele><time>2022-6-2T23:52:14Z</time></trkpt>
<trkpt lat="44.2205183" lon="3.4864556"><ele></ele><time>2022-6-2T23:52:17Z</time></trkpt>
<trkpt lat="44.2204397" lon="3.4867287"><ele></ele><time>2022-6-2T23:52:20Z</time></trkpt>
<trkpt lat="44.2202814" lon="3.4868509"><ele></ele><time>2022-6-2T23:52:23Z</time></trkpt>
<trkpt lat="44.2201080" lon="3.4870023"><ele></ele><time>2022-6-2T23:52:26Z</time></trkpt>
<trkpt lat="44.2199609" lon="3.4871837"><ele></ele><time>2022-6-2T23:52:29Z</time></trkpt>
<trkpt lat="44.2197703" lon="3.4872487"><ele></ele><time>2022-6-2T23:52:32Z</time></trkpt>
<trkpt lat="44.2195681" lon="3.4872671"><ele></ele><time>2022-6-2T23:52:35Z</time></trkpt>
<trkpt lat="44.2193844" lon="3.4873535"><ele></ele><time>2022-6-2T23:52:38Z</time></trkpt>
<trkpt lat="44.2191547" lon="3.4874565"><ele></ele><time>2022-6-2T23:52:41Z</time></trkpt>
<trkpt lat="44.2189906" lon="3.4876095"><ele></ele><time>2022-6-2T23:52:44Z</time></trkpt>
<trkpt lat="44.2188594" lon="3.4877900"><ele></ele><time>2022-6-2T23:52:47Z</time></trkpt>
<trkpt lat="44.2187071" lon="3.4879845"><ele></ele><time>2022-6-2T23:52:50Z</time></trkpt>
<trkpt lat="44.2185572" lon="3.4881444"><ele></ele><time>2022-6-2T23:52:53Z</time></trkpt>
<trkpt lat="44.2184156" lon="3.4883388"><ele></ele><time>2022-6-2T23:52:56Z</time></trkpt>
<trkpt lat="44.2183108" lon="3.4885574"><ele></ele><time>2022-6-2T23:52:59Z</time></trkpt>
<trkpt lat="44.2183159" lon="3.4888143"><ele></ele><time>2022-6-2T23:53:2Z</time></trkpt>
<trkpt lat="44.2183670" lon="3.4890597"><ele></ele><time>2022-6-2T23:53:5Z</time></trkpt>
<trkpt lat="44.2183858" lon="3.4893309"><ele></ele><time>2022-6-2T23:53:8Z</time></trkpt>
<trkpt lat="44.2183653" lon="3.4896046"><ele></ele><time>2022-6-2T23:53:11Z</time></trkpt>
<trkpt lat="44.2183494" lon="3.4898900"><ele></ele><time>2022-6-2T23:53:14Z</time></trkpt>
<trkpt lat="44.2183252" lon="3.4901388"><ele></ele><time>2022-6-2T23:53:17Z</time></trkpt>
<trkpt lat="44.2183047" lon="3.4903898"><ele></ele><time>2022-6-2T23:53:20Z</time></trkpt>
<trkpt lat="44.2182559" lon="3.4906611"><ele></ele><time>2022-6-2T23:53:23Z</time></trkpt>
<trkpt lat="44.2182031" lon="3.4909216"><ele></ele><time>2022-6-2T23:53:26Z</time></trkpt>
<trkpt lat="44.2181685" lon="3.4911900"><ele></ele><time>2022-6-2T23:53:29Z</time></trkpt>
<trkpt lat="44.2181073" lon="3.4914608"><ele></ele><time>2022-6-2T23:53:32Z</time></trkpt>
<trkpt lat="44.2180697" lon="3.4917258"><ele></ele><time>2022-6-2T23:53:35Z</time></trkpt>
<trkpt lat="44.2180444" lon="3.4919769"><ele></ele><time>2022-6-2T23:53:38Z</time></trkpt>
<trkpt lat="44.2179797" lon="3.4922269"><ele></ele><time>2022-6-2T23:53:41Z</time></trkpt>
<trkpt lat="44.2179269" lon="3.4924740"><ele></ele><time>2022-6-2T23:53:44Z</time></trkpt>
<trkpt lat="44.2178733" lon="3.4927173"><ele></ele><time>2022-6-2T23:53:47Z</time></trkpt>
<trkpt lat="44.2177528" lon="3.4929197"><ele></ele><time>2022-6-2T23:53:50Z</time></trkpt>
<trkpt lat="44.2176202" lon="3.4931097"><ele></ele><time>2022-6-2T23:53:53Z</time></trkpt>
<trkpt lat="44.2175135" lon="3.4933150"><ele></ele><time>2022-6-2T23:53:56Z</time></trkpt>
<trkpt lat="44.2174183" lon="3.4935433"><ele></ele><time>2022-6-2T23:53:59Z</time></trkpt>
<trkpt lat="44.2173135" lon="3.4937885"><ele></ele><time>2022-6-2T23:54:2Z</time></trkpt>
<trkpt lat="44.2172441" lon="3.4940355"><ele></ele><time>2022-6-2T23:54:5Z</time></trkpt>
<trkpt lat="44.2171330" lon="3.4942733"><ele></ele><time>2022-6-2T23:54:8Z</time></trkpt>
<trkpt lat="44.2169954" lon="3.4944526"><ele></ele><time>2022-6-2T23:54:11Z</time></trkpt>
<trkpt lat="44.2168663" lon="3.4946507"><ele></ele><time>2022-6-2T23:54:14Z</time></trkpt>
<trkpt lat="44.2167739" lon="3.4948663"><ele></ele><time>2022-6-2T23:54:17Z</time></trkpt>
<trkpt lat="44.2166947" lon="3.4950999"><ele></ele><time>2022-6-2T23:54:20Z</time></trkpt>
<trkpt lat="44.2166555" lon="3.4953451"><ele></ele><time>2022-6-2T23:54:23Z</time></trkpt>
<trkpt lat="44.2166120" lon="3.4956167"><ele></ele><time>2022-6-2T23:54:26Z</time></trkpt>
<trkpt lat="44.2165674" lon="3.4958759"><ele></ele><time>2022-6-2T23:54:29Z</time></trkpt>
<trkpt lat="44.2165704" lon="3.4961325"><ele></ele><time>2022-6-2T23:54:32Z</time></trkpt>
<trkpt lat="44.2165771" lon="3.4964154"><ele></ele><time>2022-6-2T23:54:35Z</time></trkpt>
<trkpt lat="44.2165306" lon="3.4966641"><ele></ele><time>2022-6-2T23:54:38Z</time></trkpt>
<trkpt lat="44.2164678" lon="3.4969212"><ele></ele><time>2022-6-2T23:54:41Z</time></trkpt>
<trkpt lat="44.2164052" lon="3.4971944"><ele></ele><time>2022-6-2T23:54:44Z</time></trkpt>
<trkpt lat="44.2163358" lon="3.4974521"><ele></ele><time>2022-6-2T23:54:47Z</time></trkpt>
<trkpt lat="44.2162600" lon="3.4977141"><ele></ele><time>2022-6-2T23:54:50Z</time></trkpt>
<trkpt lat="44.2161929" lon="3.4980014"><ele></ele><time>2022-6-2T23:54:53Z</time></trkpt>
<trkpt lat="44.2161253" lon="3.4982756"><ele></ele><time>2022-6-2T23:54:56Z</time></trkpt>
<trkpt lat="44.2160598" lon="3.4985109"><ele></ele><time>2022-6-2T23:54:59Z</time></trkpt>
<trkpt lat="44.2160022" lon="3.4987789"><ele></ele><time>2022-6-2T23:55:2Z</time></trkpt>
<trkpt lat="44.2159816" lon="3.4990542"><ele></ele><time>2022-6-2T23:55:5Z</time></trkpt>
<trkpt lat="44.2159760" lon="3.4993349"><ele></ele><time>2022-6-2T23:55:8Z</time></trkpt>
<trkpt lat="44.2159868" lon="3.4995910"><ele></ele><time>2022-6-2T23:55:11Z</time></trkpt>
<trkpt lat="44.2159650" lon="3.4998629"><ele></ele><time>2022-6-2T23:55:14Z</time></trkpt>
<trkpt lat="44.2159462" lon="3.5001153"><ele></ele><time>2022-6-2T23:55:17Z</time></trkpt>
<trkpt lat="44.2159435" lon="3.5004064"><ele></ele><time>2022-6-2T23:55:20Z</time></trkpt>
<trkpt lat="44.2158795" lon="3.5006653"><ele></ele><time>2022-6-2T23:55:23Z</time></trkpt>
<trkpt lat="44.2157605" lon="3.5008801"><ele></ele><time>2022-6-2T23:55:26Z</time></trkpt>
<trkpt lat="44.2156434" lon="3.5011283"><ele></ele><time>2022-6-2T23:55:29Z</time></trkpt>
<trkpt lat="44.2155172" lon="3.5013249"><ele></ele><time>2022-6-2T23:55:32Z</time></trkpt>
<trkpt lat="44.2153759" lon="3.5014891"><ele></ele><time>2022-6-2T23:55:35Z</time></trkpt>
<trkpt lat="44.2152445" lon="3.5017127"><ele></ele><time>2022-6-2T23:55:38Z</time></trkpt>
<trkpt lat="44.2151088" lon="3.5019073"><ele></ele><time>2022-6-2T23:55:41Z</time></trkpt>
<trkpt lat="44.2149873" lon="3.5021053"><ele></ele><time>2022-6-2T23:55:44Z</time></trkpt>
<trkpt lat="44.2148780" lon="3.5023286"><ele></ele><time>2022-6-2T23:55:47Z</time></trkpt>
<trkpt lat="44.2147670" lon="3.5025746"><ele></ele><time>2022-6-2T23:55:50Z</time></trkpt>
<trkpt lat="44.2146409" lon="3.5028207"><ele></ele><time>2022-6-2T23:55:53Z</time></trkpt>
<trkpt lat="44.2144973" lon="3.5029732"><ele></ele><time>2022-6-2T23:55:56Z</time></trkpt>
<trkpt lat="44.2143159" lon="3.5030891"><ele></ele><time>2022-6-2T23:55:59Z</time></trkpt>
<trkpt lat="44.2141716" lon="3.5032440"><ele></ele><time>2022-6-2T23:56:2Z</time></trkpt>
<trkpt lat="44.2140308" lon="3.5034123"><ele></ele><time>2022-6-2T23:56:5Z</time></trkpt>
<trkpt lat="44.2139328" lon="3.5036270"><ele></ele><time>2022-6-2T23:56:8Z</time></trkpt>
<trkpt lat="44.2138401" lon="3.5038524"><ele></ele><time>2022-6-2T23:56:11Z</time></trkpt>
<trkpt lat="44.2137284" lon="3.5041351"><ele></ele><time>2022-6-2T23:56:14Z</time></trkpt>
<trkpt lat="44.2136289" lon="3.5043468"><ele></ele><time>2022-6-2T23:56:17Z</time></trkpt>
<trkpt lat="44.2135630" lon="3.5040567"><ele></ele><time>2022-6-2T23:56:20Z</time></trkpt>
<trkpt lat="44.2133830" lon="3.5041384"><ele></ele><time>2022-6-2T23:56:23Z</time></trkpt>
<trkpt lat="44.2133956" lon="3.5044174"><ele></ele><time>2022-6-2T23:56:26Z</time></trkpt>
<trkpt lat="44.2133942" lon="3.5047196"><ele></ele><time>2022-6-2T23:56:29Z</time></trkpt>
<trkpt lat="44.2133822" lon="3.5049812"><ele></ele><time>2022-6-2T23:56:32Z</time></trkpt>
<trkpt lat="44.2132123" lon="3.5051357"><ele></ele><time>2022-6-2T23:56:35Z</time></trkpt>
<trkpt lat="44.2130380" lon="3.5052360"><ele></ele><time>2022-6-2T23:56:38Z</time></trkpt>
<trkpt lat="44.2128486" lon="3.5053663"><ele></ele><time>2022-6-2T23:56:41Z</time></trkpt>
<trkpt lat="44.2126707" lon="3.5054829"><ele></ele><time>2022-6-2T23:56:44Z</time></trkpt>
<trkpt lat="44.2125079" lon="3.5056067"><ele></ele><time>2022-6-2T23:56:47Z</time></trkpt>
<trkpt lat="44.2123501" lon="3.5057654"><ele></ele><time>2022-6-2T23:56:50Z</time></trkpt>
<trkpt lat="44.2122357" lon="3.5059692"><ele></ele><time>2022-6-2T23:56:53Z</time></trkpt>
<trkpt lat="44.2121247" lon="3.5061830"><ele></ele><time>2022-6-2T23:56:56Z</time></trkpt>
<trkpt lat="44.2119988" lon="3.5064118"><ele></ele><time>2022-6-2T23:56:59Z</time></trkpt>
<trkpt lat="44.2118777" lon="3.5065974"><ele></ele><time>2022-6-2T23:57:2Z</time></trkpt>
<trkpt lat="44.2116863" lon="3.5067185"><ele></ele><time>2022-6-2T23:57:5Z</time></trkpt>
<trkpt lat="44.2115341" lon="3.5068821"><ele></ele><time>2022-6-2T23:57:8Z</time></trkpt>
<trkpt lat="44.2115945" lon="3.5071470"><ele></ele><time>2022-6-2T23:57:11Z</time></trkpt>
<trkpt lat="44.2117501" lon="3.5073156"><ele></ele><time>2022-6-2T23:57:14Z</time></trkpt>
<trkpt lat="44.2119275" lon="3.5074416"><ele></ele><time>2022-6-2T23:57:17Z</time></trkpt>
<trkpt lat="44.2121236" lon="3.5075260"><ele></ele><time>2022-6-2T23:57:20Z</time></trkpt>
<trkpt lat="44.2122881" lon="3.5076285"><ele></ele><time>2022-6-2T23:57:23Z</time></trkpt>
<trkpt lat="44.2124764" lon="3.5077006"><ele></ele><time>2022-6-2T23:57:26Z</time></trkpt>
<trkpt lat="44.2126631" lon="3.5077896"><ele></ele><time>2022-6-2T23:57:29Z</time></trkpt>
<trkpt lat="44.2128452" lon="3.5078559"><ele></ele><time>2022-6-2T23:57:32Z</time></trkpt>
<trkpt lat="44.2130148" lon="3.5080049"><ele></ele><time>2022-6-2T23:57:35Z</time></trkpt>
<trkpt lat="44.2131465" lon="3.5082043"><ele></ele><time>2022-6-2T23:57:38Z</time></trkpt>
<trkpt lat="44.2132471" lon="3.5084437"><ele></ele><time>2022-6-2T23:57:41Z</time></trkpt>
<trkpt lat="44.2133581" lon="3.5086621"><ele></ele><time>2022-6-2T23:57:44Z</time></trkpt>
<trkpt lat="44.2135023" lon="3.5088366"><ele></ele><time>2022-6-2T23:57:47Z</time></trkpt>
<trkpt lat="44.2136716" lon="3.5089253"><ele></ele><time>2022-6-2T23:57:50Z</time></trkpt>
<trkpt lat="44.2138479" lon="3.5089772"><ele></ele><time>2022-6-2T23:57:53Z</time></trkpt>
<trkpt lat="44.2140461" lon="3.5089697"><ele></ele><time>2022-6-2T23:57:56Z</time></trkpt>
<trkpt lat="44.2142298" lon="3.5090538"><ele></ele><time>2022-6-2T23:57:59Z</time></trkpt>
<trkpt lat="44.2143853" lon="3.5091861"><ele></ele><time>2022-6-2T23:58:2Z</time></trkpt>
<trkpt lat="44.2145555" lon="3.5093359"><ele></ele><time>2022-6-2T23:58:5Z</time></trkpt>
<trkpt lat="44.2147280" lon="3.5094700"><ele></ele><time>2022-6-2T23:58:8Z</time></trkpt>
<trkpt lat="44.2148793" lon="3.5096440"><ele></ele><time>2022-6-2T23:58:11Z</time></trkpt>
<trkpt lat="44.2149897" lon="3.5098647"><ele></ele><time>2022-6-2T23:58:14Z</time></trkpt>
<trkpt lat="44.2151062" lon="3.5100974"><ele></ele><time>2022-6-2T23:58:17Z</time></trkpt>
<trkpt lat="44.2152194" lon="3.5103056"><ele></ele><time>2022-6-2T23:58:20Z</time></trkpt>
<trkpt lat="44.2153423" lon="3.5105120"><ele></ele><time>2022-6-2T23:58:23Z</time></trkpt>
<trkpt lat="44.2154619" lon="3.5107389"><ele></ele><time>2022-6-2T23:58:26Z</time></trkpt>
<trkpt lat="44.2155771" lon="3.5109555"><ele></ele><time>2022-6-2T23:58:29Z</time></trkpt>
<trkpt lat="44.2156815" lon="3.5111632"><ele></ele><time>2022-6-2T23:58:32Z</time></trkpt>
<trkpt lat="44.2157821" lon="3.5113724"><ele></ele><time>2022-6-2T23:58:35Z</time></trkpt>
<trkpt lat="44.2158830" lon="3.5115888"><ele></ele><time>2022-6-2T23:58:38Z</time></trkpt>
<trkpt lat="44.2159985" lon="3.5118158"><ele></ele><time>2022-6-2T23:58:41Z</time></trkpt>
<trkpt lat="44.2161008" lon="3.5120488"><ele></ele><time>2022-6-2T23:58:44Z</time></trkpt>
<trkpt lat="44.2162163" lon="3.5122684"><ele></ele><time>2022-6-2T23:58:47Z</time></trkpt>
<trkpt lat="44.2163712" lon="3.5124284"><ele></ele><time>2022-6-2T23:58:50Z</time></trkpt>
<trkpt lat="44.2165505" lon="3.5125741"><ele></ele><time>2022-6-2T23:58:53Z</time></trkpt>
<trkpt lat="44.2167347" lon="3.5127127"><ele></ele><time>2022-6-2T23:58:56Z</time></trkpt>
<trkpt lat="44.2169162" lon="3.5128355"><ele></ele><time>2022-6-2T23:58:59Z</time></trkpt>
<trkpt lat="44.2170803" lon="3.5129614"><ele></ele><time>2022-6-2T23:59:2Z</time></trkpt>
<trkpt lat="44.2172585" lon="3.5131005"><ele></ele><time>2022-6-2T23:59:5Z</time></trkpt>
<trkpt lat="44.2174384" lon="3.5132443"><ele></ele><time>2022-6-2T23:59:8Z</time></trkpt>
<trkpt lat="44.2175998" lon="3.5133630"><ele></ele><time>2022-6-2T23:59:11Z</time></trkpt>
<trkpt lat="44.2177604" lon="3.5135058"><ele></ele><time>2022-6-2T23:59:14Z</time></trkpt>
<trkpt lat="44.2179024" lon="3.5136659"><ele></ele><time>2022-6-2T23:59:17Z</time></trkpt>
<trkpt lat="44.2180711" lon="3.5138735"><ele></ele><time>2022-6-2T23:59:20Z</time></trkpt>
<trkpt lat="44.2182261" lon="3.5140316"><ele></ele><time>2022-6-2T23:59:23Z</time></trkpt>
<trkpt lat="44.2183819" lon="3.5141865"><ele></ele><time>2022-6-2T23:59:26Z</time></trkpt>
<trkpt lat="44.2185535" lon="3.5143012"><ele></ele><time>2022-6-2T23:59:29Z</time></trkpt>
<trkpt lat="44.2187276" lon="3.5143650"><ele></ele><time>2022-6-2T23:59:32Z</time></trkpt>
<trkpt lat="44.2189423" lon="3.5143811"><ele></ele><time>2022-6-2T23:59:35Z</time></trkpt>
<trkpt lat="44.2191577" lon="3.5143662"><ele></ele><time>2022-6-2T23:59:38Z</time></trkpt>
<trkpt lat="44.2193736" lon="3.5143912"><ele></ele><time>2022-6-2T23:59:41Z</time></trkpt>
<trkpt lat="44.2195531" lon="3.5144344"><ele></ele><time>2022-6-2T23:59:44Z</time></trkpt>
<trkpt lat="44.2197379" lon="3.5144820"><ele></ele><time>2022-6-2T23:59:47Z</time></trkpt>
<trkpt lat="44.2199211" lon="3.5145227"><ele></ele><time>2022-6-2T23:59:50Z</time></trkpt>
<trkpt lat="44.2201273" lon="3.5145774"><ele></ele><time>2022-6-2T23:59:53Z</time></trkpt>
<trkpt lat="44.2203328" lon="3.5146283"><ele></ele><time>2022-6-2T23:59:56Z</time></trkpt>
<trkpt lat="44.2205460" lon="3.5146623"><ele></ele><time>2022-6-2T23:59:59Z</time></trkpt>
<trkpt lat="44.2207375" lon="3.5147318"><ele></ele><time>2022-6-3T0:0:2Z</time></trkpt>
<trkpt lat="44.2209087" lon="3.5148780"><ele></ele><time>2022-6-3T0:0:5Z</time></trkpt>
<trkpt lat="44.2211016" lon="3.5150065"><ele></ele><time>2022-6-3T0:0:8Z</time></trkpt>
<trkpt lat="44.2213057" lon="3.5150779"><ele></ele><time>2022-6-3T0:0:11Z</time></trkpt>
<trkpt lat="44.2214928" lon="3.5152015"><ele></ele><time>2022-6-3T0:0:14Z</time></trkpt>
<trkpt lat="44.2216669" lon="3.5153636"><ele></ele><time>2022-6-3T0:0:17Z</time></trkpt>
<trkpt lat="44.2218396" lon="3.5155320"><ele></ele><time>2022-6-3T0:0:20Z</time></trkpt>
<trkpt lat="44.2219900" lon="3.5156876"><ele></ele><time>2022-6-3T0:0:23Z</time></trkpt>
<trkpt lat="44.2221677" lon="3.5158547"><ele></ele><time>2022-6-3T0:0:26Z</time></trkpt>
<trkpt lat="44.2223253" lon="3.5160010"><ele></ele><time>2022-6-3T0:0:29Z</time></trkpt>
<trkpt lat="44.2224613" lon="3.5161864"><ele></ele><time>2022-6-3T0:0:32Z</time></trkpt>
<trkpt lat="44.2226217" lon="3.5163619"><ele></ele><time>2022-6-3T0:0:35Z</time></trkpt>
<trkpt lat="44.2227706" lon="3.5165401"><ele></ele><time>2022-6-3T0:0:38Z</time></trkpt>
<trkpt lat="44.2229225" lon="3.5167087"><ele></ele><time>2022-6-3T0:0:41Z</time></trkpt>
<trkpt lat="44.2230713" lon="3.5168990"><ele></ele><time>2022-6-3T0:0:44Z</time></trkpt>
<trkpt lat="44.2231789" lon="3.5171003"><ele></ele><time>2022-6-3T0:0:47Z</time></trkpt>
<trkpt lat="44.2232844" lon="3.5173174"><ele></ele><time>2022-6-3T0:0:50Z</time></trkpt>
<trkpt lat="44.2234013" lon="3.5175571"><ele></ele><time>2022-6-3T0:0:53Z</time></trkpt>
<trkpt lat="44.2235183" lon="3.5178000"><ele></ele><time>2022-6-3T0:0:56Z</time></trkpt>
<trkpt lat="44.2236411" lon="3.5180365"><ele></ele><time>2022-6-3T0:0:59Z</time></trkpt>
<trkpt lat="44.2237667" lon="3.5182805"><ele></ele><time>2022-6-3T0:1:2Z</time></trkpt>
<trkpt lat="44.2238898" lon="3.5185077"><ele></ele><time>2022-6-3T0:1:5Z</time></trkpt>
<trkpt lat="44.2240292" lon="3.5187042"><ele></ele><time>2022-6-3T0:1:8Z</time></trkpt>
<trkpt lat="44.2241759" lon="3.5189015"><ele></ele><time>2022-6-3T0:1:11Z</time></trkpt>
<trkpt lat="44.2243274" lon="3.5191040"><ele></ele><time>2022-6-3T0:1:14Z</time></trkpt>
<trkpt lat="44.2244697" lon="3.5193054"><ele></ele><time>2022-6-3T0:1:17Z</time></trkpt>
<trkpt lat="44.2246192" lon="3.5195234"><ele></ele><time>2022-6-3T0:1:20Z</time></trkpt>
<trkpt lat="44.2247630" lon="3.5197231"><ele></ele><time>2022-6-3T0:1:23Z</time></trkpt>
<trkpt lat="44.2248872" lon="3.5199071"><ele></ele><time>2022-6-3T0:1:26Z</time></trkpt>
<trkpt lat="44.2250157" lon="3.5201143"><ele></ele><time>2022-6-3T0:1:29Z</time></trkpt>
<trkpt lat="44.2251558" lon="3.5203283"><ele></ele><time>2022-6-3T0:1:32Z</time></trkpt>
<trkpt lat="44.2252782" lon="3.5205262"><ele></ele><time>2022-6-3T0:1:35Z</time></trkpt>
<trkpt lat="44.2254200" lon="3.5207186"><ele></ele><time>2022-6-3T0:1:38Z</time></trkpt>
<trkpt lat="44.2255625" lon="3.5209066"><ele></ele><time>2022-6-3T0:1:41Z</time></trkpt>
<trkpt lat="44.2257092" lon="3.5210981"><ele></ele><time>2022-6-3T0:1:44Z</time></trkpt>
<trkpt lat="44.2258571" lon="3.5212999"><ele></ele><time>2022-6-3T0:1:47Z</time></trkpt>
<trkpt lat="44.2259963" lon="3.5215143"><ele></ele><time>2022-6-3T0:1:50Z</time></trkpt>
<trkpt lat="44.2261398" lon="3.5217422"><ele></ele><time>2022-6-3T0:1:53Z</time></trkpt>
<trkpt lat="44.2262720" lon="3.5219612"><ele></ele><time>2022-6-3T0:1:56Z</time></trkpt>
<trkpt lat="44.2263933" lon="3.5221649"><ele></ele><time>2022-6-3T0:1:59Z</time></trkpt>
<trkpt lat="44.2265097" lon="3.5223608"><ele></ele><time>2022-6-3T0:2:2Z</time></trkpt>
<trkpt lat="44.2266229" lon="3.5225624"><ele></ele><time>2022-6-3T0:2:5Z</time></trkpt>
<trkpt lat="44.2267577" lon="3.5227885"><ele></ele><time>2022-6-3T0:2:8Z</time></trkpt>
<trkpt lat="44.2268879" lon="3.5230032"><ele></ele><time>2022-6-3T0:2:11Z</time></trkpt>
<trkpt lat="44.2270128" lon="3.5232186"><ele></ele><time>2022-6-3T0:2:14Z</time></trkpt>
<trkpt lat="44.2271449" lon="3.5234232"><ele></ele><time>2022-6-3T0:2:17Z</time></trkpt>
<trkpt lat="44.2272699" lon="3.5236350"><ele></ele><time>2022-6-3T0:2:20Z</time></trkpt>
<trkpt lat="44.2273811" lon="3.5238568"><ele></ele><time>2022-6-3T0:2:23Z</time></trkpt>
<trkpt lat="44.2275039" lon="3.5240471"><ele></ele><time>2022-6-3T0:2:26Z</time></trkpt>
<trkpt lat="44.2276292" lon="3.5242399"><ele></ele><time>2022-6-3T0:2:29Z</time></trkpt>
<trkpt lat="44.2277880" lon="3.5243678"><ele></ele><time>2022-6-3T0:2:32Z</time></trkpt>
<trkpt lat="44.2278350" lon="3.5246231"><ele></ele><time>2022-6-3T0:2:35Z</time></trkpt>
<trkpt lat="44.2277735" lon="3.5248666"><ele></ele><time>2022-6-3T0:2:38Z</time></trkpt>
<trkpt lat="44.2276630" lon="3.5250727"><ele></ele><time>2022-6-3T0:2:41Z</time></trkpt>
<trkpt lat="44.2275719" lon="3.5253107"><ele></ele><time>2022-6-3T0:2:44Z</time></trkpt>
<trkpt lat="44.2274716" lon="3.5255330"><ele></ele><time>2022-6-3T0:2:47Z</time></trkpt>
<trkpt lat="44.2273558" lon="3.5257646"><ele></ele><time>2022-6-3T0:2:50Z</time></trkpt>
<trkpt lat="44.2272357" lon="3.5259955"><ele></ele><time>2022-6-3T0:2:53Z</time></trkpt>
<trkpt lat="44.2271041" lon="3.5261853"><ele></ele><time>2022-6-3T0:2:56Z</time></trkpt>
<trkpt lat="44.2269551" lon="3.5263578"><ele></ele><time>2022-6-3T0:2:59Z</time></trkpt>
<trkpt lat="44.2267840" lon="3.5265131"><ele></ele><time>2022-6-3T0:3:2Z</time></trkpt>
<trkpt lat="44.2266108" lon="3.5266335"><ele></ele><time>2022-6-3T0:3:5Z</time></trkpt>
<trkpt lat="44.2264415" lon="3.5267207"><ele></ele><time>2022-6-3T0:3:8Z</time></trkpt>
<trkpt lat="44.2262540" lon="3.5268231"><ele></ele><time>2022-6-3T0:3:11Z</time></trkpt>
<trkpt lat="44.2260762" lon="3.5268738"><ele></ele><time>2022-6-3T0:3:14Z</time></trkpt>
<trkpt lat="44.2258928" lon="3.5269078"><ele></ele><time>2022-6-3T0:3:17Z</time></trkpt>
<trkpt lat="44.2257118" lon="3.5269314"><ele></ele><time>2022-6-3T0:3:20Z</time></trkpt>
<trkpt lat="44.2255198" lon="3.5269600"><ele></ele><time>2022-6-3T0:3:23Z</time></trkpt>
<trkpt lat="44.2253388" lon="3.5270169"><ele></ele><time>2022-6-3T0:3:26Z</time></trkpt>
<trkpt lat="44.2252113" lon="3.5272164"><ele></ele><time>2022-6-3T0:3:29Z</time></trkpt>
<trkpt lat="44.2252469" lon="3.5274882"><ele></ele><time>2022-6-3T0:3:32Z</time></trkpt>
<trkpt lat="44.2253193" lon="3.5277272"><ele></ele><time>2022-6-3T0:3:35Z</time></trkpt>
<trkpt lat="44.2254401" lon="3.5279445"><ele></ele><time>2022-6-3T0:3:38Z</time></trkpt>
<trkpt lat="44.2256148" lon="3.5280998"><ele></ele><time>2022-6-3T0:3:41Z</time></trkpt>
<trkpt lat="44.2257674" lon="3.5282375"><ele></ele><time>2022-6-3T0:3:44Z</time></trkpt>
<trkpt lat="44.2259469" lon="3.5283801"><ele></ele><time>2022-6-3T0:3:47Z</time></trkpt>
<trkpt lat="44.2261145" lon="3.5285700"><ele></ele><time>2022-6-3T0:3:50Z</time></trkpt>
<trkpt lat="44.2262936" lon="3.5287263"><ele></ele><time>2022-6-3T0:3:53Z</time></trkpt>
<trkpt lat="44.2264790" lon="3.5287990"><ele></ele><time>2022-6-3T0:3:56Z</time></trkpt>
<trkpt lat="44.2266748" lon="3.5288671"><ele></ele><time>2022-6-3T0:3:59Z</time></trkpt>
<trkpt lat="44.2268676" lon="3.5288369"><ele></ele><time>2022-6-3T0:4:2Z</time></trkpt>
<trkpt lat="44.2270712" lon="3.5288460"><ele></ele><time>2022-6-3T0:4:5Z</time></trkpt>
<trkpt lat="44.2272520" lon="3.5288393"><ele></ele><time>2022-6-3T0:4:8Z</time></trkpt>
<trkpt lat="44.2274692" lon="3.5288287"><ele></ele><time>2022-6-3T0:4:11Z</time></trkpt>
<trkpt lat="44.2276743" lon="3.5287823"><ele></ele><time>2022-6-3T0:4:14Z</time></trkpt>
<trkpt lat="44.2278599" lon="3.5287029"><ele></ele><time>2022-6-3T0:4:17Z</time></trkpt>
<trkpt lat="44.2280691" lon="3.5286034"><ele></ele><time>2022-6-3T0:4:20Z</time></trkpt>
<trkpt lat="44.2282918" lon="3.5285537"><ele></ele><time>2022-6-3T0:4:23Z</time></trkpt>
<trkpt lat="44.2285166" lon="3.5285777"><ele></ele><time>2022-6-3T0:4:26Z</time></trkpt>
<trkpt lat="44.2287282" lon="3.5286229"><ele></ele><time>2022-6-3T0:4:29Z</time></trkpt>
<trkpt lat="44.2289373" lon="3.5286821"><ele></ele><time>2022-6-3T0:4:32Z</time></trkpt>
<trkpt lat="44.2291504" lon="3.5287797"><ele></ele><time>2022-6-3T0:4:35Z</time></trkpt>
<trkpt lat="44.2292931" lon="3.5289672"><ele></ele><time>2022-6-3T0:4:38Z</time></trkpt>
<trkpt lat="44.2293427" lon="3.5292417"><ele></ele><time>2022-6-3T0:4:41Z</time></trkpt>
<trkpt lat="44.2293368" lon="3.5295066"><ele></ele><time>2022-6-3T0:4:44Z</time></trkpt>
<trkpt lat="44.2293204" lon="3.5298076"><ele></ele><time>2022-6-3T0:4:47Z</time></trkpt>
<trkpt lat="44.2293201" lon="3.5300674"><ele></ele><time>2022-6-3T0:4:50Z</time></trkpt>
<trkpt lat="44.2293970" lon="3.5303100"><ele></ele><time>2022-6-3T0:4:53Z</time></trkpt>
<trkpt lat="44.2295248" lon="3.5304977"><ele></ele><time>2022-6-3T0:4:56Z</time></trkpt>
<trkpt lat="44.2296697" lon="3.5307296"><ele></ele><time>2022-6-3T0:4:59Z</time></trkpt>
<trkpt lat="44.2297828" lon="3.5309277"><ele></ele><time>2022-6-3T0:5:2Z</time></trkpt>
<trkpt lat="44.2298885" lon="3.5311614"><ele></ele><time>2022-6-3T0:5:5Z</time></trkpt>
<trkpt lat="44.2299769" lon="3.5313982"><ele></ele><time>2022-6-3T0:5:8Z</time></trkpt>
<trkpt lat="44.2299921" lon="3.5316787"><ele></ele><time>2022-6-3T0:5:11Z</time></trkpt>
<trkpt lat="44.2299908" lon="3.5319390"><ele></ele><time>2022-6-3T0:5:14Z</time></trkpt>
<trkpt lat="44.2300695" lon="3.5322067"><ele></ele><time>2022-6-3T0:5:17Z</time></trkpt>
<trkpt lat="44.2301611" lon="3.5324248"><ele></ele><time>2022-6-3T0:5:20Z</time></trkpt>
<trkpt lat="44.2302372" lon="3.5326542"><ele></ele><time>2022-6-3T0:5:23Z</time></trkpt>
<trkpt lat="44.2303248" lon="3.5329338"><ele></ele><time>2022-6-3T0:5:26Z</time></trkpt>
<trkpt lat="44.2303866" lon="3.5331781"><ele></ele><time>2022-6-3T0:5:29Z</time></trkpt>
<trkpt lat="44.2304318" lon="3.5334634"><ele></ele><time>2022-6-3T0:5:32Z</time></trkpt>
<trkpt lat="44.2304407" lon="3.5337531"><ele></ele><time>2022-6-3T0:5:35Z</time></trkpt>
<trkpt lat="44.2304531" lon="3.5340160"><ele></ele><time>2022-6-3T0:5:38Z</time></trkpt>
<trkpt lat="44.2305048" lon="3.5343455"><ele></ele><time>2022-6-3T0:5:41Z</time></trkpt>
<trkpt lat="44.2305943" lon="3.5346451"><ele></ele><time>2022-6-3T0:5:44Z</time></trkpt>
<trkpt lat="44.2307006" lon="3.5349123"><ele></ele><time>2022-6-3T0:5:47Z</time></trkpt>
<trkpt lat="44.2307725" lon="3.5351636"><ele></ele><time>2022-6-3T0:5:50Z</time></trkpt>
<trkpt lat="44.2308390" lon="3.5354027"><ele></ele><time>2022-6-3T0:5:53Z</time></trkpt>
<trkpt lat="44.2309128" lon="3.5356547"><ele></ele><time>2022-6-3T0:5:56Z</time></trkpt>
<trkpt lat="44.2310416" lon="3.5358751"><ele></ele><time>2022-6-3T0:5:59Z</time></trkpt>
<trkpt lat="44.2312361" lon="3.5360166"><ele></ele><time>2022-6-3T0:6:2Z</time></trkpt>
<trkpt lat="44.2313897" lon="3.5362502"><ele></ele><time>2022-6-3T0:6:5Z</time></trkpt>
<trkpt lat="44.2313691" lon="3.5365396"><ele></ele><time>2022-6-3T0:6:8Z</time></trkpt>
<trkpt lat="44.2313948" lon="3.5367961"><ele></ele><time>2022-6-3T0:6:11Z</time></trkpt>
<trkpt lat="44.2314847" lon="3.5370716"><ele></ele><time>2022-6-3T0:6:14Z</time></trkpt>
<trkpt lat="44.2315956" lon="3.5372903"><ele></ele><time>2022-6-3T0:6:17Z</time></trkpt>
<trkpt lat="44.2317442" lon="3.5375450"><ele></ele><time>2022-6-3T0:6:20Z</time></trkpt>
<trkpt lat="44.2318689" lon="3.5377291"><ele></ele><time>2022-6-3T0:6:23Z</time></trkpt>
<trkpt lat="44.2319727" lon="3.5380094"><ele></ele><time>2022-6-3T0:6:26Z</time></trkpt>
<trkpt lat="44.2320468" lon="3.5382622"><ele></ele><time>2022-6-3T0:6:29Z</time></trkpt>
<trkpt lat="44.2321095" lon="3.5385342"><ele></ele><time>2022-6-3T0:6:32Z</time></trkpt>
<trkpt lat="44.2321401" lon="3.5388099"><ele></ele><time>2022-6-3T0:6:35Z</time></trkpt>
<trkpt lat="44.2321626" lon="3.5390857"><ele></ele><time>2022-6-3T0:6:38Z</time></trkpt>
<trkpt lat="44.2322169" lon="3.5393614"><ele></ele><time>2022-6-3T0:6:41Z</time></trkpt>
<trkpt lat="44.2322838" lon="3.5396070"><ele></ele><time>2022-6-3T0:6:44Z</time></trkpt>
<trkpt lat="44.2323699" lon="3.5398585"><ele></ele><time>2022-6-3T0:6:47Z</time></trkpt>
<trkpt lat="44.2324530" lon="3.5400990"><ele></ele><time>2022-6-3T0:6:50Z</time></trkpt>
<trkpt lat="44.2325562" lon="3.5403301"><ele></ele><time>2022-6-3T0:6:53Z</time></trkpt>
<trkpt lat="44.2326833" lon="3.5405341"><ele></ele><time>2022-6-3T0:6:56Z</time></trkpt>
<trkpt lat="44.2328053" lon="3.5407309"><ele></ele><time>2022-6-3T0:6:59Z</time></trkpt>
<trkpt lat="44.2329043" lon="3.5409837"><ele></ele><time>2022-6-3T0:7:2Z</time></trkpt>
<trkpt lat="44.2329477" lon="3.5412607"><ele></ele><time>2022-6-3T0:7:5Z</time></trkpt>
<trkpt lat="44.2329728" lon="3.5415285"><ele></ele><time>2022-6-3T0:7:8Z</time></trkpt>
<trkpt lat="44.2329634" lon="3.5417957"><ele></ele><time>2022-6-3T0:7:11Z</time></trkpt>
<trkpt lat="44.2329985" lon="3.5420775"><ele></ele><time>2022-6-3T0:7:14Z</time></trkpt>
<trkpt lat="44.2331297" lon="3.5422892"><ele></ele><time>2022-6-3T0:7:17Z</time></trkpt>
<trkpt lat="44.2333118" lon="3.5424043"><ele></ele><time>2022-6-3T0:7:20Z</time></trkpt>
<trkpt lat="44.2334900" lon="3.5424635"><ele></ele><time>2022-6-3T0:7:23Z</time></trkpt>
<trkpt lat="44.2336752" lon="3.5425117"><ele></ele><time>2022-6-3T0:7:26Z</time></trkpt>
<trkpt lat="44.2338799" lon="3.5425589"><ele></ele><time>2022-6-3T0:7:29Z</time></trkpt>
<trkpt lat="44.2340590" lon="3.5426338"><ele></ele><time>2022-6-3T0:7:32Z</time></trkpt>
<trkpt lat="44.2342300" lon="3.5427686"><ele></ele><time>2022-6-3T0:7:35Z</time></trkpt>
<trkpt lat="44.2343366" lon="3.5429860"><ele></ele><time>2022-6-3T0:7:38Z</time></trkpt>
<trkpt lat="44.2344578" lon="3.5431955"><ele></ele><time>2022-6-3T0:7:41Z</time></trkpt>
<trkpt lat="44.2346135" lon="3.5434140"><ele></ele><time>2022-6-3T0:7:44Z</time></trkpt>
<trkpt lat="44.2347581" lon="3.5435953"><ele></ele><time>2022-6-3T0:7:47Z</time></trkpt>
<trkpt lat="44.2349217" lon="3.5437309"><ele></ele><time>2022-6-3T0:7:50Z</time></trkpt>
<trkpt lat="44.2351045" lon="3.5438470"><ele></ele><time>2022-6-3T0:7:53Z</time></trkpt>
<trkpt lat="44.2352902" lon="3.5439322"><ele></ele><time>2022-6-3T0:7:56Z</time></trkpt>
<trkpt lat="44.2354593" lon="3.5440358"><ele></ele><time>2022-6-3T0:7:59Z</time></trkpt>
<trkpt lat="44.2356747" lon="3.5441736"><ele></ele><time>2022-6-3T0:8:2Z</time></trkpt>
<trkpt lat="44.2358649" lon="3.5443233"><ele></ele><time>2022-6-3T0:8:5Z</time></trkpt>
<trkpt lat="44.2360214" lon="3.5445186"><ele></ele><time>2022-6-3T0:8:8Z</time></trkpt>
<trkpt lat="44.2361444" lon="3.5447152"><ele></ele><time>2022-6-3T0:8:11Z</time></trkpt>
<trkpt lat="44.2362807" lon="3.5449497"><ele></ele><time>2022-6-3T0:8:14Z</time></trkpt>
<trkpt lat="44.2364155" lon="3.5451902"><ele></ele><time>2022-6-3T0:8:17Z</time></trkpt>
<trkpt lat="44.2365467" lon="3.5454255"><ele></ele><time>2022-6-3T0:8:20Z</time></trkpt>
<trkpt lat="44.2366621" lon="3.5456390"><ele></ele><time>2022-6-3T0:8:23Z</time></trkpt>
<trkpt lat="44.2368299" lon="3.5457862"><ele></ele><time>2022-6-3T0:8:26Z</time></trkpt>
<trkpt lat="44.2370182" lon="3.5458678"><ele></ele><time>2022-6-3T0:8:29Z</time></trkpt>
<trkpt lat="44.2372054" lon="3.5458985"><ele></ele><time>2022-6-3T0:8:32Z</time></trkpt>
<trkpt lat="44.2373556" lon="3.5460754"><ele></ele><time>2022-6-3T0:8:35Z</time></trkpt>
<trkpt lat="44.2374412" lon="3.5463091"><ele></ele><time>2022-6-3T0:8:38Z</time></trkpt>
<trkpt lat="44.2375182" lon="3.5465449"><ele></ele><time>2022-6-3T0:8:41Z</time></trkpt>
<trkpt lat="44.2376209" lon="3.5467625"><ele></ele><time>2022-6-3T0:8:44Z</time></trkpt>
<trkpt lat="44.2377745" lon="3.5469401"><ele></ele><time>2022-6-3T0:8:47Z</time></trkpt>
<trkpt lat="44.2378698" lon="3.5471549"><ele></ele><time>2022-6-3T0:8:50Z</time></trkpt>
<trkpt lat="44.2379416" lon="3.5474018"><ele></ele><time>2022-6-3T0:8:53Z</time></trkpt>
<trkpt lat="44.2379243" lon="3.5476578"><ele></ele><time>2022-6-3T0:8:56Z</time></trkpt>
<trkpt lat="44.2378050" lon="3.5478753"><ele></ele><time>2022-6-3T0:8:59Z</time></trkpt>
<trkpt lat="44.2376442" lon="3.5480720"><ele></ele><time>2022-6-3T0:9:2Z</time></trkpt>
<trkpt lat="44.2374574" lon="3.5482749"><ele></ele><time>2022-6-3T0:9:5Z</time></trkpt>
<trkpt lat="44.2372725" lon="3.5484800"><ele></ele><time>2022-6-3T0:9:8Z</time></trkpt>
<trkpt lat="44.2371010" lon="3.5486905"><ele></ele><time>2022-6-3T0:9:11Z</time></trkpt>
<trkpt lat="44.2369311" lon="3.5488864"><ele></ele><time>2022-6-3T0:9:14Z</time></trkpt>
<trkpt lat="44.2367708" lon="3.5490850"><ele></ele><time>2022-6-3T0:9:17Z</time></trkpt>
<trkpt lat="44.2366072" lon="3.5492695"><ele></ele><time>2022-6-3T0:9:20Z</time></trkpt>
<trkpt lat="44.2364595" lon="3.5494669"><ele></ele><time>2022-6-3T0:9:23Z</time></trkpt>
<trkpt lat="44.2362964" lon="3.5496487"><ele></ele><time>2022-6-3T0:9:26Z</time></trkpt>
<trkpt lat="44.2361369" lon="3.5498261"><ele></ele><time>2022-6-3T0:9:29Z</time></trkpt>
<trkpt lat="44.2359803" lon="3.5500041"><ele></ele><time>2022-6-3T0:9:32Z</time></trkpt>
<trkpt lat="44.2358280" lon="3.5501773"><ele></ele><time>2022-6-3T0:9:35Z</time></trkpt>
<trkpt lat="44.2356567" lon="3.5503573"><ele></ele><time>2022-6-3T0:9:38Z</time></trkpt>
<trkpt lat="44.2354962" lon="3.5505481"><ele></ele><time>2022-6-3T0:9:41Z</time></trkpt>
<trkpt lat="44.2353267" lon="3.5507259"><ele></ele><time>2022-6-3T0:9:44Z</time></trkpt>
<trkpt lat="44.2351585" lon="3.5509197"><ele></ele><time>2022-6-3T0:9:47Z</time></trkpt>
<trkpt lat="44.2349759" lon="3.5511230"><ele></ele><time>2022-6-3T0:9:50Z</time></trkpt>
<trkpt lat="44.2347935" lon="3.5513304"><ele></ele><time>2022-6-3T0:9:53Z</time></trkpt>
<trkpt lat="44.2346500" lon="3.5514892"><ele></ele><time>2022-6-3T0:9:56Z</time></trkpt>
<trkpt lat="44.2345058" lon="3.5516565"><ele></ele><time>2022-6-3T0:9:59Z</time></trkpt>
<trkpt lat="44.2343715" lon="3.5518243"><ele></ele><time>2022-6-3T0:10:2Z</time></trkpt>
<trkpt lat="44.2342164" lon="3.5519989"><ele></ele><time>2022-6-3T0:10:5Z</time></trkpt>
<trkpt lat="44.2340809" lon="3.5521818"><ele></ele><time>2022-6-3T0:10:8Z</time></trkpt>
<trkpt lat="44.2339338" lon="3.5523375"><ele></ele><time>2022-6-3T0:10:11Z</time></trkpt>
<trkpt lat="44.2337602" lon="3.5524538"><ele></ele><time>2022-6-3T0:10:14Z</time></trkpt>
<trkpt lat="44.2336019" lon="3.5525970"><ele></ele><time>2022-6-3T0:10:17Z</time></trkpt>
<trkpt lat="44.2334355" lon="3.5527551"><ele></ele><time>2022-6-3T0:10:20Z</time></trkpt>
<trkpt lat="44.2332561" lon="3.5527286"><ele></ele><time>2022-6-3T0:10:23Z</time></trkpt>
<trkpt lat="44.2330565" lon="3.5526512"><ele></ele><time>2022-6-3T0:10:26Z</time></trkpt>
<trkpt lat="44.2328750" lon="3.5525943"><ele></ele><time>2022-6-3T0:10:29Z</time></trkpt>
<trkpt lat="44.2326684" lon="3.5525582"><ele></ele><time>2022-6-3T0:10:32Z</time></trkpt>
<trkpt lat="44.2324685" lon="3.5524996"><ele></ele><time>2022-6-3T0:10:35Z</time></trkpt>
<trkpt lat="44.2322663" lon="3.5524249"><ele></ele><time>2022-6-3T0:10:38Z</time></trkpt>
<trkpt lat="44.2320648" lon="3.5523723"><ele></ele><time>2022-6-3T0:10:41Z</time></trkpt>
<trkpt lat="44.2318843" lon="3.5523771"><ele></ele><time>2022-6-3T0:10:44Z</time></trkpt>
<trkpt lat="44.2316978" lon="3.5523176"><ele></ele><time>2022-6-3T0:10:47Z</time></trkpt>
<trkpt lat="44.2315861" lon="3.5525388"><ele></ele><time>2022-6-3T0:10:50Z</time></trkpt>
<trkpt lat="44.2316972" lon="3.5523326"><ele></ele><time>2022-6-3T0:10:53Z</time></trkpt>
<trkpt lat="44.2318846" lon="3.5523586"><ele></ele><time>2022-6-3T0:10:56Z</time></trkpt>
<trkpt lat="44.2321029" lon="3.5523555"><ele></ele><time>2022-6-3T0:10:59Z</time></trkpt>
<trkpt lat="44.2322982" lon="3.5524121"><ele></ele><time>2022-6-3T0:11:2Z</time></trkpt>
<trkpt lat="44.2324956" lon="3.5524910"><ele></ele><time>2022-6-3T0:11:5Z</time></trkpt>
<trkpt lat="44.2327090" lon="3.5525474"><ele></ele><time>2022-6-3T0:11:8Z</time></trkpt>
<trkpt lat="44.2329363" lon="3.5526041"><ele></ele><time>2022-6-3T0:11:11Z</time></trkpt>
<trkpt lat="44.2331694" lon="3.5526902"><ele></ele><time>2022-6-3T0:11:14Z</time></trkpt>
<trkpt lat="44.2333839" lon="3.5527443"><ele></ele><time>2022-6-3T0:11:17Z</time></trkpt>
<trkpt lat="44.2335725" lon="3.5526041"><ele></ele><time>2022-6-3T0:11:20Z</time></trkpt>
<trkpt lat="44.2337462" lon="3.5524492"><ele></ele><time>2022-6-3T0:11:23Z</time></trkpt>
<trkpt lat="44.2336250" lon="3.5527051"><ele></ele><time>2022-6-3T0:11:26Z</time></trkpt>
<trkpt lat="44.2334621" lon="3.5529053"><ele></ele><time>2022-6-3T0:11:29Z</time></trkpt>
<trkpt lat="44.2332293" lon="3.5529546"><ele></ele><time>2022-6-3T0:11:32Z</time></trkpt>
<trkpt lat="44.2330110" lon="3.5529115"><ele></ele><time>2022-6-3T0:11:35Z</time></trkpt>
<trkpt lat="44.2327512" lon="3.5528797"><ele></ele><time>2022-6-3T0:11:38Z</time></trkpt>
<trkpt lat="44.2324930" lon="3.5528563"><ele></ele><time>2022-6-3T0:11:41Z</time></trkpt>
<trkpt lat="44.2322344" lon="3.5528495"><ele></ele><time>2022-6-3T0:11:44Z</time></trkpt>
<trkpt lat="44.2320497" lon="3.5529083"><ele></ele><time>2022-6-3T0:11:47Z</time></trkpt>
<trkpt lat="44.2318088" lon="3.5529994"><ele></ele><time>2022-6-3T0:11:50Z</time></trkpt>
<trkpt lat="44.2315935" lon="3.5529799"><ele></ele><time>2022-6-3T0:11:53Z</time></trkpt>
<trkpt lat="44.2317670" lon="3.5531024"><ele></ele><time>2022-6-3T0:11:56Z</time></trkpt>
<trkpt lat="44.2319455" lon="3.5530707"><ele></ele><time>2022-6-3T0:11:59Z</time></trkpt>
<trkpt lat="44.2321489" lon="3.5530655"><ele></ele><time>2022-6-3T0:12:2Z</time></trkpt>
<trkpt lat="44.2323857" lon="3.5531071"><ele></ele><time>2022-6-3T0:12:5Z</time></trkpt>
<trkpt lat="44.2325877" lon="3.5531802"><ele></ele><time>2022-6-3T0:12:8Z</time></trkpt>
<trkpt lat="44.2327842" lon="3.5532425"><ele></ele><time>2022-6-3T0:12:11Z</time></trkpt>
<trkpt lat="44.2329810" lon="3.5533330"><ele></ele><time>2022-6-3T0:12:14Z</time></trkpt>
<trkpt lat="44.2331607" lon="3.5534263"><ele></ele><time>2022-6-3T0:12:17Z</time></trkpt>
<trkpt lat="44.2333394" lon="3.5535106"><ele></ele><time>2022-6-3T0:12:20Z</time></trkpt>
<trkpt lat="44.2334730" lon="3.5536992"><ele></ele><time>2022-6-3T0:12:23Z</time></trkpt>
<trkpt lat="44.2336109" lon="3.5539230"><ele></ele><time>2022-6-3T0:12:26Z</time></trkpt>
<trkpt lat="44.2337468" lon="3.5541143"><ele></ele><time>2022-6-3T0:12:29Z</time></trkpt>
<trkpt lat="44.2339185" lon="3.5542622"><ele></ele><time>2022-6-3T0:12:32Z</time></trkpt>
<trkpt lat="44.2340724" lon="3.5544406"><ele></ele><time>2022-6-3T0:12:35Z</time></trkpt>
<trkpt lat="44.2342005" lon="3.5546869"><ele></ele><time>2022-6-3T0:12:38Z</time></trkpt>
<trkpt lat="44.2343203" lon="3.5549549"><ele></ele><time>2022-6-3T0:12:41Z</time></trkpt>
<trkpt lat="44.2344103" lon="3.5552420"><ele></ele><time>2022-6-3T0:12:44Z</time></trkpt>
<trkpt lat="44.2345033" lon="3.5555394"><ele></ele><time>2022-6-3T0:12:47Z</time></trkpt>
<trkpt lat="44.2345500" lon="3.5558081"><ele></ele><time>2022-6-3T0:12:50Z</time></trkpt>
<trkpt lat="44.2345963" lon="3.5560519"><ele></ele><time>2022-6-3T0:12:53Z</time></trkpt>
<trkpt lat="44.2348113" lon="3.5561630"><ele></ele><time>2022-6-3T0:12:56Z</time></trkpt>
<trkpt lat="44.2350080" lon="3.5560681"><ele></ele><time>2022-6-3T0:12:59Z</time></trkpt>
<trkpt lat="44.2351767" lon="3.5559190"><ele></ele><time>2022-6-3T0:13:2Z</time></trkpt>
<trkpt lat="44.2353600" lon="3.5557417"><ele></ele><time>2022-6-3T0:13:5Z</time></trkpt>
<trkpt lat="44.2355353" lon="3.5555513"><ele></ele><time>2022-6-3T0:13:8Z</time></trkpt>
<trkpt lat="44.2356913" lon="3.5553329"><ele></ele><time>2022-6-3T0:13:11Z</time></trkpt>
<trkpt lat="44.2358064" lon="3.5550929"><ele></ele><time>2022-6-3T0:13:14Z</time></trkpt>
<trkpt lat="44.2359020" lon="3.5548090"><ele></ele><time>2022-6-3T0:13:17Z</time></trkpt>
<trkpt lat="44.2360210" lon="3.5545275"><ele></ele><time>2022-6-3T0:13:20Z</time></trkpt>
<trkpt lat="44.2361606" lon="3.5542832"><ele></ele><time>2022-6-3T0:13:23Z</time></trkpt>
<trkpt lat="44.2363272" lon="3.5540403"><ele></ele><time>2022-6-3T0:13:26Z</time></trkpt>
<trkpt lat="44.2365057" lon="3.5538183"><ele></ele><time>2022-6-3T0:13:29Z</time></trkpt>
<trkpt lat="44.2367044" lon="3.5536193"><ele></ele><time>2022-6-3T0:13:32Z</time></trkpt>
<trkpt lat="44.2369190" lon="3.5534994"><ele></ele><time>2022-6-3T0:13:35Z</time></trkpt>
<trkpt lat="44.2371671" lon="3.5534330"><ele></ele><time>2022-6-3T0:13:38Z</time></trkpt>
<trkpt lat="44.2374150" lon="3.5533594"><ele></ele><time>2022-6-3T0:13:41Z</time></trkpt>
<trkpt lat="44.2376130" lon="3.5532351"><ele></ele><time>2022-6-3T0:13:44Z</time></trkpt>
<trkpt lat="44.2377345" lon="3.5530363"><ele></ele><time>2022-6-3T0:13:47Z</time></trkpt>
<trkpt lat="44.2378985" lon="3.5528639"><ele></ele><time>2022-6-3T0:13:50Z</time></trkpt>
<trkpt lat="44.2381272" lon="3.5528115"><ele></ele><time>2022-6-3T0:13:53Z</time></trkpt>
<trkpt lat="44.2383226" lon="3.5528279"><ele></ele><time>2022-6-3T0:13:56Z</time></trkpt>
<trkpt lat="44.2385116" lon="3.5530088"><ele></ele><time>2022-6-3T0:13:59Z</time></trkpt>
<trkpt lat="44.2387119" lon="3.5531514"><ele></ele><time>2022-6-3T0:14:2Z</time></trkpt>
<trkpt lat="44.2389237" lon="3.5531953"><ele></ele><time>2022-6-3T0:14:5Z</time></trkpt>
<trkpt lat="44.2391252" lon="3.5530972"><ele></ele><time>2022-6-3T0:14:8Z</time></trkpt>
<trkpt lat="44.2393042" lon="3.5530649"><ele></ele><time>2022-6-3T0:14:11Z</time></trkpt>
<trkpt lat="44.2395105" lon="3.5531952"><ele></ele><time>2022-6-3T0:14:14Z</time></trkpt>
<trkpt lat="44.2396744" lon="3.5534031"><ele></ele><time>2022-6-3T0:14:17Z</time></trkpt>
<trkpt lat="44.2398669" lon="3.5535023"><ele></ele><time>2022-6-3T0:14:20Z</time></trkpt>
<trkpt lat="44.2399838" lon="3.5537798"><ele></ele><time>2022-6-3T0:14:23Z</time></trkpt>
<trkpt lat="44.2401277" lon="3.5540655"><ele></ele><time>2022-6-3T0:14:26Z</time></trkpt>
<trkpt lat="44.2402678" lon="3.5542508"><ele></ele><time>2022-6-3T0:14:29Z</time></trkpt>
<trkpt lat="44.2404006" lon="3.5544568"><ele></ele><time>2022-6-3T0:14:32Z</time></trkpt>
<trkpt lat="44.2405091" lon="3.5546829"><ele></ele><time>2022-6-3T0:14:35Z</time></trkpt>
<trkpt lat="44.2406802" lon="3.5549288"><ele></ele><time>2022-6-3T0:14:38Z</time></trkpt>
<trkpt lat="44.2409214" lon="3.5550221"><ele></ele><time>2022-6-3T0:14:41Z</time></trkpt>
<trkpt lat="44.2411022" lon="3.5550411"><ele></ele><time>2022-6-3T0:14:44Z</time></trkpt>
<trkpt lat="44.2412967" lon="3.5550590"><ele></ele><time>2022-6-3T0:14:47Z</time></trkpt>
<trkpt lat="44.2414897" lon="3.5550602"><ele></ele><time>2022-6-3T0:14:50Z</time></trkpt>
<trkpt lat="44.2417373" lon="3.5549922"><ele></ele><time>2022-6-3T0:14:53Z</time></trkpt>
<trkpt lat="44.2419309" lon="3.5548838"><ele></ele><time>2022-6-3T0:14:56Z</time></trkpt>
<trkpt lat="44.2421060" lon="3.5547855"><ele></ele><time>2022-6-3T0:14:59Z</time></trkpt>
<trkpt lat="44.2422871" lon="3.5548133"><ele></ele><time>2022-6-3T0:15:2Z</time></trkpt>
<trkpt lat="44.2424281" lon="3.5550512"><ele></ele><time>2022-6-3T0:15:5Z</time></trkpt>
<trkpt lat="44.2425215" lon="3.5553237"><ele></ele><time>2022-6-3T0:15:8Z</time></trkpt>
<trkpt lat="44.2426033" lon="3.5555793"><ele></ele><time>2022-6-3T0:15:11Z</time></trkpt>
<trkpt lat="44.2426918" lon="3.5558340"><ele></ele><time>2022-6-3T0:15:14Z</time></trkpt>
<trkpt lat="44.2428173" lon="3.5560621"><ele></ele><time>2022-6-3T0:15:17Z</time></trkpt>
<trkpt lat="44.2429027" lon="3.5563572"><ele></ele><time>2022-6-3T0:15:20Z</time></trkpt>
<trkpt lat="44.2429889" lon="3.5566710"><ele></ele><time>2022-6-3T0:15:23Z</time></trkpt>
<trkpt lat="44.2430742" lon="3.5569077"><ele></ele><time>2022-6-3T0:15:26Z</time></trkpt>
<trkpt lat="44.2432634" lon="3.5570614"><ele></ele><time>2022-6-3T0:15:29Z</time></trkpt>
<trkpt lat="44.2434441" lon="3.5571557"><ele></ele><time>2022-6-3T0:15:32Z</time></trkpt>
<trkpt lat="44.2435983" lon="3.5573239"><ele></ele><time>2022-6-3T0:15:35Z</time></trkpt>
<trkpt lat="44.2437340" lon="3.5575235"><ele></ele><time>2022-6-3T0:15:38Z</time></trkpt>
<trkpt lat="44.2438097" lon="3.5577981"><ele></ele><time>2022-6-3T0:15:41Z</time></trkpt>
<trkpt lat="44.2438466" lon="3.5580749"><ele></ele><time>2022-6-3T0:15:44Z</time></trkpt>
<trkpt lat="44.2438727" lon="3.5583250"><ele></ele><time>2022-6-3T0:15:47Z</time></trkpt>
<trkpt lat="44.2438811" lon="3.5586381"><ele></ele><time>2022-6-3T0:15:50Z</time></trkpt>
<trkpt lat="44.2438269" lon="3.5589877"><ele></ele><time>2022-6-3T0:15:53Z</time></trkpt>
<trkpt lat="44.2437617" lon="3.5592267"><ele></ele><time>2022-6-3T0:15:56Z</time></trkpt>
<trkpt lat="44.2437007" lon="3.5595521"><ele></ele><time>2022-6-3T0:15:59Z</time></trkpt>
<trkpt lat="44.2437572" lon="3.5598167"><ele></ele><time>2022-6-3T0:16:2Z</time></trkpt>
<trkpt lat="44.2436486" lon="3.5600492"><ele></ele><time>2022-6-3T0:16:5Z</time></trkpt>
<trkpt lat="44.2434637" lon="3.5601939"><ele></ele><time>2022-6-3T0:16:8Z</time></trkpt>
<trkpt lat="44.2433017" lon="3.5604291"><ele></ele><time>2022-6-3T0:16:11Z</time></trkpt>
<trkpt lat="44.2431299" lon="3.5607191"><ele></ele><time>2022-6-3T0:16:14Z</time></trkpt>
<trkpt lat="44.2430137" lon="3.5609347"><ele></ele><time>2022-6-3T0:16:17Z</time></trkpt>
<trkpt lat="44.2428132" lon="3.5611684"><ele></ele><time>2022-6-3T0:16:20Z</time></trkpt>
<trkpt lat="44.2426355" lon="3.5612438"><ele></ele><time>2022-6-3T0:16:23Z</time></trkpt>
<trkpt lat="44.2424583" lon="3.5613345"><ele></ele><time>2022-6-3T0:16:26Z</time></trkpt>
<trkpt lat="44.2423200" lon="3.5615148"><ele></ele><time>2022-6-3T0:16:29Z</time></trkpt>
<trkpt lat="44.2422168" lon="3.5617546"><ele></ele><time>2022-6-3T0:16:32Z</time></trkpt>
<trkpt lat="44.2420873" lon="3.5619925"><ele></ele><time>2022-6-3T0:16:35Z</time></trkpt>
<trkpt lat="44.2419324" lon="3.5622126"><ele></ele><time>2022-6-3T0:16:38Z</time></trkpt>
<trkpt lat="44.2417725" lon="3.5624238"><ele></ele><time>2022-6-3T0:16:41Z</time></trkpt>
<trkpt lat="44.2416107" lon="3.5626044"><ele></ele><time>2022-6-3T0:16:44Z</time></trkpt>
<trkpt lat="44.2414161" lon="3.5626994"><ele></ele><time>2022-6-3T0:16:47Z</time></trkpt>
<trkpt lat="44.2412073" lon="3.5627450"><ele></ele><time>2022-6-3T0:16:50Z</time></trkpt>
<trkpt lat="44.2410132" lon="3.5627979"><ele></ele><time>2022-6-3T0:16:53Z</time></trkpt>
<trkpt lat="44.2408247" lon="3.5629335"><ele></ele><time>2022-6-3T0:16:56Z</time></trkpt>
<trkpt lat="44.2409160" lon="3.5627140"><ele></ele><time>2022-6-3T0:16:59Z</time></trkpt>
<trkpt lat="44.2410995" lon="3.5625991"><ele></ele><time>2022-6-3T0:17:2Z</time></trkpt>
<trkpt lat="44.2412828" lon="3.5624887"><ele></ele><time>2022-6-3T0:17:5Z</time></trkpt>
<trkpt lat="44.2414654" lon="3.5623390"><ele></ele><time>2022-6-3T0:17:8Z</time></trkpt>
<trkpt lat="44.2415764" lon="3.5620739"><ele></ele><time>2022-6-3T0:17:11Z</time></trkpt>
<trkpt lat="44.2416909" lon="3.5618272"><ele></ele><time>2022-6-3T0:17:14Z</time></trkpt>
<trkpt lat="44.2417564" lon="3.5615518"><ele></ele><time>2022-6-3T0:17:17Z</time></trkpt>
<trkpt lat="44.2417498" lon="3.5612349"><ele></ele><time>2022-6-3T0:17:20Z</time></trkpt>
<trkpt lat="44.2418547" lon="3.5609822"><ele></ele><time>2022-6-3T0:17:23Z</time></trkpt>
<trkpt lat="44.2416691" lon="3.5610788"><ele></ele><time>2022-6-3T0:17:26Z</time></trkpt>
<trkpt lat="44.2416003" lon="3.5613149"><ele></ele><time>2022-6-3T0:17:29Z</time></trkpt>
<trkpt lat="44.2415248" lon="3.5616050"><ele></ele><time>2022-6-3T0:17:32Z</time></trkpt>
<trkpt lat="44.2413905" lon="3.5618700"><ele></ele><time>2022-6-3T0:17:35Z</time></trkpt>
<trkpt lat="44.2411873" lon="3.5620141"><ele></ele><time>2022-6-3T0:17:38Z</time></trkpt>
<trkpt lat="44.2410066" lon="3.5619724"><ele></ele><time>2022-6-3T0:17:41Z</time></trkpt>
<trkpt lat="44.2408211" lon="3.5619641"><ele></ele><time>2022-6-3T0:17:44Z</time></trkpt>
<trkpt lat="44.2406309" lon="3.5619802"><ele></ele><time>2022-6-3T0:17:47Z</time></trkpt>
<trkpt lat="44.2404323" lon="3.5620088"><ele></ele><time>2022-6-3T0:17:50Z</time></trkpt>
<trkpt lat="44.2402289" lon="3.5620884"><ele></ele><time>2022-6-3T0:17:53Z</time></trkpt>
<trkpt lat="44.2400382" lon="3.5622423"><ele></ele><time>2022-6-3T0:17:56Z</time></trkpt>
<trkpt lat="44.2398807" lon="3.5624558"><ele></ele><time>2022-6-3T0:17:59Z</time></trkpt>
<trkpt lat="44.2397735" lon="3.5626803"><ele></ele><time>2022-6-3T0:18:2Z</time></trkpt>
<trkpt lat="44.2396699" lon="3.5629036"><ele></ele><time>2022-6-3T0:18:5Z</time></trkpt>
<trkpt lat="44.2395974" lon="3.5631438"><ele></ele><time>2022-6-3T0:18:8Z</time></trkpt>
<trkpt lat="44.2395190" lon="3.5634119"><ele></ele><time>2022-6-3T0:18:11Z</time></trkpt>
<trkpt lat="44.2394571" lon="3.5636559"><ele></ele><time>2022-6-3T0:18:14Z</time></trkpt>
<trkpt lat="44.2394006" lon="3.5639132"><ele></ele><time>2022-6-3T0:18:17Z</time></trkpt>
<trkpt lat="44.2393290" lon="3.5642059"><ele></ele><time>2022-6-3T0:18:20Z</time></trkpt>
<trkpt lat="44.2392729" lon="3.5644866"><ele></ele><time>2022-6-3T0:18:23Z</time></trkpt>
<trkpt lat="44.2392878" lon="3.5647888"><ele></ele><time>2022-6-3T0:18:26Z</time></trkpt>
<trkpt lat="44.2394148" lon="3.5650332"><ele></ele><time>2022-6-3T0:18:29Z</time></trkpt>
<trkpt lat="44.2395432" lon="3.5652498"><ele></ele><time>2022-6-3T0:18:32Z</time></trkpt>
<trkpt lat="44.2396482" lon="3.5654702"><ele></ele><time>2022-6-3T0:18:35Z</time></trkpt>
<trkpt lat="44.2397398" lon="3.5657027"><ele></ele><time>2022-6-3T0:18:38Z</time></trkpt>
<trkpt lat="44.2398318" lon="3.5659831"><ele></ele><time>2022-6-3T0:18:41Z</time></trkpt>
<trkpt lat="44.2396651" lon="3.5661456"><ele></ele><time>2022-6-3T0:18:44Z</time></trkpt>
<trkpt lat="44.2394622" lon="3.5662310"><ele></ele><time>2022-6-3T0:18:47Z</time></trkpt>
<trkpt lat="44.2392600" lon="3.5663897"><ele></ele><time>2022-6-3T0:18:50Z</time></trkpt>
<trkpt lat="44.2390621" lon="3.5665541"><ele></ele><time>2022-6-3T0:18:53Z</time></trkpt>
<trkpt lat="44.2388705" lon="3.5667253"><ele></ele><time>2022-6-3T0:18:56Z</time></trkpt>
<trkpt lat="44.2386916" lon="3.5669288"><ele></ele><time>2022-6-3T0:18:59Z</time></trkpt>
<trkpt lat="44.2385330" lon="3.5671319"><ele></ele><time>2022-6-3T0:19:2Z</time></trkpt>
<trkpt lat="44.2383816" lon="3.5673296"><ele></ele><time>2022-6-3T0:19:5Z</time></trkpt>
<trkpt lat="44.2382453" lon="3.5675093"><ele></ele><time>2022-6-3T0:19:8Z</time></trkpt>
<trkpt lat="44.2381307" lon="3.5677224"><ele></ele><time>2022-6-3T0:19:11Z</time></trkpt>
<trkpt lat="44.2380122" lon="3.5679166"><ele></ele><time>2022-6-3T0:19:14Z</time></trkpt>
<trkpt lat="44.2378831" lon="3.5681771"><ele></ele><time>2022-6-3T0:19:17Z</time></trkpt>
<trkpt lat="44.2377824" lon="3.5684187"><ele></ele><time>2022-6-3T0:19:20Z</time></trkpt>
<trkpt lat="44.2376918" lon="3.5686846"><ele></ele><time>2022-6-3T0:19:23Z</time></trkpt>
<trkpt lat="44.2375846" lon="3.5689761"><ele></ele><time>2022-6-3T0:19:26Z</time></trkpt>
<trkpt lat="44.2374802" lon="3.5692668"><ele></ele><time>2022-6-3T0:19:29Z</time></trkpt>
<trkpt lat="44.2373857" lon="3.5695595"><ele></ele><time>2022-6-3T0:19:32Z</time></trkpt>
<trkpt lat="44.2373017" lon="3.5698224"><ele></ele><time>2022-6-3T0:19:35Z</time></trkpt>
<trkpt lat="44.2372226" lon="3.5700496"><ele></ele><time>2022-6-3T0:19:38Z</time></trkpt>
<trkpt lat="44.2371447" lon="3.5702857"><ele></ele><time>2022-6-3T0:19:41Z</time></trkpt>
<trkpt lat="44.2370657" lon="3.5705259"><ele></ele><time>2022-6-3T0:19:44Z</time></trkpt>
<trkpt lat="44.2369872" lon="3.5707877"><ele></ele><time>2022-6-3T0:19:47Z</time></trkpt>
<trkpt lat="44.2369624" lon="3.5710392"><ele></ele><time>2022-6-3T0:19:50Z</time></trkpt>
<trkpt lat="44.2370449" lon="3.5713023"><ele></ele><time>2022-6-3T0:19:53Z</time></trkpt>
<trkpt lat="44.2371912" lon="3.5714545"><ele></ele><time>2022-6-3T0:19:56Z</time></trkpt>
<trkpt lat="44.2374021" lon="3.5715299"><ele></ele><time>2022-6-3T0:19:59Z</time></trkpt>
<trkpt lat="44.2375633" lon="3.5716451"><ele></ele><time>2022-6-3T0:20:2Z</time></trkpt>
<trkpt lat="44.2376660" lon="3.5719173"><ele></ele><time>2022-6-3T0:20:5Z</time></trkpt>
<trkpt lat="44.2377360" lon="3.5722010"><ele></ele><time>2022-6-3T0:20:8Z</time></trkpt>
<trkpt lat="44.2378597" lon="3.5724391"><ele></ele><time>2022-6-3T0:20:11Z</time></trkpt>
<trkpt lat="44.2379377" lon="3.5727059"><ele></ele><time>2022-6-3T0:20:14Z</time></trkpt>
<trkpt lat="44.2380344" lon="3.5729589"><ele></ele><time>2022-6-3T0:20:17Z</time></trkpt>
<trkpt lat="44.2380646" lon="3.5732713"><ele></ele><time>2022-6-3T0:20:20Z</time></trkpt>
<trkpt lat="44.2380921" lon="3.5735805"><ele></ele><time>2022-6-3T0:20:23Z</time></trkpt>
<trkpt lat="44.2381164" lon="3.5738878"><ele></ele><time>2022-6-3T0:20:26Z</time></trkpt>
<trkpt lat="44.2381419" lon="3.5741948"><ele></ele><time>2022-6-3T0:20:29Z</time></trkpt>
<trkpt lat="44.2381739" lon="3.5745086"><ele></ele><time>2022-6-3T0:20:32Z</time></trkpt>
<trkpt lat="44.2381875" lon="3.5748087"><ele></ele><time>2022-6-3T0:20:35Z</time></trkpt>
<trkpt lat="44.2381539" lon="3.5750734"><ele></ele><time>2022-6-3T0:20:38Z</time></trkpt>
<trkpt lat="44.2380850" lon="3.5753883"><ele></ele><time>2022-6-3T0:20:41Z</time></trkpt>
<trkpt lat="44.2381012" lon="3.5756905"><ele></ele><time>2022-6-3T0:20:44Z</time></trkpt>
<trkpt lat="44.2382896" lon="3.5758056"><ele></ele><time>2022-6-3T0:20:47Z</time></trkpt>
<trkpt lat="44.2384570" lon="3.5756123"><ele></ele><time>2022-6-3T0:20:50Z</time></trkpt>
<trkpt lat="44.2386028" lon="3.5754409"><ele></ele><time>2022-6-3T0:20:53Z</time></trkpt>
<trkpt lat="44.2387800" lon="3.5753302"><ele></ele><time>2022-6-3T0:20:56Z</time></trkpt>
<trkpt lat="44.2389778" lon="3.5753507"><ele></ele><time>2022-6-3T0:20:59Z</time></trkpt>
<trkpt lat="44.2391844" lon="3.5754635"><ele></ele><time>2022-6-3T0:21:2Z</time></trkpt>
<trkpt lat="44.2394163" lon="3.5755726"><ele></ele><time>2022-6-3T0:21:5Z</time></trkpt>
<trkpt lat="44.2396102" lon="3.5756788"><ele></ele><time>2022-6-3T0:21:8Z</time></trkpt>
<trkpt lat="44.2397944" lon="3.5757876"><ele></ele><time>2022-6-3T0:21:11Z</time></trkpt>
<trkpt lat="44.2399729" lon="3.5758736"><ele></ele><time>2022-6-3T0:21:14Z</time></trkpt>
<trkpt lat="44.2401781" lon="3.5758135"><ele></ele><time>2022-6-3T0:21:17Z</time></trkpt>
<trkpt lat="44.2399938" lon="3.5758822"><ele></ele><time>2022-6-3T0:21:20Z</time></trkpt>
<trkpt lat="44.2398136" lon="3.5757843"><ele></ele><time>2022-6-3T0:21:23Z</time></trkpt>
<trkpt lat="44.2396311" lon="3.5756845"><ele></ele><time>2022-6-3T0:21:26Z</time></trkpt>
<trkpt lat="44.2394648" lon="3.5755875"><ele></ele><time>2022-6-3T0:21:29Z</time></trkpt>
<trkpt lat="44.2392845" lon="3.5754786"><ele></ele><time>2022-6-3T0:21:32Z</time></trkpt>
<trkpt lat="44.2391036" lon="3.5753653"><ele></ele><time>2022-6-3T0:21:35Z</time></trkpt>
<trkpt lat="44.2389121" lon="3.5752941"><ele></ele><time>2022-6-3T0:21:38Z</time></trkpt>
<trkpt lat="44.2387327" lon="3.5753332"><ele></ele><time>2022-6-3T0:21:41Z</time></trkpt>
<trkpt lat="44.2385707" lon="3.5754674"><ele></ele><time>2022-6-3T0:21:44Z</time></trkpt>
<trkpt lat="44.2384193" lon="3.5756468"><ele></ele><time>2022-6-3T0:21:47Z</time></trkpt>
<trkpt lat="44.2383757" lon="3.5759555"><ele></ele><time>2022-6-3T0:21:50Z</time></trkpt>
<trkpt lat="44.2383855" lon="3.5762087"><ele></ele><time>2022-6-3T0:21:53Z</time></trkpt>
<trkpt lat="44.2384360" lon="3.5764551"><ele></ele><time>2022-6-3T0:21:56Z</time></trkpt>
<trkpt lat="44.2384981" lon="3.5767001"><ele></ele><time>2022-6-3T0:21:59Z</time></trkpt>
<trkpt lat="44.2385396" lon="3.5769861"><ele></ele><time>2022-6-3T0:22:2Z</time></trkpt>
<trkpt lat="44.2385960" lon="3.5772304"><ele></ele><time>2022-6-3T0:22:5Z</time></trkpt>
<trkpt lat="44.2387174" lon="3.5774249"><ele></ele><time>2022-6-3T0:22:8Z</time></trkpt>
<trkpt lat="44.2386581" lon="3.5776955"><ele></ele><time>2022-6-3T0:22:11Z</time></trkpt>
<trkpt lat="44.2386908" lon="3.5779737"><ele></ele><time>2022-6-3T0:22:14Z</time></trkpt>
<trkpt lat="44.2387173" lon="3.5782573"><ele></ele><time>2022-6-3T0:22:17Z</time></trkpt>
<trkpt lat="44.2387211" lon="3.5785378"><ele></ele><time>2022-6-3T0:22:20Z</time></trkpt>
<trkpt lat="44.2386428" lon="3.5788116"><ele></ele><time>2022-6-3T0:22:23Z</time></trkpt>
<trkpt lat="44.2385213" lon="3.5790085"><ele></ele><time>2022-6-3T0:22:26Z</time></trkpt>
<trkpt lat="44.2385445" lon="3.5792678"><ele></ele><time>2022-6-3T0:22:29Z</time></trkpt>
<trkpt lat="44.2383986" lon="3.5791198"><ele></ele><time>2022-6-3T0:22:32Z</time></trkpt>
<trkpt lat="44.2383670" lon="3.5788386"><ele></ele><time>2022-6-3T0:22:35Z</time></trkpt>
<trkpt lat="44.2383104" lon="3.5785495"><ele></ele><time>2022-6-3T0:22:38Z</time></trkpt>
<trkpt lat="44.2381068" lon="3.5785967"><ele></ele><time>2022-6-3T0:22:41Z</time></trkpt>
<trkpt lat="44.2379563" lon="3.5787438"><ele></ele><time>2022-6-3T0:22:44Z</time></trkpt>
<trkpt lat="44.2379839" lon="3.5790179"><ele></ele><time>2022-6-3T0:22:47Z</time></trkpt>
<trkpt lat="44.2380392" lon="3.5792628"><ele></ele><time>2022-6-3T0:22:50Z</time></trkpt>
<trkpt lat="44.2381208" lon="3.5790310"><ele></ele><time>2022-6-3T0:22:53Z</time></trkpt>
<trkpt lat="44.2379932" lon="3.5788409"><ele></ele><time>2022-6-3T0:22:56Z</time></trkpt>
<trkpt lat="44.2380034" lon="3.5785877"><ele></ele><time>2022-6-3T0:22:59Z</time></trkpt>
<trkpt lat="44.2378984" lon="3.5783781"><ele></ele><time>2022-6-3T0:23:2Z</time></trkpt>
<trkpt lat="44.2377805" lon="3.5781524"><ele></ele><time>2022-6-3T0:23:5Z</time></trkpt>
<trkpt lat="44.2376295" lon="3.5779818"><ele></ele><time>2022-6-3T0:23:8Z</time></trkpt>
<trkpt lat="44.2374900" lon="3.5778037"><ele></ele><time>2022-6-3T0:23:11Z</time></trkpt>
<trkpt lat="44.2373350" lon="3.5776610"><ele></ele><time>2022-6-3T0:23:14Z</time></trkpt>
<trkpt lat="44.2371629" lon="3.5775454"><ele></ele><time>2022-6-3T0:23:17Z</time></trkpt>
<trkpt lat="44.2369748" lon="3.5775148"><ele></ele><time>2022-6-3T0:23:20Z</time></trkpt>
<trkpt lat="44.2367843" lon="3.5775205"><ele></ele><time>2022-6-3T0:23:23Z</time></trkpt>
<trkpt lat="44.2365903" lon="3.5774992"><ele></ele><time>2022-6-3T0:23:26Z</time></trkpt>
<trkpt lat="44.2364015" lon="3.5774490"><ele></ele><time>2022-6-3T0:23:29Z</time></trkpt>
<trkpt lat="44.2362133" lon="3.5773806"><ele></ele><time>2022-6-3T0:23:32Z</time></trkpt>
<trkpt lat="44.2360350" lon="3.5774151"><ele></ele><time>2022-6-3T0:23:35Z</time></trkpt>
<trkpt lat="44.2358587" lon="3.5775162"><ele></ele><time>2022-6-3T0:23:38Z</time></trkpt>
<trkpt lat="44.2357200" lon="3.5776877"><ele></ele><time>2022-6-3T0:23:41Z</time></trkpt>
<trkpt lat="44.2355856" lon="3.5778918"><ele></ele><time>2022-6-3T0:23:44Z</time></trkpt>
<trkpt lat="44.2354462" lon="3.5780634"><ele></ele><time>2022-6-3T0:23:47Z</time></trkpt>
<trkpt lat="44.2353434" lon="3.5782817"><ele></ele><time>2022-6-3T0:23:50Z</time></trkpt>
<trkpt lat="44.2355377" lon="3.5783121"><ele></ele><time>2022-6-3T0:23:53Z</time></trkpt>
<trkpt lat="44.2357163" lon="3.5782784"><ele></ele><time>2022-6-3T0:23:56Z</time></trkpt>
<trkpt lat="44.2358972" lon="3.5782924"><ele></ele><time>2022-6-3T0:23:59Z</time></trkpt>
<trkpt lat="44.2360872" lon="3.5783468"><ele></ele><time>2022-6-3T0:24:2Z</time></trkpt>
<trkpt lat="44.2362658" lon="3.5784025"><ele></ele><time>2022-6-3T0:24:5Z</time></trkpt>
<trkpt lat="44.2364444" lon="3.5784984"><ele></ele><time>2022-6-3T0:24:8Z</time></trkpt>
<trkpt lat="44.2362619" lon="3.5785701"><ele></ele><time>2022-6-3T0:24:11Z</time></trkpt>
<trkpt lat="44.2360882" lon="3.5786584"><ele></ele><time>2022-6-3T0:24:14Z</time></trkpt>
<trkpt lat="44.2359258" lon="3.5787952"><ele></ele><time>2022-6-3T0:24:17Z</time></trkpt>
<trkpt lat="44.2357553" lon="3.5789228"><ele></ele><time>2022-6-3T0:24:20Z</time></trkpt>
<trkpt lat="44.2355998" lon="3.5790711"><ele></ele><time>2022-6-3T0:24:23Z</time></trkpt>
<trkpt lat="44.2354474" lon="3.5792426"><ele></ele><time>2022-6-3T0:24:26Z</time></trkpt>
<trkpt lat="44.2352888" lon="3.5794063"><ele></ele><time>2022-6-3T0:24:29Z</time></trkpt>
<trkpt lat="44.2351416" lon="3.5795519"><ele></ele><time>2022-6-3T0:24:32Z</time></trkpt>
<trkpt lat="44.2350482" lon="3.5797668"><ele></ele><time>2022-6-3T0:24:35Z</time></trkpt>
<trkpt lat="44.2350438" lon="3.5800187"><ele></ele><time>2022-6-3T0:24:38Z</time></trkpt>
<trkpt lat="44.2351736" lon="3.5798192"><ele></ele><time>2022-6-3T0:24:41Z</time></trkpt>
<trkpt lat="44.2353447" lon="3.5796673"><ele></ele><time>2022-6-3T0:24:44Z</time></trkpt>
<trkpt lat="44.2354470" lon="3.5798881"><ele></ele><time>2022-6-3T0:24:47Z</time></trkpt>
<trkpt lat="44.2356389" lon="3.5798383"><ele></ele><time>2022-6-3T0:24:50Z</time></trkpt>
<trkpt lat="44.2358360" lon="3.5798251"><ele></ele><time>2022-6-3T0:24:53Z</time></trkpt>
<trkpt lat="44.2360296" lon="3.5798076"><ele></ele><time>2022-6-3T0:24:56Z</time></trkpt>
<trkpt lat="44.2362221" lon="3.5797717"><ele></ele><time>2022-6-3T0:24:59Z</time></trkpt>
<trkpt lat="44.2362059" lon="3.5800354"><ele></ele><time>2022-6-3T0:25:2Z</time></trkpt>
<trkpt lat="44.2360468" lon="3.5801740"><ele></ele><time>2022-6-3T0:25:5Z</time></trkpt>
<trkpt lat="44.2358644" lon="3.5802947"><ele></ele><time>2022-6-3T0:25:8Z</time></trkpt>
<trkpt lat="44.2359797" lon="3.5805238"><ele></ele><time>2022-6-3T0:25:11Z</time></trkpt>
<trkpt lat="44.2361175" lon="3.5806993"><ele></ele><time>2022-6-3T0:25:14Z</time></trkpt>
<trkpt lat="44.2361976" lon="3.5809357"><ele></ele><time>2022-6-3T0:25:17Z</time></trkpt>
<trkpt lat="44.2362531" lon="3.5811898"><ele></ele><time>2022-6-3T0:25:20Z</time></trkpt>
<trkpt lat="44.2362797" lon="3.5814509"><ele></ele><time>2022-6-3T0:25:23Z</time></trkpt>
<trkpt lat="44.2362984" lon="3.5817193"><ele></ele><time>2022-6-3T0:25:26Z</time></trkpt>
<trkpt lat="44.2363381" lon="3.5819660"><ele></ele><time>2022-6-3T0:25:29Z</time></trkpt>
<trkpt lat="44.2364212" lon="3.5821990"><ele></ele><time>2022-6-3T0:25:32Z</time></trkpt>
<trkpt lat="44.2365238" lon="3.5824177"><ele></ele><time>2022-6-3T0:25:35Z</time></trkpt>
<trkpt lat="44.2365663" lon="3.5826624"><ele></ele><time>2022-6-3T0:25:38Z</time></trkpt>
<trkpt lat="44.2365771" lon="3.5829254"><ele></ele><time>2022-6-3T0:25:41Z</time></trkpt>
<trkpt lat="44.2364205" lon="3.5830776"><ele></ele><time>2022-6-3T0:25:44Z</time></trkpt>
<trkpt lat="44.2362885" lon="3.5832490"><ele></ele><time>2022-6-3T0:25:47Z</time></trkpt>
<trkpt lat="44.2362698" lon="3.5835095"><ele></ele><time>2022-6-3T0:25:50Z</time></trkpt>
<trkpt lat="44.2363828" lon="3.5837359"><ele></ele><time>2022-6-3T0:25:53Z</time></trkpt>
<trkpt lat="44.2365129" lon="3.5839446"><ele></ele><time>2022-6-3T0:25:56Z</time></trkpt>
<trkpt lat="44.2366053" lon="3.5841764"><ele></ele><time>2022-6-3T0:25:59Z</time></trkpt>
<trkpt lat="44.2366491" lon="3.5844375"><ele></ele><time>2022-6-3T0:26:2Z</time></trkpt>
<trkpt lat="44.2367484" lon="3.5846657"><ele></ele><time>2022-6-3T0:26:5Z</time></trkpt>
<trkpt lat="44.2368874" lon="3.5848291"><ele></ele><time>2022-6-3T0:26:8Z</time></trkpt>
<trkpt lat="44.2370228" lon="3.5850033"><ele></ele><time>2022-6-3T0:26:11Z</time></trkpt>
<trkpt lat="44.2371561" lon="3.5851847"><ele></ele><time>2022-6-3T0:26:14Z</time></trkpt>
<trkpt lat="44.2372613" lon="3.5853951"><ele></ele><time>2022-6-3T0:26:17Z</time></trkpt>
<trkpt lat="44.2373658" lon="3.5856246"><ele></ele><time>2022-6-3T0:26:20Z</time></trkpt>
<trkpt lat="44.2373307" lon="3.5858850"><ele></ele><time>2022-6-3T0:26:23Z</time></trkpt>
<trkpt lat="44.2372728" lon="3.5861348"><ele></ele><time>2022-6-3T0:26:26Z</time></trkpt>
<trkpt lat="44.2372508" lon="3.5863998"><ele></ele><time>2022-6-3T0:26:29Z</time></trkpt>
<trkpt lat="44.2372023" lon="3.5866537"><ele></ele><time>2022-6-3T0:26:32Z</time></trkpt>
<trkpt lat="44.2371428" lon="3.5868996"><ele></ele><time>2022-6-3T0:26:35Z</time></trkpt>
<trkpt lat="44.2370470" lon="3.5871329"><ele></ele><time>2022-6-3T0:26:38Z</time></trkpt>
<trkpt lat="44.2369089" lon="3.5873434"><ele></ele><time>2022-6-3T0:26:41Z</time></trkpt>
<trkpt lat="44.2367662" lon="3.5875038"><ele></ele><time>2022-6-3T0:26:44Z</time></trkpt>
<trkpt lat="44.2366345" lon="3.5876924"><ele></ele><time>2022-6-3T0:26:47Z</time></trkpt>
<trkpt lat="44.2364828" lon="3.5878748"><ele></ele><time>2022-6-3T0:26:50Z</time></trkpt>
<trkpt lat="44.2363042" lon="3.5879881"><ele></ele><time>2022-6-3T0:26:53Z</time></trkpt>
<trkpt lat="44.2361439" lon="3.5881374"><ele></ele><time>2022-6-3T0:26:56Z</time></trkpt>
<trkpt lat="44.2359641" lon="3.5882953"><ele></ele><time>2022-6-3T0:26:59Z</time></trkpt>
<trkpt lat="44.2357839" lon="3.5884077"><ele></ele><time>2022-6-3T0:27:2Z</time></trkpt>
<trkpt lat="44.2356550" lon="3.5886180"><ele></ele><time>2022-6-3T0:27:5Z</time></trkpt>
<trkpt lat="44.2355734" lon="3.5888627"><ele></ele><time>2022-6-3T0:27:8Z</time></trkpt>
<trkpt lat="44.2354415" lon="3.5890696"><ele></ele><time>2022-6-3T0:27:11Z</time></trkpt>
<trkpt lat="44.2353261" lon="3.5892747"><ele></ele><time>2022-6-3T0:27:14Z</time></trkpt>
<trkpt lat="44.2351642" lon="3.5894505"><ele></ele><time>2022-6-3T0:27:17Z</time></trkpt>
<trkpt lat="44.2350331" lon="3.5896296"><ele></ele><time>2022-6-3T0:27:20Z</time></trkpt>
<trkpt lat="44.2348993" lon="3.5898217"><ele></ele><time>2022-6-3T0:27:23Z</time></trkpt>
<trkpt lat="44.2348119" lon="3.5900608"><ele></ele><time>2022-6-3T0:27:26Z</time></trkpt>
<trkpt lat="44.2347199" lon="3.5903162"><ele></ele><time>2022-6-3T0:27:29Z</time></trkpt>
<trkpt lat="44.2345975" lon="3.5905399"><ele></ele><time>2022-6-3T0:27:32Z</time></trkpt>
<trkpt lat="44.2344855" lon="3.5907684"><ele></ele><time>2022-6-3T0:27:35Z</time></trkpt>
<trkpt lat="44.2343694" lon="3.5910011"><ele></ele><time>2022-6-3T0:27:38Z</time></trkpt>
<trkpt lat="44.2342301" lon="3.5912000"><ele></ele><time>2022-6-3T0:27:41Z</time></trkpt>
<trkpt lat="44.2340979" lon="3.5914193"><ele></ele><time>2022-6-3T0:27:44Z</time></trkpt>
<trkpt lat="44.2339833" lon="3.5916431"><ele></ele><time>2022-6-3T0:27:47Z</time></trkpt>
<trkpt lat="44.2339060" lon="3.5918830"><ele></ele><time>2022-6-3T0:27:50Z</time></trkpt>
<trkpt lat="44.2337782" lon="3.5921004"><ele></ele><time>2022-6-3T0:27:53Z</time></trkpt>
<trkpt lat="44.2336673" lon="3.5923198"><ele></ele><time>2022-6-3T0:27:56Z</time></trkpt>
<trkpt lat="44.2335256" lon="3.5925263"><ele></ele><time>2022-6-3T0:27:59Z</time></trkpt>
<trkpt lat="44.2334092" lon="3.5927211"><ele></ele><time>2022-6-3T0:28:2Z</time></trkpt>
<trkpt lat="44.2332820" lon="3.5929359"><ele></ele><time>2022-6-3T0:28:5Z</time></trkpt>
<trkpt lat="44.2331757" lon="3.5931739"><ele></ele><time>2022-6-3T0:28:8Z</time></trkpt>
<trkpt lat="44.2330546" lon="3.5933841"><ele></ele><time>2022-6-3T0:28:11Z</time></trkpt>
<trkpt lat="44.2329441" lon="3.5935898"><ele></ele><time>2022-6-3T0:28:14Z</time></trkpt>
<trkpt lat="44.2328476" lon="3.5938087"><ele></ele><time>2022-6-3T0:28:17Z</time></trkpt>
<trkpt lat="44.2327835" lon="3.5940469"><ele></ele><time>2022-6-3T0:28:20Z</time></trkpt>
<trkpt lat="44.2327342" lon="3.5943234"><ele></ele><time>2022-6-3T0:28:23Z</time></trkpt>
<trkpt lat="44.2326533" lon="3.5945640"><ele></ele><time>2022-6-3T0:28:26Z</time></trkpt>
<trkpt lat="44.2325621" lon="3.5948055"><ele></ele><time>2022-6-3T0:28:29Z</time></trkpt>
<trkpt lat="44.2324811" lon="3.5950560"><ele></ele><time>2022-6-3T0:28:32Z</time></trkpt>
<trkpt lat="44.2324140" lon="3.5952962"><ele></ele><time>2022-6-3T0:28:35Z</time></trkpt>
<trkpt lat="44.2323615" lon="3.5955495"><ele></ele><time>2022-6-3T0:28:38Z</time></trkpt>
<trkpt lat="44.2322870" lon="3.5958058"><ele></ele><time>2022-6-3T0:28:41Z</time></trkpt>
<trkpt lat="44.2321929" lon="3.5960680"><ele></ele><time>2022-6-3T0:28:44Z</time></trkpt>
<trkpt lat="44.2320866" lon="3.5962940"><ele></ele><time>2022-6-3T0:28:47Z</time></trkpt>
<trkpt lat="44.2319804" lon="3.5965088"><ele></ele><time>2022-6-3T0:28:50Z</time></trkpt>
<trkpt lat="44.2318985" lon="3.5967381"><ele></ele><time>2022-6-3T0:28:53Z</time></trkpt>
<trkpt lat="44.2318103" lon="3.5970283"><ele></ele><time>2022-6-3T0:28:56Z</time></trkpt>
<trkpt lat="44.2317123" lon="3.5972562"><ele></ele><time>2022-6-3T0:28:59Z</time></trkpt>
<trkpt lat="44.2316264" lon="3.5975062"><ele></ele><time>2022-6-3T0:29:2Z</time></trkpt>
<trkpt lat="44.2315627" lon="3.5977602"><ele></ele><time>2022-6-3T0:29:5Z</time></trkpt>
<trkpt lat="44.2314877" lon="3.5979951"><ele></ele><time>2022-6-3T0:29:8Z</time></trkpt>
<trkpt lat="44.2313706" lon="3.5982354"><ele></ele><time>2022-6-3T0:29:11Z</time></trkpt>
<trkpt lat="44.2312753" lon="3.5984545"><ele></ele><time>2022-6-3T0:29:14Z</time></trkpt>
<trkpt lat="44.2312077" lon="3.5987186"><ele></ele><time>2022-6-3T0:29:17Z</time></trkpt>
<trkpt lat="44.2312052" lon="3.5989748"><ele></ele><time>2022-6-3T0:29:20Z</time></trkpt>
<trkpt lat="44.2311794" lon="3.5992397"><ele></ele><time>2022-6-3T0:29:23Z</time></trkpt>
<trkpt lat="44.2311688" lon="3.5994939"><ele></ele><time>2022-6-3T0:29:26Z</time></trkpt>
<trkpt lat="44.2311506" lon="3.5997705"><ele></ele><time>2022-6-3T0:29:29Z</time></trkpt>
<trkpt lat="44.2311137" lon="3.6000508"><ele></ele><time>2022-6-3T0:29:32Z</time></trkpt>
<trkpt lat="44.2310752" lon="3.6003081"><ele></ele><time>2022-6-3T0:29:35Z</time></trkpt>
<trkpt lat="44.2310315" lon="3.6005648"><ele></ele><time>2022-6-3T0:29:38Z</time></trkpt>
<trkpt lat="44.2310282" lon="3.6008208"><ele></ele><time>2022-6-3T0:29:41Z</time></trkpt>
<trkpt lat="44.2310227" lon="3.6010919"><ele></ele><time>2022-6-3T0:29:44Z</time></trkpt>
<trkpt lat="44.2309518" lon="3.6013545"><ele></ele><time>2022-6-3T0:29:47Z</time></trkpt>
<trkpt lat="44.2308672" lon="3.6015920"><ele></ele><time>2022-6-3T0:29:50Z</time></trkpt>
<trkpt lat="44.2308490" lon="3.6018810"><ele></ele><time>2022-6-3T0:29:53Z</time></trkpt>
<trkpt lat="44.2308828" lon="3.6021395"><ele></ele><time>2022-6-3T0:29:56Z</time></trkpt>
<trkpt lat="44.2309075" lon="3.6024115"><ele></ele><time>2022-6-3T0:29:59Z</time></trkpt>
<trkpt lat="44.2308978" lon="3.6026879"><ele></ele><time>2022-6-3T0:30:2Z</time></trkpt>
<trkpt lat="44.2308732" lon="3.6029784"><ele></ele><time>2022-6-3T0:30:5Z</time></trkpt>
<trkpt lat="44.2308328" lon="3.6032309"><ele></ele><time>2022-6-3T0:30:8Z</time></trkpt>
<trkpt lat="44.2308308" lon="3.6034905"><ele></ele><time>2022-6-3T0:30:11Z</time></trkpt>
<trkpt lat="44.2308534" lon="3.6037425"><ele></ele><time>2022-6-3T0:30:14Z</time></trkpt>
<trkpt lat="44.2309412" lon="3.6039725"><ele></ele><time>2022-6-3T0:30:17Z</time></trkpt>
<trkpt lat="44.2310256" lon="3.6042102"><ele></ele><time>2022-6-3T0:30:20Z</time></trkpt>
<trkpt lat="44.2311066" lon="3.6044494"><ele></ele><time>2022-6-3T0:30:23Z</time></trkpt>
<trkpt lat="44.2311415" lon="3.6047123"><ele></ele><time>2022-6-3T0:30:26Z</time></trkpt>
<trkpt lat="44.2311928" lon="3.6049555"><ele></ele><time>2022-6-3T0:30:29Z</time></trkpt>
<trkpt lat="44.2312277" lon="3.6052129"><ele></ele><time>2022-6-3T0:30:32Z</time></trkpt>
<trkpt lat="44.2313586" lon="3.6053871"><ele></ele><time>2022-6-3T0:30:35Z</time></trkpt>
<trkpt lat="44.2314623" lon="3.6056236"><ele></ele><time>2022-6-3T0:30:38Z</time></trkpt>
<trkpt lat="44.2315085" lon="3.6058769"><ele></ele><time>2022-6-3T0:30:41Z</time></trkpt>
<trkpt lat="44.2316542" lon="3.6060813"><ele></ele><time>2022-6-3T0:30:44Z</time></trkpt>
<trkpt lat="44.2317148" lon="3.6063239"><ele></ele><time>2022-6-3T0:30:47Z</time></trkpt>
<trkpt lat="44.2317611" lon="3.6065955"><ele></ele><time>2022-6-3T0:30:50Z</time></trkpt>
<trkpt lat="44.2317901" lon="3.6068849"><ele></ele><time>2022-6-3T0:30:53Z</time></trkpt>
<trkpt lat="44.2317142" lon="3.6071273"><ele></ele><time>2022-6-3T0:30:56Z</time></trkpt>
<trkpt lat="44.2317397" lon="3.6074099"><ele></ele><time>2022-6-3T0:30:59Z</time></trkpt>
<trkpt lat="44.2319021" lon="3.6075496"><ele></ele><time>2022-6-3T0:31:2Z</time></trkpt>
<trkpt lat="44.2320169" lon="3.6077575"><ele></ele><time>2022-6-3T0:31:5Z</time></trkpt>
<trkpt lat="44.2320552" lon="3.6080357"><ele></ele><time>2022-6-3T0:31:8Z</time></trkpt>
<trkpt lat="44.2320769" lon="3.6082989"><ele></ele><time>2022-6-3T0:31:11Z</time></trkpt>
<trkpt lat="44.2321582" lon="3.6085279"><ele></ele><time>2022-6-3T0:31:14Z</time></trkpt>
<trkpt lat="44.2322797" lon="3.6087407"><ele></ele><time>2022-6-3T0:31:17Z</time></trkpt>
<trkpt lat="44.2324464" lon="3.6086181"><ele></ele><time>2022-6-3T0:31:20Z</time></trkpt>
<trkpt lat="44.2327011" lon="3.6083238"><ele></ele><time>2022-6-3T0:31:23Z</time></trkpt>
<trkpt lat="44.2328693" lon="3.6081455"><ele></ele><time>2022-6-3T0:31:26Z</time></trkpt>
<trkpt lat="44.2330352" lon="3.6079141"><ele></ele><time>2022-6-3T0:31:29Z</time></trkpt>
<trkpt lat="44.2331717" lon="3.6077485"><ele></ele><time>2022-6-3T0:31:32Z</time></trkpt>
<trkpt lat="44.2333120" lon="3.6075539"><ele></ele><time>2022-6-3T0:31:35Z</time></trkpt>
<trkpt lat="44.2334870" lon="3.6073992"><ele></ele><time>2022-6-3T0:31:38Z</time></trkpt>
<trkpt lat="44.2336267" lon="3.6072194"><ele></ele><time>2022-6-3T0:31:41Z</time></trkpt>
<trkpt lat="44.2338198" lon="3.6071314"><ele></ele><time>2022-6-3T0:31:44Z</time></trkpt>
<trkpt lat="44.2339793" lon="3.6068892"><ele></ele><time>2022-6-3T0:31:47Z</time></trkpt>
<trkpt lat="44.2340824" lon="3.6066533"><ele></ele><time>2022-6-3T0:31:50Z</time></trkpt>
<trkpt lat="44.2340909" lon="3.6063999"><ele></ele><time>2022-6-3T0:31:53Z</time></trkpt>
<trkpt lat="44.2341243" lon="3.6061528"><ele></ele><time>2022-6-3T0:31:56Z</time></trkpt>
<trkpt lat="44.2340679" lon="3.6059002"><ele></ele><time>2022-6-3T0:31:59Z</time></trkpt>
<trkpt lat="44.2341259" lon="3.6056385"><ele></ele><time>2022-6-3T0:32:2Z</time></trkpt>
<trkpt lat="44.2342742" lon="3.6054662"><ele></ele><time>2022-6-3T0:32:5Z</time></trkpt>
<trkpt lat="44.2344028" lon="3.6052593"><ele></ele><time>2022-6-3T0:32:8Z</time></trkpt>
<trkpt lat="44.2345016" lon="3.6050426"><ele></ele><time>2022-6-3T0:32:11Z</time></trkpt>
<trkpt lat="44.2345616" lon="3.6047647"><ele></ele><time>2022-6-3T0:32:14Z</time></trkpt>
<trkpt lat="44.2346196" lon="3.6044703"><ele></ele><time>2022-6-3T0:32:17Z</time></trkpt>
<trkpt lat="44.2346919" lon="3.6042208"><ele></ele><time>2022-6-3T0:32:20Z</time></trkpt>
<trkpt lat="44.2346175" lon="3.6044495"><ele></ele><time>2022-6-3T0:32:23Z</time></trkpt>
<trkpt lat="44.2345731" lon="3.6046970"><ele></ele><time>2022-6-3T0:32:26Z</time></trkpt>
<trkpt lat="44.2345269" lon="3.6049513"><ele></ele><time>2022-6-3T0:32:29Z</time></trkpt>
<trkpt lat="44.2344166" lon="3.6051763"><ele></ele><time>2022-6-3T0:32:32Z</time></trkpt>
<trkpt lat="44.2342747" lon="3.6053669"><ele></ele><time>2022-6-3T0:32:35Z</time></trkpt>
<trkpt lat="44.2341543" lon="3.6055694"><ele></ele><time>2022-6-3T0:32:38Z</time></trkpt>
<trkpt lat="44.2341229" lon="3.6058219"><ele></ele><time>2022-6-3T0:32:41Z</time></trkpt>
<trkpt lat="44.2341155" lon="3.6060891"><ele></ele><time>2022-6-3T0:32:44Z</time></trkpt>
<trkpt lat="44.2341358" lon="3.6063479"><ele></ele><time>2022-6-3T0:32:47Z</time></trkpt>
<trkpt lat="44.2340809" lon="3.6066134"><ele></ele><time>2022-6-3T0:32:50Z</time></trkpt>
<trkpt lat="44.2340130" lon="3.6068607"><ele></ele><time>2022-6-3T0:32:53Z</time></trkpt>
<trkpt lat="44.2338942" lon="3.6070582"><ele></ele><time>2022-6-3T0:32:56Z</time></trkpt>
<trkpt lat="44.2337359" lon="3.6071784"><ele></ele><time>2022-6-3T0:32:59Z</time></trkpt>
<trkpt lat="44.2335829" lon="3.6073202"><ele></ele><time>2022-6-3T0:33:2Z</time></trkpt>
<trkpt lat="44.2334255" lon="3.6075050"><ele></ele><time>2022-6-3T0:33:5Z</time></trkpt>
<trkpt lat="44.2332811" lon="3.6076569"><ele></ele><time>2022-6-3T0:33:8Z</time></trkpt>
<trkpt lat="44.2331454" lon="3.6078428"><ele></ele><time>2022-6-3T0:33:11Z</time></trkpt>
<trkpt lat="44.2329874" lon="3.6079796"><ele></ele><time>2022-6-3T0:33:14Z</time></trkpt>
<trkpt lat="44.2328205" lon="3.6081409"><ele></ele><time>2022-6-3T0:33:17Z</time></trkpt>
<trkpt lat="44.2326644" lon="3.6083307"><ele></ele><time>2022-6-3T0:33:20Z</time></trkpt>
<trkpt lat="44.2325236" lon="3.6085375"><ele></ele><time>2022-6-3T0:33:23Z</time></trkpt>
<trkpt lat="44.2323946" lon="3.6087454"><ele></ele><time>2022-6-3T0:33:26Z</time></trkpt>
<trkpt lat="44.2325876" lon="3.6088000"><ele></ele><time>2022-6-3T0:33:29Z</time></trkpt>
<trkpt lat="44.2327611" lon="3.6087302"><ele></ele><time>2022-6-3T0:33:32Z</time></trkpt>
<trkpt lat="44.2329505" lon="3.6086905"><ele></ele><time>2022-6-3T0:33:35Z</time></trkpt>
<trkpt lat="44.2331296" lon="3.6086630"><ele></ele><time>2022-6-3T0:33:38Z</time></trkpt>
<trkpt lat="44.2333124" lon="3.6085963"><ele></ele><time>2022-6-3T0:33:41Z</time></trkpt>
<trkpt lat="44.2334731" lon="3.6084493"><ele></ele><time>2022-6-3T0:33:44Z</time></trkpt>
<trkpt lat="44.2336616" lon="3.6083593"><ele></ele><time>2022-6-3T0:33:47Z</time></trkpt>
<trkpt lat="44.2338371" lon="3.6082744"><ele></ele><time>2022-6-3T0:33:50Z</time></trkpt>
<trkpt lat="44.2340064" lon="3.6081758"><ele></ele><time>2022-6-3T0:33:53Z</time></trkpt>
<trkpt lat="44.2341833" lon="3.6081212"><ele></ele><time>2022-6-3T0:33:56Z</time></trkpt>
<trkpt lat="44.2343733" lon="3.6080063"><ele></ele><time>2022-6-3T0:33:59Z</time></trkpt>
<trkpt lat="44.2345407" lon="3.6079038"><ele></ele><time>2022-6-3T0:34:2Z</time></trkpt>
<trkpt lat="44.2346961" lon="3.6077542"><ele></ele><time>2022-6-3T0:34:5Z</time></trkpt>
<trkpt lat="44.2348387" lon="3.6075834"><ele></ele><time>2022-6-3T0:34:8Z</time></trkpt>
<trkpt lat="44.2349305" lon="3.6073503"><ele></ele><time>2022-6-3T0:34:11Z</time></trkpt>
<trkpt lat="44.2349703" lon="3.6070876"><ele></ele><time>2022-6-3T0:34:14Z</time></trkpt>
<trkpt lat="44.2349640" lon="3.6068327"><ele></ele><time>2022-6-3T0:34:17Z</time></trkpt>
<trkpt lat="44.2350204" lon="3.6070744"><ele></ele><time>2022-6-3T0:34:20Z</time></trkpt>
<trkpt lat="44.2350166" lon="3.6073374"><ele></ele><time>2022-6-3T0:34:23Z</time></trkpt>
<trkpt lat="44.2349317" lon="3.6075797"><ele></ele><time>2022-6-3T0:34:26Z</time></trkpt>
<trkpt lat="44.2348665" lon="3.6078145"><ele></ele><time>2022-6-3T0:34:29Z</time></trkpt>
<trkpt lat="44.2348041" lon="3.6080672"><ele></ele><time>2022-6-3T0:34:32Z</time></trkpt>
<trkpt lat="44.2346785" lon="3.6082692"><ele></ele><time>2022-6-3T0:34:35Z</time></trkpt>
<trkpt lat="44.2345887" lon="3.6085087"><ele></ele><time>2022-6-3T0:34:38Z</time></trkpt>
<trkpt lat="44.2344801" lon="3.6087302"><ele></ele><time>2022-6-3T0:34:41Z</time></trkpt>
<trkpt lat="44.2344216" lon="3.6089837"><ele></ele><time>2022-6-3T0:34:44Z</time></trkpt>
<trkpt lat="44.2343012" lon="3.6091836"><ele></ele><time>2022-6-3T0:34:47Z</time></trkpt>
<trkpt lat="44.2341509" lon="3.6093286"><ele></ele><time>2022-6-3T0:34:50Z</time></trkpt>
<trkpt lat="44.2340022" lon="3.6094808"><ele></ele><time>2022-6-3T0:34:53Z</time></trkpt>
<trkpt lat="44.2338947" lon="3.6097068"><ele></ele><time>2022-6-3T0:34:56Z</time></trkpt>
<trkpt lat="44.2338349" lon="3.6099716"><ele></ele><time>2022-6-3T0:34:59Z</time></trkpt>
<trkpt lat="44.2337347" lon="3.6101995"><ele></ele><time>2022-6-3T0:35:2Z</time></trkpt>
<trkpt lat="44.2335820" lon="3.6104061"><ele></ele><time>2022-6-3T0:35:5Z</time></trkpt>
<trkpt lat="44.2334773" lon="3.6106407"><ele></ele><time>2022-6-3T0:35:8Z</time></trkpt>
<trkpt lat="44.2332994" lon="3.6107542"><ele></ele><time>2022-6-3T0:35:11Z</time></trkpt>
<trkpt lat="44.2331269" lon="3.6108303"><ele></ele><time>2022-6-3T0:35:14Z</time></trkpt>
<trkpt lat="44.2329635" lon="3.6109360"><ele></ele><time>2022-6-3T0:35:17Z</time></trkpt>
<trkpt lat="44.2328434" lon="3.6111292"><ele></ele><time>2022-6-3T0:35:20Z</time></trkpt>
<trkpt lat="44.2327587" lon="3.6113542"><ele></ele><time>2022-6-3T0:35:23Z</time></trkpt>
<trkpt lat="44.2326076" lon="3.6114983"><ele></ele><time>2022-6-3T0:35:26Z</time></trkpt>
<trkpt lat="44.2324462" lon="3.6116178"><ele></ele><time>2022-6-3T0:35:29Z</time></trkpt>
<trkpt lat="44.2322901" lon="3.6117656"><ele></ele><time>2022-6-3T0:35:32Z</time></trkpt>
<trkpt lat="44.2321026" lon="3.6118510"><ele></ele><time>2022-6-3T0:35:35Z</time></trkpt>
<trkpt lat="44.2319319" lon="3.6119407"><ele></ele><time>2022-6-3T0:35:38Z</time></trkpt>
<trkpt lat="44.2317442" lon="3.6119922"><ele></ele><time>2022-6-3T0:35:41Z</time></trkpt>
<trkpt lat="44.2315629" lon="3.6119770"><ele></ele><time>2022-6-3T0:35:44Z</time></trkpt>
<trkpt lat="44.2313859" lon="3.6119176"><ele></ele><time>2022-6-3T0:35:47Z</time></trkpt>
<trkpt lat="44.2312053" lon="3.6119600"><ele></ele><time>2022-6-3T0:35:50Z</time></trkpt>
<trkpt lat="44.2310187" lon="3.6120440"><ele></ele><time>2022-6-3T0:35:53Z</time></trkpt>
<trkpt lat="44.2308343" lon="3.6121365"><ele></ele><time>2022-6-3T0:35:56Z</time></trkpt>
<trkpt lat="44.2306882" lon="3.6122968"><ele></ele><time>2022-6-3T0:35:59Z</time></trkpt>
<trkpt lat="44.2306434" lon="3.6125506"><ele></ele><time>2022-6-3T0:36:2Z</time></trkpt>
<trkpt lat="44.2308304" lon="3.6125362"><ele></ele><time>2022-6-3T0:36:5Z</time></trkpt>
<trkpt lat="44.2308324" lon="3.6127988"><ele></ele><time>2022-6-3T0:36:8Z</time></trkpt>
<trkpt lat="44.2306997" lon="3.6129957"><ele></ele><time>2022-6-3T0:36:11Z</time></trkpt>
<trkpt lat="44.2305586" lon="3.6131800"><ele></ele><time>2022-6-3T0:36:14Z</time></trkpt>
<trkpt lat="44.2304357" lon="3.6133847"><ele></ele><time>2022-6-3T0:36:17Z</time></trkpt>
<trkpt lat="44.2303149" lon="3.6135747"><ele></ele><time>2022-6-3T0:36:20Z</time></trkpt>
<trkpt lat="44.2301814" lon="3.6137967"><ele></ele><time>2022-6-3T0:36:23Z</time></trkpt>
<trkpt lat="44.2300757" lon="3.6140002"><ele></ele><time>2022-6-3T0:36:26Z</time></trkpt>
<trkpt lat="44.2299699" lon="3.6142215"><ele></ele><time>2022-6-3T0:36:29Z</time></trkpt>
<trkpt lat="44.2298492" lon="3.6144727"><ele></ele><time>2022-6-3T0:36:32Z</time></trkpt>
<trkpt lat="44.2297571" lon="3.6147338"><ele></ele><time>2022-6-3T0:36:35Z</time></trkpt>
<trkpt lat="44.2296687" lon="3.6149624"><ele></ele><time>2022-6-3T0:36:38Z</time></trkpt>
<trkpt lat="44.2295397" lon="3.6151423"><ele></ele><time>2022-6-3T0:36:41Z</time></trkpt>
<trkpt lat="44.2293940" lon="3.6153334"><ele></ele><time>2022-6-3T0:36:44Z</time></trkpt>
<trkpt lat="44.2292564" lon="3.6154988"><ele></ele><time>2022-6-3T0:36:47Z</time></trkpt>
<trkpt lat="44.2291056" lon="3.6157075"><ele></ele><time>2022-6-3T0:36:50Z</time></trkpt>
<trkpt lat="44.2289652" lon="3.6158998"><ele></ele><time>2022-6-3T0:36:53Z</time></trkpt>
<trkpt lat="44.2288290" lon="3.6160722"><ele></ele><time>2022-6-3T0:36:56Z</time></trkpt>
<trkpt lat="44.2286955" lon="3.6162544"><ele></ele><time>2022-6-3T0:36:59Z</time></trkpt>
<trkpt lat="44.2285720" lon="3.6164448"><ele></ele><time>2022-6-3T0:37:2Z</time></trkpt>
<trkpt lat="44.2284535" lon="3.6166583"><ele></ele><time>2022-6-3T0:37:5Z</time></trkpt>
<trkpt lat="44.2283578" lon="3.6169467"><ele></ele><time>2022-6-3T0:37:8Z</time></trkpt>
<trkpt lat="44.2284015" lon="3.6171910"><ele></ele><time>2022-6-3T0:37:11Z</time></trkpt>
<trkpt lat="44.2284228" lon="3.6174448"><ele></ele><time>2022-6-3T0:37:14Z</time></trkpt>
<trkpt lat="44.2283645" lon="3.6177120"><ele></ele><time>2022-6-3T0:37:17Z</time></trkpt>
<trkpt lat="44.2282899" lon="3.6179415"><ele></ele><time>2022-6-3T0:37:20Z</time></trkpt>
<trkpt lat="44.2281689" lon="3.6181754"><ele></ele><time>2022-6-3T0:37:23Z</time></trkpt>
<trkpt lat="44.2280212" lon="3.6183289"><ele></ele><time>2022-6-3T0:37:26Z</time></trkpt>
<trkpt lat="44.2278419" lon="3.6184568"><ele></ele><time>2022-6-3T0:37:29Z</time></trkpt>
<trkpt lat="44.2280040" lon="3.6185846"><ele></ele><time>2022-6-3T0:37:32Z</time></trkpt>
<trkpt lat="44.2282021" lon="3.6185864"><ele></ele><time>2022-6-3T0:37:35Z</time></trkpt>
<trkpt lat="44.2283986" lon="3.6186342"><ele></ele><time>2022-6-3T0:37:38Z</time></trkpt>
<trkpt lat="44.2285787" lon="3.6186837"><ele></ele><time>2022-6-3T0:37:41Z</time></trkpt>
<trkpt lat="44.2287819" lon="3.6187207"><ele></ele><time>2022-6-3T0:37:44Z</time></trkpt>
<trkpt lat="44.2289952" lon="3.6187827"><ele></ele><time>2022-6-3T0:37:47Z</time></trkpt>
<trkpt lat="44.2291825" lon="3.6187992"><ele></ele><time>2022-6-3T0:37:50Z</time></trkpt>
<trkpt lat="44.2293649" lon="3.6188355"><ele></ele><time>2022-6-3T0:37:53Z</time></trkpt>
<trkpt lat="44.2295497" lon="3.6188608"><ele></ele><time>2022-6-3T0:37:56Z</time></trkpt>
<trkpt lat="44.2297576" lon="3.6188868"><ele></ele><time>2022-6-3T0:37:59Z</time></trkpt>
<trkpt lat="44.2299558" lon="3.6189093"><ele></ele><time>2022-6-3T0:38:2Z</time></trkpt>
<trkpt lat="44.2302052" lon="3.6189409"><ele></ele><time>2022-6-3T0:38:5Z</time></trkpt>
<trkpt lat="44.2304769" lon="3.6189510"><ele></ele><time>2022-6-3T0:38:8Z</time></trkpt>
<trkpt lat="44.2306643" lon="3.6189637"><ele></ele><time>2022-6-3T0:38:11Z</time></trkpt>
<trkpt lat="44.2308499" lon="3.6189641"><ele></ele><time>2022-6-3T0:38:14Z</time></trkpt>
<trkpt lat="44.2310416" lon="3.6189732"><ele></ele><time>2022-6-3T0:38:17Z</time></trkpt>
<trkpt lat="44.2312391" lon="3.6189811"><ele></ele><time>2022-6-3T0:38:20Z</time></trkpt>
<trkpt lat="44.2314991" lon="3.6189777"><ele></ele><time>2022-6-3T0:38:23Z</time></trkpt>
<trkpt lat="44.2317627" lon="3.6189246"><ele></ele><time>2022-6-3T0:38:26Z</time></trkpt>
<trkpt lat="44.2320126" lon="3.6188274"><ele></ele><time>2022-6-3T0:38:29Z</time></trkpt>
<trkpt lat="44.2322459" lon="3.6187164"><ele></ele><time>2022-6-3T0:38:32Z</time></trkpt>
<trkpt lat="44.2324850" lon="3.6186116"><ele></ele><time>2022-6-3T0:38:35Z</time></trkpt>
<trkpt lat="44.2327202" lon="3.6185080"><ele></ele><time>2022-6-3T0:38:38Z</time></trkpt>
<trkpt lat="44.2329416" lon="3.6184152"><ele></ele><time>2022-6-3T0:38:41Z</time></trkpt>
<trkpt lat="44.2331600" lon="3.6183221"><ele></ele><time>2022-6-3T0:38:44Z</time></trkpt>
<trkpt lat="44.2333661" lon="3.6182334"><ele></ele><time>2022-6-3T0:38:47Z</time></trkpt>
<trkpt lat="44.2335561" lon="3.6181613"><ele></ele><time>2022-6-3T0:38:50Z</time></trkpt>
<trkpt lat="44.2337787" lon="3.6180667"><ele></ele><time>2022-6-3T0:38:53Z</time></trkpt>
<trkpt lat="44.2339624" lon="3.6179901"><ele></ele><time>2022-6-3T0:38:56Z</time></trkpt>
<trkpt lat="44.2341559" lon="3.6179019"><ele></ele><time>2022-6-3T0:38:59Z</time></trkpt>
<trkpt lat="44.2343495" lon="3.6178121"><ele></ele><time>2022-6-3T0:39:2Z</time></trkpt>
<trkpt lat="44.2345243" lon="3.6177282"><ele></ele><time>2022-6-3T0:39:5Z</time></trkpt>
<trkpt lat="44.2347182" lon="3.6176464"><ele></ele><time>2022-6-3T0:39:8Z</time></trkpt>
<trkpt lat="44.2349366" lon="3.6175583"><ele></ele><time>2022-6-3T0:39:11Z</time></trkpt>
<trkpt lat="44.2351306" lon="3.6174871"><ele></ele><time>2022-6-3T0:39:14Z</time></trkpt>
<trkpt lat="44.2353464" lon="3.6174115"><ele></ele><time>2022-6-3T0:39:17Z</time></trkpt>
<trkpt lat="44.2355805" lon="3.6173408"><ele></ele><time>2022-6-3T0:39:20Z</time></trkpt>
<trkpt lat="44.2358171" lon="3.6172700"><ele></ele><time>2022-6-3T0:39:23Z</time></trkpt>
<trkpt lat="44.2360040" lon="3.6172120"><ele></ele><time>2022-6-3T0:39:26Z</time></trkpt>
<trkpt lat="44.2362044" lon="3.6171481"><ele></ele><time>2022-6-3T0:39:29Z</time></trkpt>
<trkpt lat="44.2364043" lon="3.6170960"><ele></ele><time>2022-6-3T0:39:32Z</time></trkpt>
<trkpt lat="44.2366107" lon="3.6170602"><ele></ele><time>2022-6-3T0:39:35Z</time></trkpt>
<trkpt lat="44.2368153" lon="3.6170754"><ele></ele><time>2022-6-3T0:39:38Z</time></trkpt>
<trkpt lat="44.2370282" lon="3.6170995"><ele></ele><time>2022-6-3T0:39:41Z</time></trkpt>
<trkpt lat="44.2372456" lon="3.6171271"><ele></ele><time>2022-6-3T0:39:44Z</time></trkpt>
<trkpt lat="44.2374597" lon="3.6171505"><ele></ele><time>2022-6-3T0:39:47Z</time></trkpt>
<trkpt lat="44.2376593" lon="3.6171622"><ele></ele><time>2022-6-3T0:39:50Z</time></trkpt>
<trkpt lat="44.2378543" lon="3.6171809"><ele></ele><time>2022-6-3T0:39:53Z</time></trkpt>
<trkpt lat="44.2380488" lon="3.6171909"><ele></ele><time>2022-6-3T0:39:56Z</time></trkpt>
<trkpt lat="44.2382452" lon="3.6171769"><ele></ele><time>2022-6-3T0:39:59Z</time></trkpt>
<trkpt lat="44.2384302" lon="3.6171221"><ele></ele><time>2022-6-3T0:40:2Z</time></trkpt>
<trkpt lat="44.2386170" lon="3.6170717"><ele></ele><time>2022-6-3T0:40:5Z</time></trkpt>
<trkpt lat="44.2388067" lon="3.6170328"><ele></ele><time>2022-6-3T0:40:8Z</time></trkpt>
<trkpt lat="44.2389856" lon="3.6170022"><ele></ele><time>2022-6-3T0:40:11Z</time></trkpt>
<trkpt lat="44.2392041" lon="3.6169442"><ele></ele><time>2022-6-3T0:40:14Z</time></trkpt>
<trkpt lat="44.2394194" lon="3.6169035"><ele></ele><time>2022-6-3T0:40:17Z</time></trkpt>
<trkpt lat="44.2396478" lon="3.6168570"><ele></ele><time>2022-6-3T0:40:20Z</time></trkpt>
<trkpt lat="44.2398565" lon="3.6168108"><ele></ele><time>2022-6-3T0:40:23Z</time></trkpt>
<trkpt lat="44.2400588" lon="3.6167756"><ele></ele><time>2022-6-3T0:40:26Z</time></trkpt>
<trkpt lat="44.2402492" lon="3.6167479"><ele></ele><time>2022-6-3T0:40:29Z</time></trkpt>
<trkpt lat="44.2404385" lon="3.6167381"><ele></ele><time>2022-6-3T0:40:32Z</time></trkpt>
<trkpt lat="44.2406362" lon="3.6167520"><ele></ele><time>2022-6-3T0:40:35Z</time></trkpt>
<trkpt lat="44.2408330" lon="3.6167871"><ele></ele><time>2022-6-3T0:40:38Z</time></trkpt>
<trkpt lat="44.2410476" lon="3.6168268"><ele></ele><time>2022-6-3T0:40:41Z</time></trkpt>
<trkpt lat="44.2412454" lon="3.6169415"><ele></ele><time>2022-6-3T0:40:44Z</time></trkpt>
<trkpt lat="44.2414327" lon="3.6170784"><ele></ele><time>2022-6-3T0:40:47Z</time></trkpt>
<trkpt lat="44.2416002" lon="3.6172676"><ele></ele><time>2022-6-3T0:40:50Z</time></trkpt>
<trkpt lat="44.2417477" lon="3.6174840"><ele></ele><time>2022-6-3T0:40:53Z</time></trkpt>
<trkpt lat="44.2418870" lon="3.6176909"><ele></ele><time>2022-6-3T0:40:56Z</time></trkpt>
<trkpt lat="44.2420096" lon="3.6178965"><ele></ele><time>2022-6-3T0:40:59Z</time></trkpt>
<trkpt lat="44.2421399" lon="3.6181093"><ele></ele><time>2022-6-3T0:41:2Z</time></trkpt>
<trkpt lat="44.2422741" lon="3.6183297"><ele></ele><time>2022-6-3T0:41:5Z</time></trkpt>
<trkpt lat="44.2424001" lon="3.6185250"><ele></ele><time>2022-6-3T0:41:8Z</time></trkpt>
<trkpt lat="44.2425179" lon="3.6187378"><ele></ele><time>2022-6-3T0:41:11Z</time></trkpt>
<trkpt lat="44.2426256" lon="3.6189418"><ele></ele><time>2022-6-3T0:41:14Z</time></trkpt>
<trkpt lat="44.2427683" lon="3.6191762"><ele></ele><time>2022-6-3T0:41:17Z</time></trkpt>
<trkpt lat="44.2428904" lon="3.6194151"><ele></ele><time>2022-6-3T0:41:20Z</time></trkpt>
<trkpt lat="44.2429872" lon="3.6196512"><ele></ele><time>2022-6-3T0:41:23Z</time></trkpt>
<trkpt lat="44.2431246" lon="3.6198624"><ele></ele><time>2022-6-3T0:41:26Z</time></trkpt>
<trkpt lat="44.2430990" lon="3.6201312"><ele></ele><time>2022-6-3T0:41:29Z</time></trkpt>
<trkpt lat="44.2431527" lon="3.6203840"><ele></ele><time>2022-6-3T0:41:32Z</time></trkpt>
<trkpt lat="44.2432076" lon="3.6206494"><ele></ele><time>2022-6-3T0:41:35Z</time></trkpt>
<trkpt lat="44.2433065" lon="3.6208776"><ele></ele><time>2022-6-3T0:41:38Z</time></trkpt>
<trkpt lat="44.2434989" lon="3.6209818"><ele></ele><time>2022-6-3T0:41:41Z</time></trkpt>
<trkpt lat="44.2436899" lon="3.6210874"><ele></ele><time>2022-6-3T0:41:44Z</time></trkpt>
<trkpt lat="44.2438536" lon="3.6212569"><ele></ele><time>2022-6-3T0:41:47Z</time></trkpt>
<trkpt lat="44.2440188" lon="3.6213793"><ele></ele><time>2022-6-3T0:41:50Z</time></trkpt>
<trkpt lat="44.2441814" lon="3.6214904"><ele></ele><time>2022-6-3T0:41:53Z</time></trkpt>
<trkpt lat="44.2443642" lon="3.6216294"><ele></ele><time>2022-6-3T0:41:56Z</time></trkpt>
<trkpt lat="44.2445463" lon="3.6217357"><ele></ele><time>2022-6-3T0:41:59Z</time></trkpt>
<trkpt lat="44.2447547" lon="3.6218528"><ele></ele><time>2022-6-3T0:42:2Z</time></trkpt>
<trkpt lat="44.2449649" lon="3.6220052"><ele></ele><time>2022-6-3T0:42:5Z</time></trkpt>
<trkpt lat="44.2451187" lon="3.6221409"><ele></ele><time>2022-6-3T0:42:8Z</time></trkpt>
<trkpt lat="44.2452637" lon="3.6222979"><ele></ele><time>2022-6-3T0:42:11Z</time></trkpt>
<trkpt lat="44.2453936" lon="3.6224726"><ele></ele><time>2022-6-3T0:42:14Z</time></trkpt>
<trkpt lat="44.2455509" lon="3.6226836"><ele></ele><time>2022-6-3T0:42:17Z</time></trkpt>
<trkpt lat="44.2456724" lon="3.6228814"><ele></ele><time>2022-6-3T0:42:20Z</time></trkpt>
<trkpt lat="44.2457503" lon="3.6231109"><ele></ele><time>2022-6-3T0:42:23Z</time></trkpt>
<trkpt lat="44.2458818" lon="3.6232879"><ele></ele><time>2022-6-3T0:42:26Z</time></trkpt>
<trkpt lat="44.2460056" lon="3.6234751"><ele></ele><time>2022-6-3T0:42:29Z</time></trkpt>
<trkpt lat="44.2461153" lon="3.6236773"><ele></ele><time>2022-6-3T0:42:32Z</time></trkpt>
<trkpt lat="44.2462636" lon="3.6238742"><ele></ele><time>2022-6-3T0:42:35Z</time></trkpt>
<trkpt lat="44.2463934" lon="3.6240792"><ele></ele><time>2022-6-3T0:42:38Z</time></trkpt>
<trkpt lat="44.2465077" lon="3.6242764"><ele></ele><time>2022-6-3T0:42:41Z</time></trkpt>
<trkpt lat="44.2466433" lon="3.6244818"><ele></ele><time>2022-6-3T0:42:44Z</time></trkpt>
<trkpt lat="44.2467792" lon="3.6246734"><ele></ele><time>2022-6-3T0:42:47Z</time></trkpt>
<trkpt lat="44.2469298" lon="3.6248486"><ele></ele><time>2022-6-3T0:42:50Z</time></trkpt>
<trkpt lat="44.2470220" lon="3.6250707"><ele></ele><time>2022-6-3T0:42:53Z</time></trkpt>
<trkpt lat="44.2470656" lon="3.6253516"><ele></ele><time>2022-6-3T0:42:56Z</time></trkpt>
<trkpt lat="44.2470773" lon="3.6256223"><ele></ele><time>2022-6-3T0:42:59Z</time></trkpt>
<trkpt lat="44.2470959" lon="3.6259025"><ele></ele><time>2022-6-3T0:43:2Z</time></trkpt>
<trkpt lat="44.2470324" lon="3.6261376"><ele></ele><time>2022-6-3T0:43:5Z</time></trkpt>
<trkpt lat="44.2469156" lon="3.6263542"><ele></ele><time>2022-6-3T0:43:8Z</time></trkpt>
<trkpt lat="44.2467364" lon="3.6264205"><ele></ele><time>2022-6-3T0:43:11Z</time></trkpt>
<trkpt lat="44.2466039" lon="3.6266060"><ele></ele><time>2022-6-3T0:43:14Z</time></trkpt>
<trkpt lat="44.2464377" lon="3.6267270"><ele></ele><time>2022-6-3T0:43:17Z</time></trkpt>
<trkpt lat="44.2462600" lon="3.6268384"><ele></ele><time>2022-6-3T0:43:20Z</time></trkpt>
<trkpt lat="44.2461409" lon="3.6270612"><ele></ele><time>2022-6-3T0:43:23Z</time></trkpt>
<trkpt lat="44.2459415" lon="3.6271531"><ele></ele><time>2022-6-3T0:43:26Z</time></trkpt>
<trkpt lat="44.2457642" lon="3.6273081"><ele></ele><time>2022-6-3T0:43:29Z</time></trkpt>
<trkpt lat="44.2455927" lon="3.6274201"><ele></ele><time>2022-6-3T0:43:32Z</time></trkpt>
<trkpt lat="44.2454359" lon="3.6275700"><ele></ele><time>2022-6-3T0:43:35Z</time></trkpt>
<trkpt lat="44.2452901" lon="3.6277644"><ele></ele><time>2022-6-3T0:43:38Z</time></trkpt>
<trkpt lat="44.2451650" lon="3.6279761"><ele></ele><time>2022-6-3T0:43:41Z</time></trkpt>
<trkpt lat="44.2450394" lon="3.6281838"><ele></ele><time>2022-6-3T0:43:44Z</time></trkpt>
<trkpt lat="44.2449495" lon="3.6284101"><ele></ele><time>2022-6-3T0:43:47Z</time></trkpt>
<trkpt lat="44.2448409" lon="3.6286248"><ele></ele><time>2022-6-3T0:43:50Z</time></trkpt>
<trkpt lat="44.2447314" lon="3.6288322"><ele></ele><time>2022-6-3T0:43:53Z</time></trkpt>
<trkpt lat="44.2446298" lon="3.6290440"><ele></ele><time>2022-6-3T0:43:56Z</time></trkpt>
<trkpt lat="44.2445050" lon="3.6292885"><ele></ele><time>2022-6-3T0:43:59Z</time></trkpt>
<trkpt lat="44.2444054" lon="3.6295325"><ele></ele><time>2022-6-3T0:44:2Z</time></trkpt>
<trkpt lat="44.2442908" lon="3.6298272"><ele></ele><time>2022-6-3T0:44:5Z</time></trkpt>
<trkpt lat="44.2442299" lon="3.6300862"><ele></ele><time>2022-6-3T0:44:8Z</time></trkpt>
<trkpt lat="44.2441562" lon="3.6303252"><ele></ele><time>2022-6-3T0:44:11Z</time></trkpt>
<trkpt lat="44.2440536" lon="3.6306486"><ele></ele><time>2022-6-3T0:44:14Z</time></trkpt>
<trkpt lat="44.2439471" lon="3.6309020"><ele></ele><time>2022-6-3T0:44:17Z</time></trkpt>
<trkpt lat="44.2439450" lon="3.6311986"><ele></ele><time>2022-6-3T0:44:20Z</time></trkpt>
<trkpt lat="44.2440078" lon="3.6314952"><ele></ele><time>2022-6-3T0:44:23Z</time></trkpt>
<trkpt lat="44.2439250" lon="3.6317754"><ele></ele><time>2022-6-3T0:44:26Z</time></trkpt>
<trkpt lat="44.2438122" lon="3.6320061"><ele></ele><time>2022-6-3T0:44:29Z</time></trkpt>
<trkpt lat="44.2436571" lon="3.6321694"><ele></ele><time>2022-6-3T0:44:32Z</time></trkpt>
<trkpt lat="44.2436557" lon="3.6324439"><ele></ele><time>2022-6-3T0:44:35Z</time></trkpt>
<trkpt lat="44.2436415" lon="3.6327029"><ele></ele><time>2022-6-3T0:44:38Z</time></trkpt>
<trkpt lat="44.2435987" lon="3.6329584"><ele></ele><time>2022-6-3T0:44:41Z</time></trkpt>
<trkpt lat="44.2435639" lon="3.6332088"><ele></ele><time>2022-6-3T0:44:44Z</time></trkpt>
<trkpt lat="44.2435685" lon="3.6334656"><ele></ele><time>2022-6-3T0:44:47Z</time></trkpt>
<trkpt lat="44.2435519" lon="3.6337161"><ele></ele><time>2022-6-3T0:44:50Z</time></trkpt>
<trkpt lat="44.2435241" lon="3.6339835"><ele></ele><time>2022-6-3T0:44:53Z</time></trkpt>
<trkpt lat="44.2435074" lon="3.6342487"><ele></ele><time>2022-6-3T0:44:56Z</time></trkpt>
<trkpt lat="44.2434828" lon="3.6345015"><ele></ele><time>2022-6-3T0:44:59Z</time></trkpt>
<trkpt lat="44.2434229" lon="3.6347426"><ele></ele><time>2022-6-3T0:45:2Z</time></trkpt>
<trkpt lat="44.2432500" lon="3.6348411"><ele></ele><time>2022-6-3T0:45:5Z</time></trkpt>
<trkpt lat="44.2430703" lon="3.6348326"><ele></ele><time>2022-6-3T0:45:8Z</time></trkpt>
<trkpt lat="44.2430055" lon="3.6350740"><ele></ele><time>2022-6-3T0:45:11Z</time></trkpt>
<trkpt lat="44.2429716" lon="3.6354316"><ele></ele><time>2022-6-3T0:45:14Z</time></trkpt>
<trkpt lat="44.2429328" lon="3.6356785"><ele></ele><time>2022-6-3T0:45:17Z</time></trkpt>
<trkpt lat="44.2428920" lon="3.6359251"><ele></ele><time>2022-6-3T0:45:20Z</time></trkpt>
<trkpt lat="44.2428612" lon="3.6362205"><ele></ele><time>2022-6-3T0:45:23Z</time></trkpt>
<trkpt lat="44.2428793" lon="3.6365038"><ele></ele><time>2022-6-3T0:45:26Z</time></trkpt>
<trkpt lat="44.2429564" lon="3.6367377"><ele></ele><time>2022-6-3T0:45:29Z</time></trkpt>
<trkpt lat="44.2430072" lon="3.6369894"><ele></ele><time>2022-6-3T0:45:32Z</time></trkpt>
<trkpt lat="44.2430756" lon="3.6372450"><ele></ele><time>2022-6-3T0:45:35Z</time></trkpt>
<trkpt lat="44.2431056" lon="3.6374954"><ele></ele><time>2022-6-3T0:45:38Z</time></trkpt>
<trkpt lat="44.2431208" lon="3.6377524"><ele></ele><time>2022-6-3T0:45:41Z</time></trkpt>
<trkpt lat="44.2430736" lon="3.6380494"><ele></ele><time>2022-6-3T0:45:44Z</time></trkpt>
<trkpt lat="44.2430142" lon="3.6382958"><ele></ele><time>2022-6-3T0:45:47Z</time></trkpt>
<trkpt lat="44.2428504" lon="3.6384110"><ele></ele><time>2022-6-3T0:45:50Z</time></trkpt>
<trkpt lat="44.2426585" lon="3.6383626"><ele></ele><time>2022-6-3T0:45:53Z</time></trkpt>
<trkpt lat="44.2425978" lon="3.6380806"><ele></ele><time>2022-6-3T0:45:56Z</time></trkpt>
<trkpt lat="44.2425511" lon="3.6378266"><ele></ele><time>2022-6-3T0:45:59Z</time></trkpt>
<trkpt lat="44.2425352" lon="3.6375464"><ele></ele><time>2022-6-3T0:46:2Z</time></trkpt>
<trkpt lat="44.2423680" lon="3.6374378"><ele></ele><time>2022-6-3T0:46:5Z</time></trkpt>
<trkpt lat="44.2423082" lon="3.6377023"><ele></ele><time>2022-6-3T0:46:8Z</time></trkpt>
<trkpt lat="44.2422461" lon="3.6380069"><ele></ele><time>2022-6-3T0:46:11Z</time></trkpt>
<trkpt lat="44.2422099" lon="3.6383146"><ele></ele><time>2022-6-3T0:46:14Z</time></trkpt>
<trkpt lat="44.2422041" lon="3.6385923"><ele></ele><time>2022-6-3T0:46:17Z</time></trkpt>
<trkpt lat="44.2422757" lon="3.6388260"><ele></ele><time>2022-6-3T0:46:20Z</time></trkpt>
<trkpt lat="44.2423023" lon="3.6391025"><ele></ele><time>2022-6-3T0:46:23Z</time></trkpt>
<trkpt lat="44.2422708" lon="3.6393537"><ele></ele><time>2022-6-3T0:46:26Z</time></trkpt>
<trkpt lat="44.2421709" lon="3.6395787"><ele></ele><time>2022-6-3T0:46:29Z</time></trkpt>
<trkpt lat="44.2420885" lon="3.6398219"><ele></ele><time>2022-6-3T0:46:32Z</time></trkpt>
<trkpt lat="44.2419343" lon="3.6399703"><ele></ele><time>2022-6-3T0:46:35Z</time></trkpt>
<trkpt lat="44.2417554" lon="3.6400998"><ele></ele><time>2022-6-3T0:46:38Z</time></trkpt>
<trkpt lat="44.2415290" lon="3.6401906"><ele></ele><time>2022-6-3T0:46:41Z</time></trkpt>
<trkpt lat="44.2413454" lon="3.6402772"><ele></ele><time>2022-6-3T0:46:44Z</time></trkpt>
<trkpt lat="44.2411759" lon="3.6404703"><ele></ele><time>2022-6-3T0:46:47Z</time></trkpt>
<trkpt lat="44.2409936" lon="3.6405933"><ele></ele><time>2022-6-3T0:46:50Z</time></trkpt>
<trkpt lat="44.2407923" lon="3.6407189"><ele></ele><time>2022-6-3T0:46:53Z</time></trkpt>
<trkpt lat="44.2406188" lon="3.6408352"><ele></ele><time>2022-6-3T0:46:56Z</time></trkpt>
<trkpt lat="44.2404432" lon="3.6409628"><ele></ele><time>2022-6-3T0:46:59Z</time></trkpt>
<trkpt lat="44.2402684" lon="3.6410838"><ele></ele><time>2022-6-3T0:47:2Z</time></trkpt>
<trkpt lat="44.2400914" lon="3.6411623"><ele></ele><time>2022-6-3T0:47:5Z</time></trkpt>
<trkpt lat="44.2399285" lon="3.6412749"><ele></ele><time>2022-6-3T0:47:8Z</time></trkpt>
<trkpt lat="44.2397279" lon="3.6413644"><ele></ele><time>2022-6-3T0:47:11Z</time></trkpt>
<trkpt lat="44.2395783" lon="3.6415455"><ele></ele><time>2022-6-3T0:47:14Z</time></trkpt>
<trkpt lat="44.2394817" lon="3.6417907"><ele></ele><time>2022-6-3T0:47:17Z</time></trkpt>
<trkpt lat="44.2394064" lon="3.6420741"><ele></ele><time>2022-6-3T0:47:20Z</time></trkpt>
<trkpt lat="44.2393420" lon="3.6423207"><ele></ele><time>2022-6-3T0:47:23Z</time></trkpt>
<trkpt lat="44.2393167" lon="3.6425753"><ele></ele><time>2022-6-3T0:47:26Z</time></trkpt>
<trkpt lat="44.2391888" lon="3.6427953"><ele></ele><time>2022-6-3T0:47:29Z</time></trkpt>
<trkpt lat="44.2391754" lon="3.6430548"><ele></ele><time>2022-6-3T0:47:32Z</time></trkpt>
<trkpt lat="44.2391746" lon="3.6433139"><ele></ele><time>2022-6-3T0:47:35Z</time></trkpt>
<trkpt lat="44.2392211" lon="3.6435694"><ele></ele><time>2022-6-3T0:47:38Z</time></trkpt>
<trkpt lat="44.2392440" lon="3.6438418"><ele></ele><time>2022-6-3T0:47:41Z</time></trkpt>
<trkpt lat="44.2392883" lon="3.6441418"><ele></ele><time>2022-6-3T0:47:44Z</time></trkpt>
<trkpt lat="44.2393545" lon="3.6443844"><ele></ele><time>2022-6-3T0:47:47Z</time></trkpt>
<trkpt lat="44.2395526" lon="3.6444774"><ele></ele><time>2022-6-3T0:47:50Z</time></trkpt>
<trkpt lat="44.2397441" lon="3.6444707"><ele></ele><time>2022-6-3T0:47:53Z</time></trkpt>
<trkpt lat="44.2399011" lon="3.6446090"><ele></ele><time>2022-6-3T0:47:56Z</time></trkpt>
<trkpt lat="44.2400803" lon="3.6446636"><ele></ele><time>2022-6-3T0:47:59Z</time></trkpt>
<trkpt lat="44.2402949" lon="3.6447859"><ele></ele><time>2022-6-3T0:48:2Z</time></trkpt>
<trkpt lat="44.2404736" lon="3.6448697"><ele></ele><time>2022-6-3T0:48:5Z</time></trkpt>
<trkpt lat="44.2406370" lon="3.6449747"><ele></ele><time>2022-6-3T0:48:8Z</time></trkpt>
<trkpt lat="44.2407978" lon="3.6450934"><ele></ele><time>2022-6-3T0:48:11Z</time></trkpt>
<trkpt lat="44.2410122" lon="3.6451937"><ele></ele><time>2022-6-3T0:48:14Z</time></trkpt>
<trkpt lat="44.2412052" lon="3.6452425"><ele></ele><time>2022-6-3T0:48:17Z</time></trkpt>
<trkpt lat="44.2414108" lon="3.6453125"><ele></ele><time>2022-6-3T0:48:20Z</time></trkpt>
<trkpt lat="44.2416120" lon="3.6453701"><ele></ele><time>2022-6-3T0:48:23Z</time></trkpt>
<trkpt lat="44.2418208" lon="3.6454326"><ele></ele><time>2022-6-3T0:48:26Z</time></trkpt>
<trkpt lat="44.2420466" lon="3.6455079"><ele></ele><time>2022-6-3T0:48:29Z</time></trkpt>
<trkpt lat="44.2422075" lon="3.6456934"><ele></ele><time>2022-6-3T0:48:32Z</time></trkpt>
<trkpt lat="44.2423941" lon="3.6457778"><ele></ele><time>2022-6-3T0:48:35Z</time></trkpt>
<trkpt lat="44.2426283" lon="3.6458170"><ele></ele><time>2022-6-3T0:48:38Z</time></trkpt>
<trkpt lat="44.2428315" lon="3.6457956"><ele></ele><time>2022-6-3T0:48:41Z</time></trkpt>
<trkpt lat="44.2430177" lon="3.6457335"><ele></ele><time>2022-6-3T0:48:44Z</time></trkpt>
<trkpt lat="44.2432406" lon="3.6456985"><ele></ele><time>2022-6-3T0:48:47Z</time></trkpt>
<trkpt lat="44.2434350" lon="3.6457980"><ele></ele><time>2022-6-3T0:48:50Z</time></trkpt>
<trkpt lat="44.2436505" lon="3.6458317"><ele></ele><time>2022-6-3T0:48:53Z</time></trkpt>
<trkpt lat="44.2438323" lon="3.6457781"><ele></ele><time>2022-6-3T0:48:56Z</time></trkpt>
<trkpt lat="44.2440340" lon="3.6458323"><ele></ele><time>2022-6-3T0:48:59Z</time></trkpt>
<trkpt lat="44.2442124" lon="3.6459000"><ele></ele><time>2022-6-3T0:49:2Z</time></trkpt>
<trkpt lat="44.2444328" lon="3.6459487"><ele></ele><time>2022-6-3T0:49:5Z</time></trkpt>
<trkpt lat="44.2446222" lon="3.6459583"><ele></ele><time>2022-6-3T0:49:8Z</time></trkpt>
<trkpt lat="44.2448426" lon="3.6460503"><ele></ele><time>2022-6-3T0:49:11Z</time></trkpt>
<trkpt lat="44.2450397" lon="3.6461470"><ele></ele><time>2022-6-3T0:49:14Z</time></trkpt>
<trkpt lat="44.2452137" lon="3.6462583"><ele></ele><time>2022-6-3T0:49:17Z</time></trkpt>
<trkpt lat="44.2453762" lon="3.6463726"><ele></ele><time>2022-6-3T0:49:20Z</time></trkpt>
<trkpt lat="44.2455063" lon="3.6465789"><ele></ele><time>2022-6-3T0:49:23Z</time></trkpt>
<trkpt lat="44.2455569" lon="3.6468502"><ele></ele><time>2022-6-3T0:49:26Z</time></trkpt>
<trkpt lat="44.2456207" lon="3.6471018"><ele></ele><time>2022-6-3T0:49:29Z</time></trkpt>
<trkpt lat="44.2458054" lon="3.6471881"><ele></ele><time>2022-6-3T0:49:32Z</time></trkpt>
<trkpt lat="44.2459945" lon="3.6472032"><ele></ele><time>2022-6-3T0:49:35Z</time></trkpt>
<trkpt lat="44.2462029" lon="3.6472550"><ele></ele><time>2022-6-3T0:49:38Z</time></trkpt>
<trkpt lat="44.2463894" lon="3.6473925"><ele></ele><time>2022-6-3T0:49:41Z</time></trkpt>
<trkpt lat="44.2465807" lon="3.6475339"><ele></ele><time>2022-6-3T0:49:44Z</time></trkpt>
<trkpt lat="44.2467831" lon="3.6476753"><ele></ele><time>2022-6-3T0:49:47Z</time></trkpt>
<trkpt lat="44.2469932" lon="3.6477838"><ele></ele><time>2022-6-3T0:49:50Z</time></trkpt>
<trkpt lat="44.2471740" lon="3.6478655"><ele></ele><time>2022-6-3T0:49:53Z</time></trkpt>
<trkpt lat="44.2473837" lon="3.6477953"><ele></ele><time>2022-6-3T0:49:56Z</time></trkpt>
<trkpt lat="44.2475592" lon="3.6476289"><ele></ele><time>2022-6-3T0:49:59Z</time></trkpt>
<trkpt lat="44.2477190" lon="3.6474852"><ele></ele><time>2022-6-3T0:50:2Z</time></trkpt>
<trkpt lat="44.2478980" lon="3.6475540"><ele></ele><time>2022-6-3T0:50:5Z</time></trkpt>
<trkpt lat="44.2480308" lon="3.6477820"><ele></ele><time>2022-6-3T0:50:8Z</time></trkpt>
<trkpt lat="44.2481132" lon="3.6480344"><ele></ele><time>2022-6-3T0:50:11Z</time></trkpt>
<trkpt lat="44.2481351" lon="3.6482856"><ele></ele><time>2022-6-3T0:50:14Z</time></trkpt>
<trkpt lat="44.2480491" lon="3.6485109"><ele></ele><time>2022-6-3T0:50:17Z</time></trkpt>
<trkpt lat="44.2480058" lon="3.6487741"><ele></ele><time>2022-6-3T0:50:20Z</time></trkpt>
<trkpt lat="44.2480624" lon="3.6490702"><ele></ele><time>2022-6-3T0:50:23Z</time></trkpt>
<trkpt lat="44.2480586" lon="3.6493569"><ele></ele><time>2022-6-3T0:50:26Z</time></trkpt>
<trkpt lat="44.2480578" lon="3.6496636"><ele></ele><time>2022-6-3T0:50:29Z</time></trkpt>
<trkpt lat="44.2480479" lon="3.6499524"><ele></ele><time>2022-6-3T0:50:32Z</time></trkpt>
<trkpt lat="44.2479791" lon="3.6501856"><ele></ele><time>2022-6-3T0:50:35Z</time></trkpt>
<trkpt lat="44.2478331" lon="3.6503549"><ele></ele><time>2022-6-3T0:50:38Z</time></trkpt>
<trkpt lat="44.2476917" lon="3.6505297"><ele></ele><time>2022-6-3T0:50:41Z</time></trkpt>
<trkpt lat="44.2475601" lon="3.6507057"><ele></ele><time>2022-6-3T0:50:44Z</time></trkpt>
<trkpt lat="44.2474044" lon="3.6508990"><ele></ele><time>2022-6-3T0:50:47Z</time></trkpt>
<trkpt lat="44.2472269" lon="3.6510450"><ele></ele><time>2022-6-3T0:50:50Z</time></trkpt>
<trkpt lat="44.2470453" lon="3.6511457"><ele></ele><time>2022-6-3T0:50:53Z</time></trkpt>
<trkpt lat="44.2468487" lon="3.6512563"><ele></ele><time>2022-6-3T0:50:56Z</time></trkpt>
<trkpt lat="44.2466675" lon="3.6513829"><ele></ele><time>2022-6-3T0:50:59Z</time></trkpt>
<trkpt lat="44.2464966" lon="3.6515092"><ele></ele><time>2022-6-3T0:51:2Z</time></trkpt>
<trkpt lat="44.2463636" lon="3.6516931"><ele></ele><time>2022-6-3T0:51:5Z</time></trkpt>
<trkpt lat="44.2462070" lon="3.6518613"><ele></ele><time>2022-6-3T0:51:8Z</time></trkpt>
<trkpt lat="44.2460573" lon="3.6520281"><ele></ele><time>2022-6-3T0:51:11Z</time></trkpt>
<trkpt lat="44.2459465" lon="3.6522507"><ele></ele><time>2022-6-3T0:51:14Z</time></trkpt>
<trkpt lat="44.2457927" lon="3.6524286"><ele></ele><time>2022-6-3T0:51:17Z</time></trkpt>
<trkpt lat="44.2456329" lon="3.6525889"><ele></ele><time>2022-6-3T0:51:20Z</time></trkpt>
<trkpt lat="44.2454684" lon="3.6527430"><ele></ele><time>2022-6-3T0:51:23Z</time></trkpt>
<trkpt lat="44.2453583" lon="3.6529472"><ele></ele><time>2022-6-3T0:51:26Z</time></trkpt>
<trkpt lat="44.2451908" lon="3.6531001"><ele></ele><time>2022-6-3T0:51:29Z</time></trkpt>
<trkpt lat="44.2450494" lon="3.6532584"><ele></ele><time>2022-6-3T0:51:32Z</time></trkpt>
<trkpt lat="44.2449097" lon="3.6534254"><ele></ele><time>2022-6-3T0:51:35Z</time></trkpt>
<trkpt lat="44.2447495" lon="3.6535968"><ele></ele><time>2022-6-3T0:51:38Z</time></trkpt>
<trkpt lat="44.2445892" lon="3.6537237"><ele></ele><time>2022-6-3T0:51:41Z</time></trkpt>
<trkpt lat="44.2444577" lon="3.6539179"><ele></ele><time>2022-6-3T0:51:44Z</time></trkpt>
<trkpt lat="44.2443311" lon="3.6541262"><ele></ele><time>2022-6-3T0:51:47Z</time></trkpt>
<trkpt lat="44.2442415" lon="3.6543823"><ele></ele><time>2022-6-3T0:51:50Z</time></trkpt>
<trkpt lat="44.2441672" lon="3.6546225"><ele></ele><time>2022-6-3T0:51:53Z</time></trkpt>
<trkpt lat="44.2441025" lon="3.6548659"><ele></ele><time>2022-6-3T0:51:56Z</time></trkpt>
<trkpt lat="44.2440399" lon="3.6551266"><ele></ele><time>2022-6-3T0:51:59Z</time></trkpt>
<trkpt lat="44.2439789" lon="3.6553749"><ele></ele><time>2022-6-3T0:52:2Z</time></trkpt>
<trkpt lat="44.2438918" lon="3.6556003"><ele></ele><time>2022-6-3T0:52:5Z</time></trkpt>
<trkpt lat="44.2437435" lon="3.6557500"><ele></ele><time>2022-6-3T0:52:8Z</time></trkpt>
<trkpt lat="44.2435934" lon="3.6559226"><ele></ele><time>2022-6-3T0:52:11Z</time></trkpt>
<trkpt lat="44.2434270" lon="3.6561190"><ele></ele><time>2022-6-3T0:52:14Z</time></trkpt>
<trkpt lat="44.2432664" lon="3.6562849"><ele></ele><time>2022-6-3T0:52:17Z</time></trkpt>
<trkpt lat="44.2431333" lon="3.6564626"><ele></ele><time>2022-6-3T0:52:20Z</time></trkpt>
<trkpt lat="44.2429767" lon="3.6566421"><ele></ele><time>2022-6-3T0:52:23Z</time></trkpt>
<trkpt lat="44.2428031" lon="3.6568101"><ele></ele><time>2022-6-3T0:52:26Z</time></trkpt>
<trkpt lat="44.2426683" lon="3.6570042"><ele></ele><time>2022-6-3T0:52:29Z</time></trkpt>
<trkpt lat="44.2425137" lon="3.6571812"><ele></ele><time>2022-6-3T0:52:32Z</time></trkpt>
<trkpt lat="44.2423770" lon="3.6573478"><ele></ele><time>2022-6-3T0:52:35Z</time></trkpt>
<trkpt lat="44.2422775" lon="3.6575950"><ele></ele><time>2022-6-3T0:52:38Z</time></trkpt>
<trkpt lat="44.2422452" lon="3.6578543"><ele></ele><time>2022-6-3T0:52:41Z</time></trkpt>
<trkpt lat="44.2422315" lon="3.6581353"><ele></ele><time>2022-6-3T0:52:44Z</time></trkpt>
<trkpt lat="44.2421353" lon="3.6583603"><ele></ele><time>2022-6-3T0:52:47Z</time></trkpt>
<trkpt lat="44.2419927" lon="3.6585197"><ele></ele><time>2022-6-3T0:52:50Z</time></trkpt>
<trkpt lat="44.2420759" lon="3.6587530"><ele></ele><time>2022-6-3T0:52:53Z</time></trkpt>
<trkpt lat="44.2421802" lon="3.6589600"><ele></ele><time>2022-6-3T0:52:56Z</time></trkpt>
<trkpt lat="44.2422593" lon="3.6592496"><ele></ele><time>2022-6-3T0:52:59Z</time></trkpt>
<trkpt lat="44.2423189" lon="3.6594943"><ele></ele><time>2022-6-3T0:53:2Z</time></trkpt>
<trkpt lat="44.2423857" lon="3.6597318"><ele></ele><time>2022-6-3T0:53:5Z</time></trkpt>
</trkseg></trk></gpx>